<?xml version='1.0' encoding='UTF-8'?><gpx version="1.1" creator="JPX - https://github.com/jenetics/jpx" xmlns="http://www.topografix.com/GPX/1/1"><trk><trkseg><trkpt lat="44.1181464" lon="9.8028992"><ele>37.0</ele><time>2026-03-24T07:31:46.839Z</time></trkpt><trkpt lat="44.118097" lon="9.8028437"><ele>37.0</ele><time>2026-03-24T07:31:52.839Z</time></trkpt><trkpt lat="44.1180217" lon="9.802825"><ele>37.0</ele><time>2026-03-24T07:31:59.839Z</time></trkpt><trkpt lat="44.117975" lon="9.8029"><ele>37.0</ele><time>2026-03-24T07:32:02.839Z</time></trkpt><trkpt lat="44.1178833" lon="9.80294"><ele>37.0</ele><time>2026-03-24T07:32:06.839Z</time></trkpt><trkpt lat="44.1178083" lon="9.8029717"><ele>37.0</ele><time>2026-03-24T07:32:08.839Z</time></trkpt><trkpt lat="44.1177383" lon="9.8030383"><ele>37.0</ele><time>2026-03-24T07:32:11.839Z</time></trkpt><trkpt lat="44.1176967" lon="9.803105"><ele>37.0</ele><time>2026-03-24T07:32:14.839Z</time></trkpt><trkpt lat="44.1176183" lon="9.8031617"><ele>37.0</ele><time>2026-03-24T07:32:19.839Z</time></trkpt><trkpt lat="44.1175133" lon="9.8032017"><ele>37.0</ele><time>2026-03-24T07:32:22.839Z</time></trkpt><trkpt lat="44.1174517" lon="9.8032233"><ele>37.0</ele><time>2026-03-24T07:32:23.838Z</time></trkpt><trkpt lat="44.1173917" lon="9.8032683"><ele>37.0</ele><time>2026-03-24T07:32:25.838Z</time></trkpt><trkpt lat="44.1173483" lon="9.8033333"><ele>36.57142857142857</ele><time>2026-03-24T07:32:27.839Z</time></trkpt><trkpt lat="44.1172933" lon="9.8034317"><ele>36.14285714285714</ele><time>2026-03-24T07:32:30.839Z</time></trkpt><trkpt lat="44.1172567" lon="9.8035067"><ele>35.71428571428571</ele><time>2026-03-24T07:32:32.839Z</time></trkpt><trkpt lat="44.1172167" lon="9.803585"><ele>35.285714285714285</ele><time>2026-03-24T07:32:34.839Z</time></trkpt><trkpt lat="44.1171667" lon="9.80366"><ele>34.857142857142854</ele><time>2026-03-24T07:32:36.839Z</time></trkpt><trkpt lat="44.117145" lon="9.803755"><ele>34.42857142857142</ele><time>2026-03-24T07:32:38.839Z</time></trkpt><trkpt lat="44.1170933" lon="9.8038333"><ele>34.0</ele><time>2026-03-24T07:32:42.838Z</time></trkpt><trkpt lat="44.1170433" lon="9.8038983"><ele>34.0</ele><time>2026-03-24T07:32:45.839Z</time></trkpt><trkpt lat="44.1169683" lon="9.803915"><ele>34.0</ele><time>2026-03-24T07:32:48.839Z</time></trkpt><trkpt lat="44.1169017" lon="9.8039033"><ele>34.0</ele><time>2026-03-24T07:32:50.839Z</time></trkpt><trkpt lat="44.116825" lon="9.8038833"><ele>34.0</ele><time>2026-03-24T07:32:52.839Z</time></trkpt><trkpt lat="44.1167517" lon="9.80385"><ele>34.0</ele><time>2026-03-24T07:32:54.839Z</time></trkpt><trkpt lat="44.1166567" lon="9.80381"><ele>34.0</ele><time>2026-03-24T07:32:56.839Z</time></trkpt><trkpt lat="44.1165383" lon="9.8037867"><ele>33.0</ele><time>2026-03-24T07:32:58.839Z</time></trkpt><trkpt lat="44.1164733" lon="9.8037917"><ele>32.0</ele><time>2026-03-24T07:32:59.838Z</time></trkpt><trkpt lat="44.1163483" lon="9.8038033"><ele>31.0</ele><time>2026-03-24T07:33:01.839Z</time></trkpt><trkpt lat="44.1162233" lon="9.803815"><ele>30.0</ele><time>2026-03-24T07:33:03.839Z</time></trkpt><trkpt lat="44.1161133" lon="9.8038217"><ele>29.0</ele><time>2026-03-24T07:33:05.839Z</time></trkpt><trkpt lat="44.1160267" lon="9.80383"><ele>28.999999999999996</ele><time>2026-03-24T07:33:07.838Z</time></trkpt><trkpt lat="44.1159583" lon="9.8038583"><ele>29.0</ele><time>2026-03-24T07:33:09.838Z</time></trkpt><trkpt lat="44.1159233" lon="9.8039517"><ele>29.0</ele><time>2026-03-24T07:33:11.839Z</time></trkpt><trkpt lat="44.115885" lon="9.8040383"><ele>29.0</ele><time>2026-03-24T07:33:13.839Z</time></trkpt><trkpt lat="44.115805" lon="9.8040933"><ele>28.999999999999996</ele><time>2026-03-24T07:33:15.839Z</time></trkpt><trkpt lat="44.1157283" lon="9.804145"><ele>29.0</ele><time>2026-03-24T07:33:17.839Z</time></trkpt><trkpt lat="44.1156417" lon="9.80421"><ele>28.799999999999997</ele><time>2026-03-24T07:33:19.839Z</time></trkpt><trkpt lat="44.1155667" lon="9.8042967"><ele>28.599999999999998</ele><time>2026-03-24T07:33:21.839Z</time></trkpt><trkpt lat="44.1155033" lon="9.80438"><ele>28.4</ele><time>2026-03-24T07:33:23.839Z</time></trkpt><trkpt lat="44.1154433" lon="9.804475"><ele>28.2</ele><time>2026-03-24T07:33:25.839Z</time></trkpt><trkpt lat="44.1153783" lon="9.8045533"><ele>28.0</ele><time>2026-03-24T07:33:27.839Z</time></trkpt><trkpt lat="44.11529" lon="9.80462"><ele>28.0</ele><time>2026-03-24T07:33:29.839Z</time></trkpt><trkpt lat="44.1151933" lon="9.8046967"><ele>27.999999999999996</ele><time>2026-03-24T07:33:31.839Z</time></trkpt><trkpt lat="44.1151067" lon="9.8047733"><ele>27.999999999999996</ele><time>2026-03-24T07:33:33.839Z</time></trkpt><trkpt lat="44.115025" lon="9.8048467"><ele>28.0</ele><time>2026-03-24T07:33:35.839Z</time></trkpt><trkpt lat="44.114955" lon="9.80493"><ele>28.0</ele><time>2026-03-24T07:33:37.839Z</time></trkpt><trkpt lat="44.114925" lon="9.8050367"><ele>28.000000000000004</ele><time>2026-03-24T07:33:39.839Z</time></trkpt><trkpt lat="44.114925" lon="9.8051367"><ele>28.0</ele><time>2026-03-24T07:33:41.839Z</time></trkpt><trkpt lat="44.11495" lon="9.8052367"><ele>28.0</ele><time>2026-03-24T07:33:43.839Z</time></trkpt><trkpt lat="44.1149717" lon="9.8053417"><ele>28.0</ele><time>2026-03-24T07:33:45.839Z</time></trkpt><trkpt lat="44.1150017" lon="9.8054517"><ele>28.000000000000004</ele><time>2026-03-24T07:33:47.839Z</time></trkpt><trkpt lat="44.1150367" lon="9.8055533"><ele>28.0</ele><time>2026-03-24T07:33:49.839Z</time></trkpt><trkpt lat="44.115075" lon="9.80565"><ele>28.142857142857142</ele><time>2026-03-24T07:33:51.839Z</time></trkpt><trkpt lat="44.115115" lon="9.805735"><ele>28.285714285714285</ele><time>2026-03-24T07:33:53.839Z</time></trkpt><trkpt lat="44.1151767" lon="9.80583"><ele>28.42857142857143</ele><time>2026-03-24T07:33:56.839Z</time></trkpt><trkpt lat="44.11523" lon="9.8059"><ele>28.571428571428573</ele><time>2026-03-24T07:33:58.839Z</time></trkpt><trkpt lat="44.1152817" lon="9.8059617"><ele>28.714285714285715</ele><time>2026-03-24T07:34:00.839Z</time></trkpt><trkpt lat="44.1153367" lon="9.8060083"><ele>28.85714285714286</ele><time>2026-03-24T07:34:03.839Z</time></trkpt><trkpt lat="44.11539" lon="9.8060767"><ele>29.000000000000004</ele><time>2026-03-24T07:34:05.839Z</time></trkpt><trkpt lat="44.115445" lon="9.80616"><ele>31.2</ele><time>2026-03-24T07:34:07.838Z</time></trkpt><trkpt lat="44.1155067" lon="9.80624"><ele>33.4</ele><time>2026-03-24T07:34:09.838Z</time></trkpt><trkpt lat="44.1155667" lon="9.8063217"><ele>35.6</ele><time>2026-03-24T07:34:11.839Z</time></trkpt><trkpt lat="44.11562" lon="9.8064083"><ele>37.8</ele><time>2026-03-24T07:34:13.839Z</time></trkpt><trkpt lat="44.115665" lon="9.8065017"><ele>40.0</ele><time>2026-03-24T07:34:15.839Z</time></trkpt><trkpt lat="44.11571" lon="9.8066583"><ele>40.0</ele><time>2026-03-24T07:34:18.839Z</time></trkpt><trkpt lat="44.11571" lon="9.8067767"><ele>40.0</ele><time>2026-03-24T07:34:20.839Z</time></trkpt><trkpt lat="44.1157167" lon="9.8069067"><ele>40.0</ele><time>2026-03-24T07:34:22.839Z</time></trkpt><trkpt lat="44.115715" lon="9.8070317"><ele>40.0</ele><time>2026-03-24T07:34:24.839Z</time></trkpt><trkpt lat="44.1157033" lon="9.8071467"><ele>40.0</ele><time>2026-03-24T07:34:26.839Z</time></trkpt><trkpt lat="44.1156783" lon="9.8072667"><ele>40.0</ele><time>2026-03-24T07:34:28.838Z</time></trkpt><trkpt lat="44.115645" lon="9.807415"><ele>40.6</ele><time>2026-03-24T07:34:30.839Z</time></trkpt><trkpt lat="44.1156067" lon="9.8075667"><ele>41.2</ele><time>2026-03-24T07:34:32.839Z</time></trkpt><trkpt lat="44.1155517" lon="9.8076767"><ele>41.8</ele><time>2026-03-24T07:34:34.839Z</time></trkpt><trkpt lat="44.1154883" lon="9.8077533"><ele>42.4</ele><time>2026-03-24T07:34:36.839Z</time></trkpt><trkpt lat="44.1154133" lon="9.80785"><ele>43.0</ele><time>2026-03-24T07:34:38.839Z</time></trkpt><trkpt lat="44.1153333" lon="9.8078967"><ele>41.0</ele><time>2026-03-24T07:34:40.839Z</time></trkpt><trkpt lat="44.1152517" lon="9.80793"><ele>39.0</ele><time>2026-03-24T07:34:42.839Z</time></trkpt><trkpt lat="44.1151833" lon="9.8079633"><ele>37.0</ele><time>2026-03-24T07:34:44.839Z</time></trkpt><trkpt lat="44.115115" lon="9.8080083"><ele>35.0</ele><time>2026-03-24T07:34:46.839Z</time></trkpt><trkpt lat="44.11503" lon="9.80803"><ele>33.0</ele><time>2026-03-24T07:34:48.839Z</time></trkpt><trkpt lat="44.11495" lon="9.8080433"><ele>31.0</ele><time>2026-03-24T07:34:50.839Z</time></trkpt><trkpt lat="44.1148533" lon="9.80801"><ele>30.166666666666668</ele><time>2026-03-24T07:34:52.839Z</time></trkpt><trkpt lat="44.1147817" lon="9.8079667"><ele>29.333333333333336</ele><time>2026-03-24T07:34:53.839Z</time></trkpt><trkpt lat="44.1147017" lon="9.8079133"><ele>28.5</ele><time>2026-03-24T07:34:55.839Z</time></trkpt><trkpt lat="44.1146367" lon="9.8078467"><ele>27.666666666666664</ele><time>2026-03-24T07:34:57.839Z</time></trkpt><trkpt lat="44.1145717" lon="9.8077733"><ele>26.833333333333332</ele><time>2026-03-24T07:34:59.838Z</time></trkpt><trkpt lat="44.1145167" lon="9.8076933"><ele>26.0</ele><time>2026-03-24T07:35:01.838Z</time></trkpt><trkpt lat="44.1144683" lon="9.80759"><ele>27.666666666666664</ele><time>2026-03-24T07:35:03.839Z</time></trkpt><trkpt lat="44.1144283" lon="9.80748"><ele>29.333333333333332</ele><time>2026-03-24T07:35:05.839Z</time></trkpt><trkpt lat="44.1144133" lon="9.8073617"><ele>31.0</ele><time>2026-03-24T07:35:07.838Z</time></trkpt><trkpt lat="44.11437" lon="9.8072433"><ele>32.666666666666664</ele><time>2026-03-24T07:35:10.839Z</time></trkpt><trkpt lat="44.114305" lon="9.8071667"><ele>34.333333333333336</ele><time>2026-03-24T07:35:12.839Z</time></trkpt><trkpt lat="44.1142283" lon="9.8070967"><ele>36.0</ele><time>2026-03-24T07:35:14.839Z</time></trkpt><trkpt lat="44.1141517" lon="9.8070283"><ele>36.0</ele><time>2026-03-24T07:35:16.839Z</time></trkpt><trkpt lat="44.1140733" lon="9.8069667"><ele>36.0</ele><time>2026-03-24T07:35:18.839Z</time></trkpt><trkpt lat="44.1139767" lon="9.8069033"><ele>36.0</ele><time>2026-03-24T07:35:20.839Z</time></trkpt><trkpt lat="44.11387" lon="9.8068367"><ele>36.0</ele><time>2026-03-24T07:35:22.839Z</time></trkpt><trkpt lat="44.1138117" lon="9.8068033"><ele>36.0</ele><time>2026-03-24T07:35:23.839Z</time></trkpt><trkpt lat="44.1137467" lon="9.806765"><ele>36.0</ele><time>2026-03-24T07:35:24.839Z</time></trkpt><trkpt lat="44.1136883" lon="9.8067283"><ele>35.28571428571429</ele><time>2026-03-24T07:35:25.839Z</time></trkpt><trkpt lat="44.11363" lon="9.8066867"><ele>34.57142857142857</ele><time>2026-03-24T07:35:26.839Z</time></trkpt><trkpt lat="44.1135583" lon="9.8066317"><ele>33.85714285714286</ele><time>2026-03-24T07:35:27.839Z</time></trkpt><trkpt lat="44.113495" lon="9.8065917"><ele>33.142857142857146</ele><time>2026-03-24T07:35:28.838Z</time></trkpt><trkpt lat="44.1134317" lon="9.8065517"><ele>32.42857142857143</ele><time>2026-03-24T07:35:29.839Z</time></trkpt><trkpt lat="44.1133617" lon="9.8065133"><ele>31.714285714285715</ele><time>2026-03-24T07:35:30.839Z</time></trkpt><trkpt lat="44.1132933" lon="9.8064867"><ele>31.0</ele><time>2026-03-24T07:35:31.839Z</time></trkpt><trkpt lat="44.1132267" lon="9.806465"><ele>31.000000000000004</ele><time>2026-03-24T07:35:32.839Z</time></trkpt><trkpt lat="44.11316" lon="9.8064567"><ele>31.0</ele><time>2026-03-24T07:35:33.839Z</time></trkpt><trkpt lat="44.113095" lon="9.8064667"><ele>31.0</ele><time>2026-03-24T07:35:34.838Z</time></trkpt><trkpt lat="44.113025" lon="9.80649"><ele>31.0</ele><time>2026-03-24T07:35:35.839Z</time></trkpt><trkpt lat="44.1129567" lon="9.8065217"><ele>31.000000000000004</ele><time>2026-03-24T07:35:36.839Z</time></trkpt><trkpt lat="44.1128833" lon="9.8065733"><ele>31.0</ele><time>2026-03-24T07:35:37.838Z</time></trkpt><trkpt lat="44.112805" lon="9.8066433"><ele>31.000000000000004</ele><time>2026-03-24T07:35:38.839Z</time></trkpt><trkpt lat="44.1127333" lon="9.8066967"><ele>31.0</ele><time>2026-03-24T07:35:39.839Z</time></trkpt><trkpt lat="44.1126617" lon="9.8067483"><ele>31.0</ele><time>2026-03-24T07:35:40.839Z</time></trkpt><trkpt lat="44.11258" lon="9.806805"><ele>31.0</ele><time>2026-03-24T07:35:41.839Z</time></trkpt><trkpt lat="44.1125017" lon="9.8068433"><ele>31.000000000000004</ele><time>2026-03-24T07:35:42.839Z</time></trkpt><trkpt lat="44.11242" lon="9.80687"><ele>31.0</ele><time>2026-03-24T07:35:43.839Z</time></trkpt><trkpt lat="44.1123317" lon="9.8068917"><ele>27.2</ele><time>2026-03-24T07:35:44.838Z</time></trkpt><trkpt lat="44.1122417" lon="9.8069067"><ele>23.400000000000002</ele><time>2026-03-24T07:35:45.839Z</time></trkpt><trkpt lat="44.1121483" lon="9.8069067"><ele>19.6</ele><time>2026-03-24T07:35:46.839Z</time></trkpt><trkpt lat="44.1120583" lon="9.806895"><ele>15.8</ele><time>2026-03-24T07:35:47.838Z</time></trkpt><trkpt lat="44.111965" lon="9.8068817"><ele>12.0</ele><time>2026-03-24T07:35:48.839Z</time></trkpt><trkpt lat="44.1118733" lon="9.8068717"><ele>12.0</ele><time>2026-03-24T07:35:49.838Z</time></trkpt><trkpt lat="44.1117783" lon="9.8068433"><ele>12.0</ele><time>2026-03-24T07:35:50.839Z</time></trkpt><trkpt lat="44.1116917" lon="9.8067983"><ele>12.0</ele><time>2026-03-24T07:35:51.839Z</time></trkpt><trkpt lat="44.1116117" lon="9.806735"><ele>12.0</ele><time>2026-03-24T07:35:52.838Z</time></trkpt><trkpt lat="44.1115367" lon="9.806655"><ele>12.0</ele><time>2026-03-24T07:35:53.838Z</time></trkpt><trkpt lat="44.1114683" lon="9.8065733"><ele>13.5</ele><time>2026-03-24T07:35:54.839Z</time></trkpt><trkpt lat="44.1114" lon="9.8065067"><ele>15.0</ele><time>2026-03-24T07:35:55.839Z</time></trkpt><trkpt lat="44.1113267" lon="9.8064467"><ele>16.5</ele><time>2026-03-24T07:35:56.839Z</time></trkpt><trkpt lat="44.11125" lon="9.8063967"><ele>18.0</ele><time>2026-03-24T07:35:57.839Z</time></trkpt><trkpt lat="44.1111667" lon="9.806355"><ele>19.5</ele><time>2026-03-24T07:35:58.839Z</time></trkpt><trkpt lat="44.1110833" lon="9.8063183"><ele>21.0</ele><time>2026-03-24T07:35:59.839Z</time></trkpt><trkpt lat="44.1109983" lon="9.80633"><ele>21.0</ele><time>2026-03-24T07:36:00.839Z</time></trkpt><trkpt lat="44.1109133" lon="9.8063583"><ele>21.0</ele><time>2026-03-24T07:36:01.839Z</time></trkpt><trkpt lat="44.1108167" lon="9.8063967"><ele>21.0</ele><time>2026-03-24T07:36:02.839Z</time></trkpt><trkpt lat="44.110765" lon="9.80649"><ele>21.0</ele><time>2026-03-24T07:36:03.839Z</time></trkpt><trkpt lat="44.1107067" lon="9.8065883"><ele>21.0</ele><time>2026-03-24T07:36:04.838Z</time></trkpt><trkpt lat="44.1106433" lon="9.8066767"><ele>20.666666666666668</ele><time>2026-03-24T07:36:05.839Z</time></trkpt><trkpt lat="44.110575" lon="9.806745"><ele>20.333333333333332</ele><time>2026-03-24T07:36:06.839Z</time></trkpt><trkpt lat="44.1105033" lon="9.8067933"><ele>20.0</ele><time>2026-03-24T07:36:07.839Z</time></trkpt><trkpt lat="44.1104217" lon="9.806815"><ele>19.666666666666664</ele><time>2026-03-24T07:36:08.839Z</time></trkpt><trkpt lat="44.1103367" lon="9.8068217"><ele>19.333333333333332</ele><time>2026-03-24T07:36:09.838Z</time></trkpt><trkpt lat="44.1102317" lon="9.806815"><ele>19.0</ele><time>2026-03-24T07:36:10.839Z</time></trkpt><trkpt lat="44.1101317" lon="9.8067867"><ele>19.0</ele><time>2026-03-24T07:36:11.839Z</time></trkpt><trkpt lat="44.1100367" lon="9.8067433"><ele>19.0</ele><time>2026-03-24T07:36:12.839Z</time></trkpt><trkpt lat="44.1099383" lon="9.8066833"><ele>19.0</ele><time>2026-03-24T07:36:13.839Z</time></trkpt><trkpt lat="44.1098317" lon="9.8066133"><ele>19.0</ele><time>2026-03-24T07:36:14.839Z</time></trkpt><trkpt lat="44.109735" lon="9.80652"><ele>19.0</ele><time>2026-03-24T07:36:15.839Z</time></trkpt><trkpt lat="44.1096433" lon="9.80642"><ele>18.2</ele><time>2026-03-24T07:36:16.838Z</time></trkpt><trkpt lat="44.1095483" lon="9.8063183"><ele>17.4</ele><time>2026-03-24T07:36:17.839Z</time></trkpt><trkpt lat="44.10946" lon="9.8062233"><ele>16.6</ele><time>2026-03-24T07:36:18.838Z</time></trkpt><trkpt lat="44.10938" lon="9.80613"><ele>15.8</ele><time>2026-03-24T07:36:19.839Z</time></trkpt><trkpt lat="44.1093033" lon="9.8060467"><ele>15.0</ele><time>2026-03-24T07:36:20.838Z</time></trkpt><trkpt lat="44.1092333" lon="9.8059717"><ele>15.0</ele><time>2026-03-24T07:36:21.839Z</time></trkpt><trkpt lat="44.10917" lon="9.8059083"><ele>15.0</ele><time>2026-03-24T07:36:22.839Z</time></trkpt><trkpt lat="44.109115" lon="9.805855"><ele>15.0</ele><time>2026-03-24T07:36:23.839Z</time></trkpt><trkpt lat="44.1090367" lon="9.8057633"><ele>15.0</ele><time>2026-03-24T07:36:25.839Z</time></trkpt><trkpt lat="44.1089683" lon="9.8057483"><ele>15.0</ele><time>2026-03-24T07:36:31.839Z</time></trkpt><trkpt lat="44.1089" lon="9.805695"><ele>15.0</ele><time>2026-03-24T07:36:37.839Z</time></trkpt><trkpt lat="44.1088367" lon="9.8056383"><ele>15.166666666666666</ele><time>2026-03-24T07:36:41.839Z</time></trkpt><trkpt lat="44.1087717" lon="9.8055817"><ele>15.333333333333332</ele><time>2026-03-24T07:36:44.838Z</time></trkpt><trkpt lat="44.1086917" lon="9.8055183"><ele>15.5</ele><time>2026-03-24T07:36:47.839Z</time></trkpt><trkpt lat="44.1086333" lon="9.8054583"><ele>15.666666666666666</ele><time>2026-03-24T07:36:49.839Z</time></trkpt><trkpt lat="44.1085667" lon="9.8054017"><ele>15.833333333333332</ele><time>2026-03-24T07:36:51.839Z</time></trkpt><trkpt lat="44.1085" lon="9.80533"><ele>16.0</ele><time>2026-03-24T07:36:53.839Z</time></trkpt><trkpt lat="44.1084283" lon="9.8052533"><ele>15.999999999999998</ele><time>2026-03-24T07:36:55.839Z</time></trkpt><trkpt lat="44.1083583" lon="9.8051833"><ele>16.0</ele><time>2026-03-24T07:36:57.839Z</time></trkpt><trkpt lat="44.1082883" lon="9.8051033"><ele>16.0</ele><time>2026-03-24T07:36:59.839Z</time></trkpt><trkpt lat="44.1082183" lon="9.80503"><ele>16.0</ele><time>2026-03-24T07:37:01.838Z</time></trkpt><trkpt lat="44.1081467" lon="9.8049533"><ele>15.999999999999998</ele><time>2026-03-24T07:37:03.839Z</time></trkpt><trkpt lat="44.1081" lon="9.8048717"><ele>16.0</ele><time>2026-03-24T07:37:04.839Z</time></trkpt><trkpt lat="44.1080183" lon="9.8047467"><ele>16.400000000000002</ele><time>2026-03-24T07:37:06.839Z</time></trkpt><trkpt lat="44.1079467" lon="9.8046267"><ele>16.8</ele><time>2026-03-24T07:37:08.838Z</time></trkpt><trkpt lat="44.10788" lon="9.8045167"><ele>17.200000000000003</ele><time>2026-03-24T07:37:10.839Z</time></trkpt><trkpt lat="44.1078167" lon="9.8044417"><ele>17.6</ele><time>2026-03-24T07:37:12.839Z</time></trkpt><trkpt lat="44.107745" lon="9.804385"><ele>18.0</ele><time>2026-03-24T07:37:14.838Z</time></trkpt><trkpt lat="44.1076717" lon="9.8043283"><ele>18.0</ele><time>2026-03-24T07:37:16.839Z</time></trkpt><trkpt lat="44.1076067" lon="9.8042633"><ele>18.0</ele><time>2026-03-24T07:37:18.839Z</time></trkpt><trkpt lat="44.10754" lon="9.8042033"><ele>18.0</ele><time>2026-03-24T07:37:20.839Z</time></trkpt><trkpt lat="44.10747" lon="9.8041433"><ele>18.0</ele><time>2026-03-24T07:37:22.839Z</time></trkpt><trkpt lat="44.1073983" lon="9.804095"><ele>18.0</ele><time>2026-03-24T07:37:24.839Z</time></trkpt><trkpt lat="44.10733" lon="9.80403"><ele>18.0</ele><time>2026-03-24T07:37:26.839Z</time></trkpt><trkpt lat="44.1072467" lon="9.8039767"><ele>18.333333333333332</ele><time>2026-03-24T07:37:28.839Z</time></trkpt><trkpt lat="44.1071683" lon="9.8039217"><ele>18.666666666666668</ele><time>2026-03-24T07:37:30.839Z</time></trkpt><trkpt lat="44.1070917" lon="9.8038717"><ele>19.0</ele><time>2026-03-24T07:37:32.839Z</time></trkpt><trkpt lat="44.1070133" lon="9.8038267"><ele>19.333333333333336</ele><time>2026-03-24T07:37:34.839Z</time></trkpt><trkpt lat="44.1069267" lon="9.8037933"><ele>19.666666666666668</ele><time>2026-03-24T07:37:36.838Z</time></trkpt><trkpt lat="44.106845" lon="9.8037517"><ele>20.0</ele><time>2026-03-24T07:37:38.839Z</time></trkpt><trkpt lat="44.1067633" lon="9.8037133"><ele>20.0</ele><time>2026-03-24T07:37:40.839Z</time></trkpt><trkpt lat="44.1066817" lon="9.80368"><ele>20.0</ele><time>2026-03-24T07:37:42.838Z</time></trkpt><trkpt lat="44.1065883" lon="9.8036467"><ele>20.0</ele><time>2026-03-24T07:37:44.839Z</time></trkpt><trkpt lat="44.1064933" lon="9.8036133"><ele>20.0</ele><time>2026-03-24T07:37:46.839Z</time></trkpt><trkpt lat="44.106395" lon="9.8035933"><ele>20.0</ele><time>2026-03-24T07:37:48.839Z</time></trkpt><trkpt lat="44.1063033" lon="9.8035917"><ele>19.666666666666668</ele><time>2026-03-24T07:37:50.838Z</time></trkpt><trkpt lat="44.1062133" lon="9.803595"><ele>19.333333333333336</ele><time>2026-03-24T07:37:52.839Z</time></trkpt><trkpt lat="44.10613" lon="9.8036067"><ele>19.0</ele><time>2026-03-24T07:37:54.839Z</time></trkpt><trkpt lat="44.1060517" lon="9.8036183"><ele>18.666666666666668</ele><time>2026-03-24T07:37:56.839Z</time></trkpt><trkpt lat="44.1059667" lon="9.8036467"><ele>18.333333333333332</ele><time>2026-03-24T07:37:58.839Z</time></trkpt><trkpt lat="44.10588" lon="9.8036683"><ele>18.0</ele><time>2026-03-24T07:38:00.839Z</time></trkpt><trkpt lat="44.1058117" lon="9.8036967"><ele>18.000000000000004</ele><time>2026-03-24T07:38:02.839Z</time></trkpt><trkpt lat="44.1057483" lon="9.80372"><ele>18.0</ele><time>2026-03-24T07:38:04.839Z</time></trkpt><trkpt lat="44.1056833" lon="9.8037233"><ele>18.0</ele><time>2026-03-24T07:38:06.839Z</time></trkpt><trkpt lat="44.1055967" lon="9.80377"><ele>18.0</ele><time>2026-03-24T07:38:09.839Z</time></trkpt><trkpt lat="44.1055333" lon="9.8037967"><ele>18.0</ele><time>2026-03-24T07:38:11.839Z</time></trkpt><trkpt lat="44.1054683" lon="9.8038217"><ele>18.000000000000004</ele><time>2026-03-24T07:38:13.838Z</time></trkpt><trkpt lat="44.1054" lon="9.803845"><ele>18.0</ele><time>2026-03-24T07:38:15.839Z</time></trkpt><trkpt lat="44.1053083" lon="9.8038967"><ele>18.0</ele><time>2026-03-24T07:38:17.839Z</time></trkpt><trkpt lat="44.105215" lon="9.803935"><ele>18.0</ele><time>2026-03-24T07:38:19.839Z</time></trkpt><trkpt lat="44.1051317" lon="9.8039833"><ele>18.0</ele><time>2026-03-24T07:38:21.839Z</time></trkpt><trkpt lat="44.105045" lon="9.804045"><ele>18.0</ele><time>2026-03-24T07:38:23.839Z</time></trkpt><trkpt lat="44.104965" lon="9.8041167"><ele>18.0</ele><time>2026-03-24T07:38:25.839Z</time></trkpt><trkpt lat="44.1048933" lon="9.80419"><ele>18.333333333333332</ele><time>2026-03-24T07:38:27.839Z</time></trkpt><trkpt lat="44.104825" lon="9.804275"><ele>18.666666666666668</ele><time>2026-03-24T07:38:29.839Z</time></trkpt><trkpt lat="44.104765" lon="9.8043683"><ele>19.0</ele><time>2026-03-24T07:38:31.839Z</time></trkpt><trkpt lat="44.1047067" lon="9.8044383"><ele>19.333333333333336</ele><time>2026-03-24T07:38:34.839Z</time></trkpt><trkpt lat="44.1047317" lon="9.8045583"><ele>19.666666666666668</ele><time>2026-03-24T07:38:37.839Z</time></trkpt><trkpt lat="44.104755" lon="9.80467"><ele>20.0</ele><time>2026-03-24T07:38:39.839Z</time></trkpt><trkpt lat="44.1047117" lon="9.804805"><ele>20.0</ele><time>2026-03-24T07:38:41.839Z</time></trkpt><trkpt lat="44.10466" lon="9.8049217"><ele>20.0</ele><time>2026-03-24T07:38:43.839Z</time></trkpt><trkpt lat="44.1046117" lon="9.8050417"><ele>20.0</ele><time>2026-03-24T07:38:45.839Z</time></trkpt><trkpt lat="44.1045533" lon="9.8051567"><ele>20.0</ele><time>2026-03-24T07:38:47.839Z</time></trkpt><trkpt lat="44.1044917" lon="9.8052667"><ele>20.0</ele><time>2026-03-24T07:38:49.839Z</time></trkpt><trkpt lat="44.1044433" lon="9.8053783"><ele>19.8</ele><time>2026-03-24T07:38:51.839Z</time></trkpt><trkpt lat="44.1043833" lon="9.805485"><ele>19.6</ele><time>2026-03-24T07:38:53.839Z</time></trkpt><trkpt lat="44.1043117" lon="9.8055883"><ele>19.4</ele><time>2026-03-24T07:38:55.839Z</time></trkpt><trkpt lat="44.1042317" lon="9.8056883"><ele>19.2</ele><time>2026-03-24T07:38:57.839Z</time></trkpt><trkpt lat="44.104135" lon="9.8057617"><ele>19.0</ele><time>2026-03-24T07:38:59.839Z</time></trkpt><trkpt lat="44.10404" lon="9.8058367"><ele>19.0</ele><time>2026-03-24T07:39:01.839Z</time></trkpt><trkpt lat="44.10394" lon="9.805925"><ele>19.0</ele><time>2026-03-24T07:39:03.838Z</time></trkpt><trkpt lat="44.1038367" lon="9.8060233"><ele>19.0</ele><time>2026-03-24T07:39:05.839Z</time></trkpt><trkpt lat="44.1037433" lon="9.80614"><ele>19.0</ele><time>2026-03-24T07:39:07.839Z</time></trkpt><trkpt lat="44.103695" lon="9.8061983"><ele>19.0</ele><time>2026-03-24T07:39:08.839Z</time></trkpt><trkpt lat="44.1036433" lon="9.8062583"><ele>18.0</ele><time>2026-03-24T07:39:09.839Z</time></trkpt><trkpt lat="44.10359" lon="9.80632"><ele>17.0</ele><time>2026-03-24T07:39:10.839Z</time></trkpt><trkpt lat="44.103535" lon="9.8063817"><ele>16.0</ele><time>2026-03-24T07:39:11.839Z</time></trkpt><trkpt lat="44.1034817" lon="9.8064517"><ele>15.0</ele><time>2026-03-24T07:39:12.839Z</time></trkpt><trkpt lat="44.1034283" lon="9.8065217"><ele>14.0</ele><time>2026-03-24T07:39:13.839Z</time></trkpt><trkpt lat="44.1033717" lon="9.8065883"><ele>13.0</ele><time>2026-03-24T07:39:14.839Z</time></trkpt><trkpt lat="44.10332" lon="9.80665"><ele>12.0</ele><time>2026-03-24T07:39:15.839Z</time></trkpt><trkpt lat="44.1032633" lon="9.80671"><ele>12.714285714285714</ele><time>2026-03-24T07:39:16.839Z</time></trkpt><trkpt lat="44.1032133" lon="9.80677"><ele>13.428571428571427</ele><time>2026-03-24T07:39:17.839Z</time></trkpt><trkpt lat="44.1031617" lon="9.8068333"><ele>14.142857142857142</ele><time>2026-03-24T07:39:18.839Z</time></trkpt><trkpt lat="44.1031083" lon="9.8068983"><ele>14.857142857142856</ele><time>2026-03-24T07:39:19.839Z</time></trkpt><trkpt lat="44.103055" lon="9.8069633"><ele>15.571428571428571</ele><time>2026-03-24T07:39:20.839Z</time></trkpt><trkpt lat="44.103005" lon="9.8070367"><ele>16.285714285714285</ele><time>2026-03-24T07:39:21.839Z</time></trkpt><trkpt lat="44.1029467" lon="9.8071"><ele>17.0</ele><time>2026-03-24T07:39:22.839Z</time></trkpt><trkpt lat="44.1028817" lon="9.80716"><ele>15.333333333333334</ele><time>2026-03-24T07:39:23.839Z</time></trkpt><trkpt lat="44.102815" lon="9.80722"><ele>13.666666666666668</ele><time>2026-03-24T07:39:24.839Z</time></trkpt><trkpt lat="44.1027533" lon="9.8072767"><ele>12.0</ele><time>2026-03-24T07:39:25.839Z</time></trkpt><trkpt lat="44.1026967" lon="9.8073317"><ele>10.333333333333334</ele><time>2026-03-24T07:39:26.839Z</time></trkpt><trkpt lat="44.10263" lon="9.8073867"><ele>8.666666666666668</ele><time>2026-03-24T07:39:27.838Z</time></trkpt><trkpt lat="44.10256" lon="9.807435"><ele>7.0</ele><time>2026-03-24T07:39:28.839Z</time></trkpt><trkpt lat="44.1024917" lon="9.8074767"><ele>7.000000000000001</ele><time>2026-03-24T07:39:29.839Z</time></trkpt><trkpt lat="44.10242" lon="9.80751"><ele>7.0</ele><time>2026-03-24T07:39:30.839Z</time></trkpt><trkpt lat="44.1023483" lon="9.8075383"><ele>7.0</ele><time>2026-03-24T07:39:31.839Z</time></trkpt><trkpt lat="44.102275" lon="9.80756"><ele>7.0</ele><time>2026-03-24T07:39:32.839Z</time></trkpt><trkpt lat="44.1022017" lon="9.8075783"><ele>7.000000000000001</ele><time>2026-03-24T07:39:33.839Z</time></trkpt><trkpt lat="44.102125" lon="9.80759"><ele>7.0</ele><time>2026-03-24T07:39:34.839Z</time></trkpt><trkpt lat="44.1020483" lon="9.8075967"><ele>7.000000000000001</ele><time>2026-03-24T07:39:35.839Z</time></trkpt><trkpt lat="44.1019767" lon="9.807605"><ele>7.0</ele><time>2026-03-24T07:39:36.839Z</time></trkpt><trkpt lat="44.10191" lon="9.807615"><ele>7.0</ele><time>2026-03-24T07:39:37.839Z</time></trkpt><trkpt lat="44.10181" lon="9.8076467"><ele>7.0</ele><time>2026-03-24T07:39:39.839Z</time></trkpt><trkpt lat="44.10171" lon="9.8076583"><ele>7.000000000000001</ele><time>2026-03-24T07:39:41.839Z</time></trkpt><trkpt lat="44.1016383" lon="9.80766"><ele>7.0</ele><time>2026-03-24T07:39:42.839Z</time></trkpt><trkpt lat="44.1015667" lon="9.80766"><ele>6.857142857142857</ele><time>2026-03-24T07:39:43.839Z</time></trkpt><trkpt lat="44.1015" lon="9.80766"><ele>6.714285714285714</ele><time>2026-03-24T07:39:44.839Z</time></trkpt><trkpt lat="44.1014367" lon="9.8076683"><ele>6.571428571428571</ele><time>2026-03-24T07:39:45.839Z</time></trkpt><trkpt lat="44.101325" lon="9.807705"><ele>6.428571428571429</ele><time>2026-03-24T07:39:47.839Z</time></trkpt><trkpt lat="44.101265" lon="9.807735"><ele>6.285714285714286</ele><time>2026-03-24T07:39:48.839Z</time></trkpt><trkpt lat="44.1012067" lon="9.8077683"><ele>6.142857142857142</ele><time>2026-03-24T07:39:49.839Z</time></trkpt><trkpt lat="44.10115" lon="9.807815"><ele>6.0</ele><time>2026-03-24T07:39:50.839Z</time></trkpt><trkpt lat="44.1010933" lon="9.8078683"><ele>5.428571428571428</ele><time>2026-03-24T07:39:51.839Z</time></trkpt><trkpt lat="44.1010433" lon="9.8079317"><ele>4.857142857142857</ele><time>2026-03-24T07:39:52.839Z</time></trkpt><trkpt lat="44.1009917" lon="9.8079917"><ele>4.285714285714286</ele><time>2026-03-24T07:39:53.839Z</time></trkpt><trkpt lat="44.10094" lon="9.808045"><ele>3.714285714285714</ele><time>2026-03-24T07:39:54.839Z</time></trkpt><trkpt lat="44.10083" lon="9.808065"><ele>3.1428571428571423</ele><time>2026-03-24T07:39:56.839Z</time></trkpt><trkpt lat="44.100765" lon="9.8080283"><ele>2.571428571428571</ele><time>2026-03-24T07:39:57.839Z</time></trkpt><trkpt lat="44.1007067" lon="9.8079883"><ele>2.0</ele><time>2026-03-24T07:39:58.839Z</time></trkpt><trkpt lat="44.1006017" lon="9.80794"><ele>3.8000000000000003</ele><time>2026-03-24T07:40:00.839Z</time></trkpt><trkpt lat="44.1005083" lon="9.8079333"><ele>5.6000000000000005</ele><time>2026-03-24T07:40:02.839Z</time></trkpt><trkpt lat="44.1004067" lon="9.80794"><ele>7.4</ele><time>2026-03-24T07:40:04.839Z</time></trkpt><trkpt lat="44.1003233" lon="9.8079733"><ele>9.200000000000001</ele><time>2026-03-24T07:40:06.839Z</time></trkpt><trkpt lat="44.100235" lon="9.8080317"><ele>11.0</ele><time>2026-03-24T07:40:08.838Z</time></trkpt><trkpt lat="44.1001533" lon="9.80811"><ele>11.0</ele><time>2026-03-24T07:40:10.839Z</time></trkpt><trkpt lat="44.1000733" lon="9.8082083"><ele>11.0</ele><time>2026-03-24T07:40:12.839Z</time></trkpt><trkpt lat="44.1000067" lon="9.8083333"><ele>11.0</ele><time>2026-03-24T07:40:14.839Z</time></trkpt><trkpt lat="44.0999233" lon="9.8084567"><ele>11.0</ele><time>2026-03-24T07:40:16.839Z</time></trkpt><trkpt lat="44.09985" lon="9.8085783"><ele>13.0</ele><time>2026-03-24T07:40:18.838Z</time></trkpt><trkpt lat="44.0997767" lon="9.8086983"><ele>15.0</ele><time>2026-03-24T07:40:20.839Z</time></trkpt><trkpt lat="44.0996933" lon="9.808815"><ele>17.0</ele><time>2026-03-24T07:40:22.839Z</time></trkpt><trkpt lat="44.0996183" lon="9.8089367"><ele>19.0</ele><time>2026-03-24T07:40:24.839Z</time></trkpt><trkpt lat="44.0995433" lon="9.8090567"><ele>19.0</ele><time>2026-03-24T07:40:26.839Z</time></trkpt><trkpt lat="44.0994667" lon="9.8091783"><ele>19.0</ele><time>2026-03-24T07:40:28.839Z</time></trkpt><trkpt lat="44.0993867" lon="9.8093"><ele>19.0</ele><time>2026-03-24T07:40:30.838Z</time></trkpt><trkpt lat="44.099305" lon="9.8094233"><ele>19.0</ele><time>2026-03-24T07:40:32.839Z</time></trkpt><trkpt lat="44.099235" lon="9.8095483"><ele>16.8</ele><time>2026-03-24T07:40:34.838Z</time></trkpt><trkpt lat="44.0991583" lon="9.809665"><ele>14.599999999999998</ele><time>2026-03-24T07:40:36.839Z</time></trkpt><trkpt lat="44.0990883" lon="9.8097817"><ele>12.4</ele><time>2026-03-24T07:40:38.839Z</time></trkpt><trkpt lat="44.0990217" lon="9.8098967"><ele>10.2</ele><time>2026-03-24T07:40:40.839Z</time></trkpt><trkpt lat="44.0989567" lon="9.8100167"><ele>8.0</ele><time>2026-03-24T07:40:42.839Z</time></trkpt><trkpt lat="44.0988967" lon="9.810135"><ele>7.6000000000000005</ele><time>2026-03-24T07:40:44.839Z</time></trkpt><trkpt lat="44.0988483" lon="9.8102583"><ele>7.200000000000001</ele><time>2026-03-24T07:40:46.839Z</time></trkpt><trkpt lat="44.0987917" lon="9.81038"><ele>6.8</ele><time>2026-03-24T07:40:48.839Z</time></trkpt><trkpt lat="44.0987383" lon="9.8105"><ele>6.4</ele><time>2026-03-24T07:40:50.839Z</time></trkpt><trkpt lat="44.0986733" lon="9.8106117"><ele>6.0</ele><time>2026-03-24T07:40:52.839Z</time></trkpt><trkpt lat="44.0986133" lon="9.8107217"><ele>6.0</ele><time>2026-03-24T07:40:54.839Z</time></trkpt><trkpt lat="44.0985533" lon="9.8108267"><ele>6.0</ele><time>2026-03-24T07:40:56.839Z</time></trkpt><trkpt lat="44.0984967" lon="9.8109333"><ele>6.0</ele><time>2026-03-24T07:40:58.839Z</time></trkpt><trkpt lat="44.09844" lon="9.8110383"><ele>6.0</ele><time>2026-03-24T07:41:00.838Z</time></trkpt><trkpt lat="44.0983833" lon="9.8111433"><ele>6.0</ele><time>2026-03-24T07:41:02.839Z</time></trkpt><trkpt lat="44.0983333" lon="9.8112467"><ele>5.666666666666667</ele><time>2026-03-24T07:41:04.839Z</time></trkpt><trkpt lat="44.098275" lon="9.81135"><ele>5.333333333333333</ele><time>2026-03-24T07:41:06.839Z</time></trkpt><trkpt lat="44.0982133" lon="9.8114467"><ele>5.0</ele><time>2026-03-24T07:41:08.839Z</time></trkpt><trkpt lat="44.098155" lon="9.8115467"><ele>4.666666666666666</ele><time>2026-03-24T07:41:10.839Z</time></trkpt><trkpt lat="44.098105" lon="9.8116367"><ele>4.333333333333333</ele><time>2026-03-24T07:41:12.839Z</time></trkpt><trkpt lat="44.0980533" lon="9.811725"><ele>4.0</ele><time>2026-03-24T07:41:14.839Z</time></trkpt><trkpt lat="44.0980033" lon="9.8118067"><ele>5.333333333333333</ele><time>2026-03-24T07:41:16.839Z</time></trkpt><trkpt lat="44.097955" lon="9.81189"><ele>6.666666666666666</ele><time>2026-03-24T07:41:18.839Z</time></trkpt><trkpt lat="44.0979" lon="9.81198"><ele>8.0</ele><time>2026-03-24T07:41:20.839Z</time></trkpt><trkpt lat="44.0978467" lon="9.8120683"><ele>9.333333333333334</ele><time>2026-03-24T07:41:22.839Z</time></trkpt><trkpt lat="44.0977933" lon="9.8121583"><ele>10.666666666666666</ele><time>2026-03-24T07:41:24.839Z</time></trkpt><trkpt lat="44.0977367" lon="9.812235"><ele>12.0</ele><time>2026-03-24T07:41:26.839Z</time></trkpt><trkpt lat="44.0976767" lon="9.812305"><ele>12.0</ele><time>2026-03-24T07:41:28.839Z</time></trkpt><trkpt lat="44.0976167" lon="9.8123733"><ele>12.0</ele><time>2026-03-24T07:41:30.839Z</time></trkpt><trkpt lat="44.09755" lon="9.8124367"><ele>12.0</ele><time>2026-03-24T07:41:32.839Z</time></trkpt><trkpt lat="44.0974783" lon="9.8124917"><ele>12.0</ele><time>2026-03-24T07:41:34.839Z</time></trkpt><trkpt lat="44.0974117" lon="9.8125483"><ele>12.0</ele><time>2026-03-24T07:41:36.839Z</time></trkpt><trkpt lat="44.0973367" lon="9.8126083"><ele>12.0</ele><time>2026-03-24T07:41:38.839Z</time></trkpt><trkpt lat="44.0972667" lon="9.8126667"><ele>13.166666666666666</ele><time>2026-03-24T07:41:40.839Z</time></trkpt><trkpt lat="44.0972017" lon="9.8127233"><ele>14.333333333333332</ele><time>2026-03-24T07:41:42.839Z</time></trkpt><trkpt lat="44.0971417" lon="9.8128067"><ele>15.5</ele><time>2026-03-24T07:41:44.839Z</time></trkpt><trkpt lat="44.0970817" lon="9.8128867"><ele>16.666666666666664</ele><time>2026-03-24T07:41:46.839Z</time></trkpt><trkpt lat="44.0970267" lon="9.8129667"><ele>17.833333333333332</ele><time>2026-03-24T07:41:48.839Z</time></trkpt><trkpt lat="44.09698" lon="9.813055"><ele>19.0</ele><time>2026-03-24T07:41:50.839Z</time></trkpt><trkpt lat="44.096925" lon="9.8131433"><ele>19.0</ele><time>2026-03-24T07:41:52.839Z</time></trkpt><trkpt lat="44.0968683" lon="9.813235"><ele>19.0</ele><time>2026-03-24T07:41:54.839Z</time></trkpt><trkpt lat="44.0968117" lon="9.8133233"><ele>19.0</ele><time>2026-03-24T07:41:56.839Z</time></trkpt><trkpt lat="44.0967567" lon="9.81342"><ele>19.0</ele><time>2026-03-24T07:41:58.839Z</time></trkpt><trkpt lat="44.096705" lon="9.8134967"><ele>19.0</ele><time>2026-03-24T07:42:00.839Z</time></trkpt><trkpt lat="44.09664" lon="9.8135667"><ele>19.0</ele><time>2026-03-24T07:42:02.839Z</time></trkpt><trkpt lat="44.09657" lon="9.8136217"><ele>19.5</ele><time>2026-03-24T07:42:04.839Z</time></trkpt><trkpt lat="44.096505" lon="9.8136733"><ele>20.0</ele><time>2026-03-24T07:42:06.839Z</time></trkpt><trkpt lat="44.09643" lon="9.8137117"><ele>20.5</ele><time>2026-03-24T07:42:08.839Z</time></trkpt><trkpt lat="44.0963633" lon="9.813755"><ele>21.0</ele><time>2026-03-24T07:42:10.838Z</time></trkpt><trkpt lat="44.0962833" lon="9.8137867"><ele>21.5</ele><time>2026-03-24T07:42:12.839Z</time></trkpt><trkpt lat="44.0962033" lon="9.81382"><ele>22.0</ele><time>2026-03-24T07:42:14.839Z</time></trkpt><trkpt lat="44.0961283" lon="9.8138583"><ele>22.0</ele><time>2026-03-24T07:42:16.839Z</time></trkpt><trkpt lat="44.09606" lon="9.8139"><ele>22.0</ele><time>2026-03-24T07:42:18.839Z</time></trkpt><trkpt lat="44.096005" lon="9.8139467"><ele>22.0</ele><time>2026-03-24T07:42:20.838Z</time></trkpt><trkpt lat="44.0959383" lon="9.8139867"><ele>22.0</ele><time>2026-03-24T07:42:22.839Z</time></trkpt><trkpt lat="44.0958583" lon="9.8140133"><ele>22.0</ele><time>2026-03-24T07:42:24.839Z</time></trkpt><trkpt lat="44.0957783" lon="9.8140367"><ele>22.0</ele><time>2026-03-24T07:42:26.839Z</time></trkpt><trkpt lat="44.0957" lon="9.81406"><ele>23.285714285714285</ele><time>2026-03-24T07:42:28.839Z</time></trkpt><trkpt lat="44.0956167" lon="9.81407"><ele>24.57142857142857</ele><time>2026-03-24T07:42:30.839Z</time></trkpt><trkpt lat="44.095545" lon="9.81409"><ele>25.857142857142858</ele><time>2026-03-24T07:42:32.839Z</time></trkpt><trkpt lat="44.0954783" lon="9.814085"><ele>27.142857142857146</ele><time>2026-03-24T07:42:34.839Z</time></trkpt><trkpt lat="44.0954117" lon="9.8140833"><ele>28.42857142857143</ele><time>2026-03-24T07:42:36.839Z</time></trkpt><trkpt lat="44.0953367" lon="9.814065"><ele>29.714285714285715</ele><time>2026-03-24T07:42:38.839Z</time></trkpt><trkpt lat="44.09527" lon="9.8140567"><ele>31.0</ele><time>2026-03-24T07:42:40.839Z</time></trkpt><trkpt lat="44.0951967" lon="9.8140533"><ele>31.0</ele><time>2026-03-24T07:42:42.839Z</time></trkpt><trkpt lat="44.0951233" lon="9.814065"><ele>31.000000000000004</ele><time>2026-03-24T07:42:44.839Z</time></trkpt><trkpt lat="44.0950533" lon="9.8140783"><ele>31.0</ele><time>2026-03-24T07:42:46.839Z</time></trkpt><trkpt lat="44.094985" lon="9.81412"><ele>31.0</ele><time>2026-03-24T07:42:48.839Z</time></trkpt><trkpt lat="44.0949217" lon="9.814175"><ele>31.000000000000004</ele><time>2026-03-24T07:42:50.839Z</time></trkpt><trkpt lat="44.094865" lon="9.814245"><ele>31.0</ele><time>2026-03-24T07:42:52.839Z</time></trkpt><trkpt lat="44.0948183" lon="9.8143183"><ele>31.0</ele><time>2026-03-24T07:42:54.838Z</time></trkpt><trkpt lat="44.0947767" lon="9.8143983"><ele>33.142857142857146</ele><time>2026-03-24T07:42:56.839Z</time></trkpt><trkpt lat="44.0947367" lon="9.8144917"><ele>35.28571428571429</ele><time>2026-03-24T07:42:58.839Z</time></trkpt><trkpt lat="44.0947133" lon="9.814585"><ele>37.42857142857143</ele><time>2026-03-24T07:43:00.839Z</time></trkpt><trkpt lat="44.0946933" lon="9.8146733"><ele>39.57142857142857</ele><time>2026-03-24T07:43:02.839Z</time></trkpt><trkpt lat="44.0946617" lon="9.81477"><ele>41.71428571428571</ele><time>2026-03-24T07:43:04.839Z</time></trkpt><trkpt lat="44.0946233" lon="9.8148483"><ele>43.85714285714286</ele><time>2026-03-24T07:43:06.839Z</time></trkpt><trkpt lat="44.09459" lon="9.81493"><ele>46.0</ele><time>2026-03-24T07:43:08.839Z</time></trkpt><trkpt lat="44.0945567" lon="9.8150117"><ele>46.0</ele><time>2026-03-24T07:43:10.839Z</time></trkpt><trkpt lat="44.0945083" lon="9.8151133"><ele>46.0</ele><time>2026-03-24T07:43:13.839Z</time></trkpt><trkpt lat="44.094465" lon="9.8151783"><ele>46.0</ele><time>2026-03-24T07:43:15.839Z</time></trkpt><trkpt lat="44.09442" lon="9.8152517"><ele>46.0</ele><time>2026-03-24T07:43:17.839Z</time></trkpt><trkpt lat="44.0943767" lon="9.8153183"><ele>46.0</ele><time>2026-03-24T07:43:19.838Z</time></trkpt><trkpt lat="44.0943333" lon="9.8153917"><ele>46.0</ele><time>2026-03-24T07:43:21.838Z</time></trkpt><trkpt lat="44.0942933" lon="9.8154683"><ele>46.0</ele><time>2026-03-24T07:43:23.839Z</time></trkpt><trkpt lat="44.0942467" lon="9.8155367"><ele>44.16666666666667</ele><time>2026-03-24T07:43:25.839Z</time></trkpt><trkpt lat="44.094195" lon="9.8156"><ele>42.333333333333336</ele><time>2026-03-24T07:43:27.839Z</time></trkpt><trkpt lat="44.094125" lon="9.8156883"><ele>40.5</ele><time>2026-03-24T07:43:30.839Z</time></trkpt><trkpt lat="44.094065" lon="9.81578"><ele>38.666666666666664</ele><time>2026-03-24T07:43:33.839Z</time></trkpt><trkpt lat="44.09403" lon="9.8158617"><ele>36.83333333333333</ele><time>2026-03-24T07:43:35.839Z</time></trkpt><trkpt lat="44.09397" lon="9.8159583"><ele>35.0</ele><time>2026-03-24T07:43:38.839Z</time></trkpt><trkpt lat="44.0939117" lon="9.8160483"><ele>34.5</ele><time>2026-03-24T07:43:41.839Z</time></trkpt><trkpt lat="44.0938467" lon="9.8161367"><ele>34.0</ele><time>2026-03-24T07:43:44.839Z</time></trkpt><trkpt lat="44.0937883" lon="9.81623"><ele>33.5</ele><time>2026-03-24T07:43:47.839Z</time></trkpt><trkpt lat="44.0937183" lon="9.8163133"><ele>33.0</ele><time>2026-03-24T07:43:50.839Z</time></trkpt><trkpt lat="44.0936567" lon="9.816385"><ele>32.5</ele><time>2026-03-24T07:43:53.839Z</time></trkpt><trkpt lat="44.093585" lon="9.816445"><ele>32.0</ele><time>2026-03-24T07:43:56.839Z</time></trkpt><trkpt lat="44.093525" lon="9.8164783"><ele>31.999999999999996</ele><time>2026-03-24T07:43:58.839Z</time></trkpt><trkpt lat="44.0934617" lon="9.8164967"><ele>32.0</ele><time>2026-03-24T07:44:00.839Z</time></trkpt><trkpt lat="44.0933833" lon="9.8165333"><ele>32.0</ele><time>2026-03-24T07:44:03.839Z</time></trkpt><trkpt lat="44.0932933" lon="9.8165517"><ele>32.0</ele><time>2026-03-24T07:44:06.839Z</time></trkpt><trkpt lat="44.093205" lon="9.816555"><ele>31.999999999999996</ele><time>2026-03-24T07:44:09.839Z</time></trkpt><trkpt lat="44.0931183" lon="9.8165367"><ele>32.0</ele><time>2026-03-24T07:44:12.838Z</time></trkpt><trkpt lat="44.093035" lon="9.8164983"><ele>28.499999999999996</ele><time>2026-03-24T07:44:15.839Z</time></trkpt><trkpt lat="44.0929517" lon="9.8164467"><ele>25.0</ele><time>2026-03-24T07:44:18.839Z</time></trkpt><trkpt lat="44.0928817" lon="9.816375"><ele>21.5</ele><time>2026-03-24T07:44:21.839Z</time></trkpt><trkpt lat="44.0928117" lon="9.8163133"><ele>18.0</ele><time>2026-03-24T07:44:24.839Z</time></trkpt><trkpt lat="44.09274" lon="9.8162317"><ele>14.5</ele><time>2026-03-24T07:44:27.839Z</time></trkpt><trkpt lat="44.092695" lon="9.8161667"><ele>11.0</ele><time>2026-03-24T07:44:29.838Z</time></trkpt><trkpt lat="44.0926383" lon="9.8160717"><ele>11.0</ele><time>2026-03-24T07:44:32.839Z</time></trkpt><trkpt lat="44.0926017" lon="9.816"><ele>11.0</ele><time>2026-03-24T07:44:34.839Z</time></trkpt><trkpt lat="44.09256" lon="9.8159283"><ele>11.0</ele><time>2026-03-24T07:44:36.839Z</time></trkpt><trkpt lat="44.0925067" lon="9.8158317"><ele>11.0</ele><time>2026-03-24T07:44:39.839Z</time></trkpt><trkpt lat="44.09246" lon="9.8157317"><ele>11.0</ele><time>2026-03-24T07:44:42.839Z</time></trkpt><trkpt lat="44.0924117" lon="9.815665"><ele>11.0</ele><time>2026-03-24T07:44:44.839Z</time></trkpt><trkpt lat="44.092355" lon="9.8155817"><ele>12.166666666666666</ele><time>2026-03-24T07:44:47.839Z</time></trkpt><trkpt lat="44.0922983" lon="9.8154917"><ele>13.333333333333332</ele><time>2026-03-24T07:44:50.839Z</time></trkpt><trkpt lat="44.0922383" lon="9.8154083"><ele>14.5</ele><time>2026-03-24T07:44:53.838Z</time></trkpt><trkpt lat="44.092185" lon="9.8153033"><ele>15.666666666666666</ele><time>2026-03-24T07:44:56.839Z</time></trkpt><trkpt lat="44.0921267" lon="9.81522"><ele>16.833333333333332</ele><time>2026-03-24T07:44:59.839Z</time></trkpt><trkpt lat="44.0920733" lon="9.81513"><ele>18.0</ele><time>2026-03-24T07:45:02.839Z</time></trkpt><trkpt lat="44.0920083" lon="9.8150867"><ele>22.166666666666668</ele><time>2026-03-24T07:45:05.839Z</time></trkpt><trkpt lat="44.091955" lon="9.8150317"><ele>26.333333333333336</ele><time>2026-03-24T07:45:08.839Z</time></trkpt><trkpt lat="44.09189" lon="9.8149817"><ele>30.5</ele><time>2026-03-24T07:45:11.838Z</time></trkpt><trkpt lat="44.0918317" lon="9.814905"><ele>34.66666666666667</ele><time>2026-03-24T07:45:14.839Z</time></trkpt><trkpt lat="44.0917833" lon="9.8148"><ele>38.833333333333336</ele><time>2026-03-24T07:45:17.839Z</time></trkpt><trkpt lat="44.0917333" lon="9.8147"><ele>43.0</ele><time>2026-03-24T07:45:20.838Z</time></trkpt><trkpt lat="44.09169" lon="9.8146267"><ele>43.00000000000001</ele><time>2026-03-24T07:45:22.839Z</time></trkpt><trkpt lat="44.0916483" lon="9.8145567"><ele>43.0</ele><time>2026-03-24T07:45:24.839Z</time></trkpt><trkpt lat="44.0915867" lon="9.8144583"><ele>43.0</ele><time>2026-03-24T07:45:27.839Z</time></trkpt><trkpt lat="44.09154" lon="9.814385"><ele>43.0</ele><time>2026-03-24T07:45:29.839Z</time></trkpt><trkpt lat="44.0914967" lon="9.8143117"><ele>43.0</ele><time>2026-03-24T07:45:31.839Z</time></trkpt><trkpt lat="44.09146" lon="9.814235"><ele>43.00000000000001</ele><time>2026-03-24T07:45:33.839Z</time></trkpt><trkpt lat="44.0914233" lon="9.81416"><ele>43.0</ele><time>2026-03-24T07:45:35.839Z</time></trkpt><trkpt lat="44.0913833" lon="9.8140867"><ele>42.333333333333336</ele><time>2026-03-24T07:45:37.838Z</time></trkpt><trkpt lat="44.0913417" lon="9.8140067"><ele>41.66666666666667</ele><time>2026-03-24T07:45:39.838Z</time></trkpt><trkpt lat="44.0913017" lon="9.813925"><ele>41.0</ele><time>2026-03-24T07:45:41.839Z</time></trkpt><trkpt lat="44.0912517" lon="9.8138217"><ele>40.333333333333336</ele><time>2026-03-24T07:45:44.839Z</time></trkpt><trkpt lat="44.0912017" lon="9.8137233"><ele>39.666666666666664</ele><time>2026-03-24T07:45:47.838Z</time></trkpt><trkpt lat="44.09115" lon="9.8136167"><ele>39.0</ele><time>2026-03-24T07:45:50.839Z</time></trkpt><trkpt lat="44.0911" lon="9.8135167"><ele>42.333333333333336</ele><time>2026-03-24T07:45:53.839Z</time></trkpt><trkpt lat="44.0910517" lon="9.8134117"><ele>45.66666666666667</ele><time>2026-03-24T07:45:56.839Z</time></trkpt><trkpt lat="44.0910117" lon="9.81331"><ele>49.0</ele><time>2026-03-24T07:45:59.839Z</time></trkpt><trkpt lat="44.0909583" lon="9.8132233"><ele>52.333333333333336</ele><time>2026-03-24T07:46:02.839Z</time></trkpt><trkpt lat="44.0909067" lon="9.8131167"><ele>55.66666666666667</ele><time>2026-03-24T07:46:05.839Z</time></trkpt><trkpt lat="44.090865" lon="9.813025"><ele>59.0</ele><time>2026-03-24T07:46:08.839Z</time></trkpt><trkpt lat="44.0908183" lon="9.812945"><ele>59.0</ele><time>2026-03-24T07:46:11.839Z</time></trkpt><trkpt lat="44.0907583" lon="9.812855"><ele>59.0</ele><time>2026-03-24T07:46:14.839Z</time></trkpt><trkpt lat="44.090715" lon="9.81279"><ele>59.0</ele><time>2026-03-24T07:46:16.839Z</time></trkpt><trkpt lat="44.09065" lon="9.8127183"><ele>59.0</ele><time>2026-03-24T07:46:19.839Z</time></trkpt><trkpt lat="44.090595" lon="9.812665"><ele>59.0</ele><time>2026-03-24T07:46:21.839Z</time></trkpt><trkpt lat="44.0905483" lon="9.812605"><ele>59.0</ele><time>2026-03-24T07:46:23.839Z</time></trkpt><trkpt lat="44.0904883" lon="9.81257"><ele>59.0</ele><time>2026-03-24T07:46:25.839Z</time></trkpt><trkpt lat="44.0904117" lon="9.8125167"><ele>58.285714285714285</ele><time>2026-03-24T07:46:28.838Z</time></trkpt><trkpt lat="44.0903483" lon="9.8125017"><ele>57.57142857142858</ele><time>2026-03-24T07:46:30.839Z</time></trkpt><trkpt lat="44.09027" lon="9.812505"><ele>56.85714285714286</ele><time>2026-03-24T07:46:33.839Z</time></trkpt><trkpt lat="44.090205" lon="9.8125083"><ele>56.14285714285714</ele><time>2026-03-24T07:46:35.839Z</time></trkpt><trkpt lat="44.090145" lon="9.812535"><ele>55.42857142857143</ele><time>2026-03-24T07:46:37.839Z</time></trkpt><trkpt lat="44.0900883" lon="9.8125733"><ele>54.714285714285715</ele><time>2026-03-24T07:46:39.839Z</time></trkpt><trkpt lat="44.09001" lon="9.8126283"><ele>54.0</ele><time>2026-03-24T07:46:42.839Z</time></trkpt><trkpt lat="44.089945" lon="9.8126783"><ele>55.166666666666664</ele><time>2026-03-24T07:46:45.839Z</time></trkpt><trkpt lat="44.0898783" lon="9.8127283"><ele>56.33333333333333</ele><time>2026-03-24T07:46:48.839Z</time></trkpt><trkpt lat="44.0898033" lon="9.812785"><ele>57.5</ele><time>2026-03-24T07:46:51.839Z</time></trkpt><trkpt lat="44.0897333" lon="9.8128317"><ele>58.666666666666664</ele><time>2026-03-24T07:46:54.839Z</time></trkpt><trkpt lat="44.0896517" lon="9.8128783"><ele>59.83333333333333</ele><time>2026-03-24T07:46:57.839Z</time></trkpt><trkpt lat="44.089565" lon="9.8129"><ele>61.0</ele><time>2026-03-24T07:47:00.839Z</time></trkpt><trkpt lat="44.08947" lon="9.8129217"><ele>60.99999999999999</ele><time>2026-03-24T07:47:03.838Z</time></trkpt><trkpt lat="44.0894067" lon="9.812935"><ele>61.0</ele><time>2026-03-24T07:47:05.837Z</time></trkpt><trkpt lat="44.08932" lon="9.8129567"><ele>61.0</ele><time>2026-03-24T07:47:08.838Z</time></trkpt><trkpt lat="44.0892517" lon="9.8129633"><ele>61.0</ele><time>2026-03-24T07:47:10.838Z</time></trkpt><trkpt lat="44.08916" lon="9.812945"><ele>60.99999999999999</ele><time>2026-03-24T07:47:13.838Z</time></trkpt><trkpt lat="44.08908" lon="9.8129117"><ele>61.0</ele><time>2026-03-24T07:47:16.838Z</time></trkpt><trkpt lat="44.08901" lon="9.8129"><ele>59.33333333333333</ele><time>2026-03-24T07:47:19.837Z</time></trkpt><trkpt lat="44.0889367" lon="9.8128983"><ele>57.666666666666664</ele><time>2026-03-24T07:47:22.838Z</time></trkpt><trkpt lat="44.0888717" lon="9.8128917"><ele>56.0</ele><time>2026-03-24T07:47:24.838Z</time></trkpt><trkpt lat="44.088815" lon="9.8128467"><ele>54.33333333333333</ele><time>2026-03-24T07:47:26.838Z</time></trkpt><trkpt lat="44.088735" lon="9.8128133"><ele>52.666666666666664</ele><time>2026-03-24T07:47:29.838Z</time></trkpt><trkpt lat="44.08865" lon="9.8127683"><ele>51.0</ele><time>2026-03-24T07:47:32.838Z</time></trkpt><trkpt lat="44.088575" lon="9.8127267"><ele>51.0</ele><time>2026-03-24T07:47:35.837Z</time></trkpt><trkpt lat="44.088495" lon="9.812715"><ele>51.0</ele><time>2026-03-24T07:47:38.838Z</time></trkpt><trkpt lat="44.0884083" lon="9.812695"><ele>51.0</ele><time>2026-03-24T07:47:41.838Z</time></trkpt><trkpt lat="44.08834" lon="9.8126917"><ele>51.0</ele><time>2026-03-24T07:47:44.838Z</time></trkpt><trkpt lat="44.0882617" lon="9.8127017"><ele>51.0</ele><time>2026-03-24T07:47:47.837Z</time></trkpt><trkpt lat="44.0881733" lon="9.8127"><ele>51.0</ele><time>2026-03-24T07:47:50.838Z</time></trkpt><trkpt lat="44.0880867" lon="9.8127"><ele>54.0</ele><time>2026-03-24T07:47:53.838Z</time></trkpt><trkpt lat="44.0880067" lon="9.8127033"><ele>57.0</ele><time>2026-03-24T07:47:56.837Z</time></trkpt><trkpt lat="44.0879267" lon="9.812695"><ele>60.0</ele><time>2026-03-24T07:47:59.838Z</time></trkpt><trkpt lat="44.0878383" lon="9.8127"><ele>63.0</ele><time>2026-03-24T07:48:02.838Z</time></trkpt><trkpt lat="44.08776" lon="9.81271"><ele>66.0</ele><time>2026-03-24T07:48:05.838Z</time></trkpt><trkpt lat="44.087685" lon="9.8127133"><ele>69.0</ele><time>2026-03-24T07:48:08.838Z</time></trkpt><trkpt lat="44.087605" lon="9.8127183"><ele>69.0</ele><time>2026-03-24T07:48:11.838Z</time></trkpt><trkpt lat="44.087535" lon="9.8127483"><ele>69.0</ele><time>2026-03-24T07:48:14.838Z</time></trkpt><trkpt lat="44.0874467" lon="9.8127767"><ele>69.0</ele><time>2026-03-24T07:48:17.838Z</time></trkpt><trkpt lat="44.0873617" lon="9.812795"><ele>69.0</ele><time>2026-03-24T07:48:20.837Z</time></trkpt><trkpt lat="44.0872867" lon="9.8128217"><ele>69.0</ele><time>2026-03-24T07:48:24.838Z</time></trkpt><trkpt lat="44.0872167" lon="9.8128483"><ele>69.0</ele><time>2026-03-24T07:48:28.838Z</time></trkpt><trkpt lat="44.0871333" lon="9.812865"><ele>67.5</ele><time>2026-03-24T07:48:31.838Z</time></trkpt><trkpt lat="44.08701" lon="9.8128533"><ele>66.0</ele><time>2026-03-24T07:48:34.838Z</time></trkpt><trkpt lat="44.0869217" lon="9.8128183"><ele>64.5</ele><time>2026-03-24T07:48:36.838Z</time></trkpt><trkpt lat="44.0868617" lon="9.8127767"><ele>63.0</ele><time>2026-03-24T07:48:38.838Z</time></trkpt><trkpt lat="44.0868017" lon="9.8127317"><ele>61.5</ele><time>2026-03-24T07:48:40.838Z</time></trkpt><trkpt lat="44.0867433" lon="9.81268"><ele>60.0</ele><time>2026-03-24T07:48:42.838Z</time></trkpt><trkpt lat="44.0866867" lon="9.8126217"><ele>62.333333333333336</ele><time>2026-03-24T07:48:44.837Z</time></trkpt><trkpt lat="44.086635" lon="9.8125683"><ele>64.66666666666667</ele><time>2026-03-24T07:48:46.838Z</time></trkpt><trkpt lat="44.0865617" lon="9.8125033"><ele>67.0</ele><time>2026-03-24T07:48:49.838Z</time></trkpt><trkpt lat="44.0864917" lon="9.812425"><ele>69.33333333333334</ele><time>2026-03-24T07:48:52.837Z</time></trkpt><trkpt lat="44.0864167" lon="9.8123467"><ele>71.66666666666667</ele><time>2026-03-24T07:48:55.838Z</time></trkpt><trkpt lat="44.0863617" lon="9.8123"><ele>74.0</ele><time>2026-03-24T07:48:57.838Z</time></trkpt><trkpt lat="44.086275" lon="9.8122567"><ele>74.0</ele><time>2026-03-24T07:49:00.838Z</time></trkpt><trkpt lat="44.0861933" lon="9.8122317"><ele>74.0</ele><time>2026-03-24T07:49:03.838Z</time></trkpt><trkpt lat="44.0861217" lon="9.81224"><ele>74.0</ele><time>2026-03-24T07:49:06.838Z</time></trkpt><trkpt lat="44.0860383" lon="9.8122617"><ele>74.0</ele><time>2026-03-24T07:49:09.838Z</time></trkpt><trkpt lat="44.0859567" lon="9.81228"><ele>74.0</ele><time>2026-03-24T07:49:12.838Z</time></trkpt><trkpt lat="44.08587" lon="9.812265"><ele>74.0</ele><time>2026-03-24T07:49:15.838Z</time></trkpt><trkpt lat="44.0857917" lon="9.81221"><ele>76.5</ele><time>2026-03-24T07:49:17.838Z</time></trkpt><trkpt lat="44.0857317" lon="9.81214"><ele>79.0</ele><time>2026-03-24T07:49:19.838Z</time></trkpt><trkpt lat="44.0856867" lon="9.812055"><ele>81.5</ele><time>2026-03-24T07:49:21.838Z</time></trkpt><trkpt lat="44.085655" lon="9.8119417"><ele>84.0</ele><time>2026-03-24T07:49:24.838Z</time></trkpt><trkpt lat="44.0856433" lon="9.8118217"><ele>86.5</ele><time>2026-03-24T07:49:27.838Z</time></trkpt><trkpt lat="44.0856483" lon="9.811695"><ele>89.0</ele><time>2026-03-24T07:49:30.838Z</time></trkpt><trkpt lat="44.08569" lon="9.8115883"><ele>89.0</ele><time>2026-03-24T07:49:33.838Z</time></trkpt><trkpt lat="44.0857383" lon="9.8115033"><ele>89.0</ele><time>2026-03-24T07:49:35.838Z</time></trkpt><trkpt lat="44.0857933" lon="9.8114333"><ele>89.0</ele><time>2026-03-24T07:49:38.838Z</time></trkpt><trkpt lat="44.0858533" lon="9.8113717"><ele>89.0</ele><time>2026-03-24T07:49:41.838Z</time></trkpt><trkpt lat="44.085925" lon="9.811355"><ele>89.0</ele><time>2026-03-24T07:49:44.838Z</time></trkpt><trkpt lat="44.0860217" lon="9.8113733"><ele>89.0</ele><time>2026-03-24T07:49:47.838Z</time></trkpt><trkpt lat="44.0861283" lon="9.81138"><ele>91.66666666666667</ele><time>2026-03-24T07:49:50.838Z</time></trkpt><trkpt lat="44.0861983" lon="9.811415"><ele>94.33333333333334</ele><time>2026-03-24T07:49:52.838Z</time></trkpt><trkpt lat="44.086265" lon="9.811485"><ele>97.0</ele><time>2026-03-24T07:49:54.838Z</time></trkpt><trkpt lat="44.0863183" lon="9.811545"><ele>99.66666666666667</ele><time>2026-03-24T07:49:56.837Z</time></trkpt><trkpt lat="44.08637" lon="9.8116067"><ele>102.33333333333333</ele><time>2026-03-24T07:49:58.837Z</time></trkpt><trkpt lat="44.0864533" lon="9.81169"><ele>105.0</ele><time>2026-03-24T07:50:01.838Z</time></trkpt><trkpt lat="44.0865017" lon="9.8117483"><ele>105.0</ele><time>2026-03-24T07:50:03.838Z</time></trkpt><trkpt lat="44.0865467" lon="9.8118233"><ele>105.0</ele><time>2026-03-24T07:50:05.838Z</time></trkpt><trkpt lat="44.0865933" lon="9.8118917"><ele>105.0</ele><time>2026-03-24T07:50:07.837Z</time></trkpt><trkpt lat="44.0866617" lon="9.8119783"><ele>105.0</ele><time>2026-03-24T07:50:10.837Z</time></trkpt><trkpt lat="44.0867133" lon="9.8120433"><ele>105.0</ele><time>2026-03-24T07:50:13.838Z</time></trkpt><trkpt lat="44.0867833" lon="9.812115"><ele>105.0</ele><time>2026-03-24T07:50:17.838Z</time></trkpt><trkpt lat="44.0868483" lon="9.8121483"><ele>103.0</ele><time>2026-03-24T07:50:20.838Z</time></trkpt><trkpt lat="44.0869333" lon="9.8121867"><ele>101.0</ele><time>2026-03-24T07:50:23.838Z</time></trkpt><trkpt lat="44.0870167" lon="9.8122233"><ele>99.0</ele><time>2026-03-24T07:50:26.838Z</time></trkpt><trkpt lat="44.08709" lon="9.8122417"><ele>97.0</ele><time>2026-03-24T07:50:29.838Z</time></trkpt><trkpt lat="44.0871583" lon="9.812245"><ele>95.0</ele><time>2026-03-24T07:50:32.837Z</time></trkpt><trkpt lat="44.0872367" lon="9.8122333"><ele>93.0</ele><time>2026-03-24T07:50:35.838Z</time></trkpt><trkpt lat="44.0873217" lon="9.81223"><ele>93.00000000000001</ele><time>2026-03-24T07:50:38.838Z</time></trkpt><trkpt lat="44.08741" lon="9.812235"><ele>93.0</ele><time>2026-03-24T07:50:41.838Z</time></trkpt><trkpt lat="44.0874783" lon="9.81225"><ele>93.0</ele><time>2026-03-24T07:50:43.838Z</time></trkpt><trkpt lat="44.08755" lon="9.8122583"><ele>93.0</ele><time>2026-03-24T07:50:45.838Z</time></trkpt><trkpt lat="44.0876133" lon="9.8122633"><ele>93.0</ele><time>2026-03-24T07:50:47.838Z</time></trkpt><trkpt lat="44.0876767" lon="9.8122717"><ele>93.00000000000001</ele><time>2026-03-24T07:50:49.838Z</time></trkpt><trkpt lat="44.0877617" lon="9.812285"><ele>93.0</ele><time>2026-03-24T07:50:52.838Z</time></trkpt><trkpt lat="44.0878417" lon="9.81228"><ele>94.0</ele><time>2026-03-24T07:50:55.838Z</time></trkpt><trkpt lat="44.0879217" lon="9.8122567"><ele>95.0</ele><time>2026-03-24T07:50:58.838Z</time></trkpt><trkpt lat="44.0880117" lon="9.8122367"><ele>96.0</ele><time>2026-03-24T07:51:01.838Z</time></trkpt><trkpt lat="44.0880817" lon="9.812235"><ele>97.0</ele><time>2026-03-24T07:51:03.838Z</time></trkpt><trkpt lat="44.08815" lon="9.8122367"><ele>98.0</ele><time>2026-03-24T07:51:05.838Z</time></trkpt><trkpt lat="44.0882367" lon="9.812235"><ele>99.0</ele><time>2026-03-24T07:51:07.838Z</time></trkpt><trkpt lat="44.0883333" lon="9.812225"><ele>99.0</ele><time>2026-03-24T07:51:09.837Z</time></trkpt><trkpt lat="44.0884033" lon="9.81222"><ele>99.0</ele><time>2026-03-24T07:51:11.838Z</time></trkpt><trkpt lat="44.0884783" lon="9.8122033"><ele>99.0</ele><time>2026-03-24T07:51:13.838Z</time></trkpt><trkpt lat="44.0885467" lon="9.81218"><ele>99.0</ele><time>2026-03-24T07:51:15.837Z</time></trkpt><trkpt lat="44.0886417" lon="9.8121717"><ele>99.0</ele><time>2026-03-24T07:51:18.838Z</time></trkpt><trkpt lat="44.088705" lon="9.8121633"><ele>99.0</ele><time>2026-03-24T07:51:20.838Z</time></trkpt><trkpt lat="44.0887967" lon="9.8121567"><ele>99.0</ele><time>2026-03-24T07:51:23.838Z</time></trkpt><trkpt lat="44.0888933" lon="9.8121317"><ele>99.0</ele><time>2026-03-24T07:51:26.838Z</time></trkpt><trkpt lat="44.0889817" lon="9.8120917"><ele>99.0</ele><time>2026-03-24T07:51:29.837Z</time></trkpt><trkpt lat="44.0890433" lon="9.81204"><ele>99.0</ele><time>2026-03-24T07:51:32.838Z</time></trkpt><trkpt lat="44.0891167" lon="9.8119683"><ele>99.0</ele><time>2026-03-24T07:51:35.838Z</time></trkpt><trkpt lat="44.089185" lon="9.8118983"><ele>99.0</ele><time>2026-03-24T07:51:38.838Z</time></trkpt><trkpt lat="44.0892517" lon="9.8118283"><ele>103.42857142857143</ele><time>2026-03-24T07:51:41.838Z</time></trkpt><trkpt lat="44.0893017" lon="9.811775"><ele>107.85714285714286</ele><time>2026-03-24T07:51:43.838Z</time></trkpt><trkpt lat="44.08936" lon="9.8117333"><ele>112.28571428571429</ele><time>2026-03-24T07:51:45.838Z</time></trkpt><trkpt lat="44.089415" lon="9.8116833"><ele>116.71428571428572</ele><time>2026-03-24T07:51:47.837Z</time></trkpt><trkpt lat="44.0894783" lon="9.8116233"><ele>121.14285714285714</ele><time>2026-03-24T07:51:49.838Z</time></trkpt><trkpt lat="44.0895283" lon="9.8115617"><ele>125.57142857142858</ele><time>2026-03-24T07:51:51.837Z</time></trkpt><trkpt lat="44.0895767" lon="9.8115"><ele>130.0</ele><time>2026-03-24T07:51:53.838Z</time></trkpt><trkpt lat="44.08963" lon="9.81144"><ele>130.00000000000003</ele><time>2026-03-24T07:51:55.837Z</time></trkpt><trkpt lat="44.0896833" lon="9.8113867"><ele>130.0</ele><time>2026-03-24T07:51:57.838Z</time></trkpt><trkpt lat="44.0897383" lon="9.81133"><ele>130.0</ele><time>2026-03-24T07:51:59.838Z</time></trkpt><trkpt lat="44.089795" lon="9.8112867"><ele>130.0</ele><time>2026-03-24T07:52:01.837Z</time></trkpt><trkpt lat="44.0898533" lon="9.8112483"><ele>130.0</ele><time>2026-03-24T07:52:03.837Z</time></trkpt><trkpt lat="44.0899133" lon="9.8112217"><ele>130.00000000000003</ele><time>2026-03-24T07:52:05.838Z</time></trkpt><trkpt lat="44.0900017" lon="9.81118"><ele>130.0</ele><time>2026-03-24T07:52:08.838Z</time></trkpt><trkpt lat="44.09009" lon="9.8111433"><ele>128.66666666666669</ele><time>2026-03-24T07:52:11.838Z</time></trkpt><trkpt lat="44.09018" lon="9.8111183"><ele>127.33333333333334</ele><time>2026-03-24T07:52:14.838Z</time></trkpt><trkpt lat="44.0902633" lon="9.8111067"><ele>126.0</ele><time>2026-03-24T07:52:17.838Z</time></trkpt><trkpt lat="44.0903533" lon="9.8110917"><ele>124.66666666666666</ele><time>2026-03-24T07:52:20.838Z</time></trkpt><trkpt lat="44.0904417" lon="9.8110717"><ele>123.33333333333333</ele><time>2026-03-24T07:52:23.838Z</time></trkpt><trkpt lat="44.0905317" lon="9.8110633"><ele>122.0</ele><time>2026-03-24T07:52:26.838Z</time></trkpt><trkpt lat="44.0906133" lon="9.81107"><ele>121.99999999999999</ele><time>2026-03-24T07:52:29.837Z</time></trkpt><trkpt lat="44.0906817" lon="9.811065"><ele>122.0</ele><time>2026-03-24T07:52:32.837Z</time></trkpt><trkpt lat="44.0907483" lon="9.8110517"><ele>122.0</ele><time>2026-03-24T07:52:35.837Z</time></trkpt><trkpt lat="44.090835" lon="9.8110333"><ele>122.0</ele><time>2026-03-24T07:52:38.838Z</time></trkpt><trkpt lat="44.0908967" lon="9.8110083"><ele>121.99999999999999</ele><time>2026-03-24T07:52:40.837Z</time></trkpt><trkpt lat="44.0909767" lon="9.8109733"><ele>122.0</ele><time>2026-03-24T07:52:43.838Z</time></trkpt><trkpt lat="44.0910483" lon="9.81092"><ele>125.16666666666666</ele><time>2026-03-24T07:52:46.838Z</time></trkpt><trkpt lat="44.0911167" lon="9.8108583"><ele>128.33333333333331</ele><time>2026-03-24T07:52:49.838Z</time></trkpt><trkpt lat="44.0911883" lon="9.8107683"><ele>131.5</ele><time>2026-03-24T07:52:52.838Z</time></trkpt><trkpt lat="44.0912433" lon="9.8106967"><ele>134.66666666666666</ele><time>2026-03-24T07:52:54.838Z</time></trkpt><trkpt lat="44.0912883" lon="9.8105933"><ele>137.83333333333334</ele><time>2026-03-24T07:52:57.837Z</time></trkpt><trkpt lat="44.09131" lon="9.8105"><ele>141.0</ele><time>2026-03-24T07:53:00.838Z</time></trkpt><trkpt lat="44.091335" lon="9.8104083"><ele>141.0</ele><time>2026-03-24T07:53:03.838Z</time></trkpt><trkpt lat="44.0913617" lon="9.8103067"><ele>141.0</ele><time>2026-03-24T07:53:06.838Z</time></trkpt><trkpt lat="44.0913767" lon="9.8102017"><ele>141.0</ele><time>2026-03-24T07:53:09.838Z</time></trkpt><trkpt lat="44.0914017" lon="9.8100883"><ele>141.0</ele><time>2026-03-24T07:53:12.838Z</time></trkpt><trkpt lat="44.0914133" lon="9.8099767"><ele>141.0</ele><time>2026-03-24T07:53:15.838Z</time></trkpt><trkpt lat="44.0914167" lon="9.8098833"><ele>141.0</ele><time>2026-03-24T07:53:18.838Z</time></trkpt><trkpt lat="44.0914133" lon="9.8097783"><ele>142.83333333333334</ele><time>2026-03-24T07:53:21.837Z</time></trkpt><trkpt lat="44.0913817" lon="9.80969"><ele>144.66666666666666</ele><time>2026-03-24T07:53:24.838Z</time></trkpt><trkpt lat="44.0913483" lon="9.8095967"><ele>146.5</ele><time>2026-03-24T07:53:27.838Z</time></trkpt><trkpt lat="44.0912933" lon="9.8095233"><ele>148.33333333333331</ele><time>2026-03-24T07:53:30.837Z</time></trkpt><trkpt lat="44.091245" lon="9.8094333"><ele>150.16666666666666</ele><time>2026-03-24T07:53:33.838Z</time></trkpt><trkpt lat="44.0912033" lon="9.809335"><ele>152.0</ele><time>2026-03-24T07:53:36.838Z</time></trkpt><trkpt lat="44.0911567" lon="9.809235"><ele>152.0</ele><time>2026-03-24T07:53:39.838Z</time></trkpt><trkpt lat="44.091125" lon="9.809135"><ele>152.0</ele><time>2026-03-24T07:53:42.838Z</time></trkpt><trkpt lat="44.0910783" lon="9.809075"><ele>152.0</ele><time>2026-03-24T07:53:44.838Z</time></trkpt><trkpt lat="44.0910333" lon="9.8089767"><ele>152.0</ele><time>2026-03-24T07:53:47.837Z</time></trkpt><trkpt lat="44.0909967" lon="9.8088833"><ele>152.0</ele><time>2026-03-24T07:53:50.838Z</time></trkpt><trkpt lat="44.09096" lon="9.8088033"><ele>152.0</ele><time>2026-03-24T07:53:53.837Z</time></trkpt><trkpt lat="44.090915" lon="9.8087333"><ele>152.0</ele><time>2026-03-24T07:53:56.838Z</time></trkpt><trkpt lat="44.09085" lon="9.8086633"><ele>152.0</ele><time>2026-03-24T07:53:59.837Z</time></trkpt><trkpt lat="44.0907883" lon="9.8085817"><ele>152.0</ele><time>2026-03-24T07:54:02.837Z</time></trkpt><trkpt lat="44.0907267" lon="9.8085033"><ele>152.0</ele><time>2026-03-24T07:54:05.838Z</time></trkpt><trkpt lat="44.0906833" lon="9.80843"><ele>152.0</ele><time>2026-03-24T07:54:08.838Z</time></trkpt><trkpt lat="44.09061" lon="9.8083517"><ele>152.0</ele><time>2026-03-24T07:54:11.838Z</time></trkpt><trkpt lat="44.0905517" lon="9.808255"><ele>152.0</ele><time>2026-03-24T07:54:14.838Z</time></trkpt><trkpt lat="44.0905133" lon="9.8081733"><ele>153.7142857142857</ele><time>2026-03-24T07:54:16.838Z</time></trkpt><trkpt lat="44.0904683" lon="9.80811"><ele>155.42857142857144</ele><time>2026-03-24T07:54:18.837Z</time></trkpt><trkpt lat="44.090425" lon="9.8080383"><ele>157.14285714285714</ele><time>2026-03-24T07:54:20.838Z</time></trkpt><trkpt lat="44.0903867" lon="9.807965"><ele>158.85714285714283</ele><time>2026-03-24T07:54:22.838Z</time></trkpt><trkpt lat="44.0903317" lon="9.8078683"><ele>160.57142857142856</ele><time>2026-03-24T07:54:25.838Z</time></trkpt><trkpt lat="44.090295" lon="9.807795"><ele>162.28571428571428</ele><time>2026-03-24T07:54:27.838Z</time></trkpt><trkpt lat="44.0902533" lon="9.80772"><ele>164.0</ele><time>2026-03-24T07:54:29.838Z</time></trkpt><trkpt lat="44.0902083" lon="9.8076533"><ele>163.99999999999997</ele><time>2026-03-24T07:54:31.838Z</time></trkpt><trkpt lat="44.090165" lon="9.8075867"><ele>164.0</ele><time>2026-03-24T07:54:33.837Z</time></trkpt><trkpt lat="44.0901083" lon="9.8074933"><ele>164.0</ele><time>2026-03-24T07:54:36.837Z</time></trkpt><trkpt lat="44.0900683" lon="9.8074133"><ele>164.0</ele><time>2026-03-24T07:54:38.837Z</time></trkpt><trkpt lat="44.090035" lon="9.8073367"><ele>164.0</ele><time>2026-03-24T07:54:40.837Z</time></trkpt><trkpt lat="44.0899817" lon="9.8072483"><ele>163.99999999999997</ele><time>2026-03-24T07:54:43.837Z</time></trkpt><trkpt lat="44.0899417" lon="9.8071683"><ele>164.0</ele><time>2026-03-24T07:54:45.837Z</time></trkpt><trkpt lat="44.089895" lon="9.807055"><ele>168.16666666666666</ele><time>2026-03-24T07:54:48.836Z</time></trkpt><trkpt lat="44.0898683" lon="9.806945"><ele>172.33333333333331</ele><time>2026-03-24T07:54:51.837Z</time></trkpt><trkpt lat="44.0898383" lon="9.8068433"><ele>176.5</ele><time>2026-03-24T07:54:54.837Z</time></trkpt><trkpt lat="44.0898233" lon="9.8067317"><ele>180.66666666666666</ele><time>2026-03-24T07:54:57.837Z</time></trkpt><trkpt lat="44.08981" lon="9.80661"><ele>184.83333333333334</ele><time>2026-03-24T07:55:00.837Z</time></trkpt><trkpt lat="44.0898083" lon="9.8065167"><ele>189.0</ele><time>2026-03-24T07:55:03.837Z</time></trkpt><trkpt lat="44.0898167" lon="9.80642"><ele>189.0</ele><time>2026-03-24T07:55:06.837Z</time></trkpt><trkpt lat="44.089825" lon="9.806315"><ele>189.0</ele><time>2026-03-24T07:55:09.837Z</time></trkpt><trkpt lat="44.0898267" lon="9.8062117"><ele>189.0</ele><time>2026-03-24T07:55:12.837Z</time></trkpt><trkpt lat="44.0898267" lon="9.8060867"><ele>189.0</ele><time>2026-03-24T07:55:15.837Z</time></trkpt><trkpt lat="44.0898317" lon="9.805985"><ele>189.0</ele><time>2026-03-24T07:55:18.837Z</time></trkpt><trkpt lat="44.0898433" lon="9.8058533"><ele>189.0</ele><time>2026-03-24T07:55:21.837Z</time></trkpt><trkpt lat="44.0898583" lon="9.805745"><ele>189.83333333333334</ele><time>2026-03-24T07:55:23.837Z</time></trkpt><trkpt lat="44.0898733" lon="9.805635"><ele>190.66666666666669</ele><time>2026-03-24T07:55:25.837Z</time></trkpt><trkpt lat="44.08988" lon="9.8055233"><ele>191.5</ele><time>2026-03-24T07:55:27.837Z</time></trkpt><trkpt lat="44.089885" lon="9.8054117"><ele>192.33333333333334</ele><time>2026-03-24T07:55:29.837Z</time></trkpt><trkpt lat="44.0898817" lon="9.8052833"><ele>193.16666666666669</ele><time>2026-03-24T07:55:31.837Z</time></trkpt><trkpt lat="44.089885" lon="9.805175"><ele>194.0</ele><time>2026-03-24T07:55:33.837Z</time></trkpt><trkpt lat="44.0898833" lon="9.8050583"><ele>194.28571428571428</ele><time>2026-03-24T07:55:36.837Z</time></trkpt><trkpt lat="44.0898783" lon="9.8049683"><ele>194.57142857142858</ele><time>2026-03-24T07:55:38.836Z</time></trkpt><trkpt lat="44.0898683" lon="9.8048483"><ele>194.85714285714286</ele><time>2026-03-24T07:55:41.837Z</time></trkpt><trkpt lat="44.089865" lon="9.8047567"><ele>195.14285714285714</ele><time>2026-03-24T07:55:43.837Z</time></trkpt><trkpt lat="44.08986" lon="9.80466"><ele>195.42857142857144</ele><time>2026-03-24T07:55:46.837Z</time></trkpt><trkpt lat="44.0898433" lon="9.8045667"><ele>195.71428571428572</ele><time>2026-03-24T07:55:49.837Z</time></trkpt><trkpt lat="44.0898167" lon="9.8044717"><ele>196.0</ele><time>2026-03-24T07:55:52.837Z</time></trkpt><trkpt lat="44.0897933" lon="9.80439"><ele>195.14285714285714</ele><time>2026-03-24T07:55:55.836Z</time></trkpt><trkpt lat="44.08976" lon="9.8043133"><ele>194.28571428571428</ele><time>2026-03-24T07:55:58.837Z</time></trkpt><trkpt lat="44.08972" lon="9.8042267"><ele>193.42857142857144</ele><time>2026-03-24T07:56:02.836Z</time></trkpt><trkpt lat="44.0896767" lon="9.804145"><ele>192.57142857142856</ele><time>2026-03-24T07:56:05.837Z</time></trkpt><trkpt lat="44.0896283" lon="9.804075"><ele>191.71428571428572</ele><time>2026-03-24T07:56:08.837Z</time></trkpt><trkpt lat="44.0895667" lon="9.8040033"><ele>190.85714285714286</ele><time>2026-03-24T07:56:11.837Z</time></trkpt><trkpt lat="44.0895033" lon="9.8039267"><ele>190.0</ele><time>2026-03-24T07:56:14.836Z</time></trkpt><trkpt lat="44.089455" lon="9.80386"><ele>190.0</ele><time>2026-03-24T07:56:16.837Z</time></trkpt><trkpt lat="44.0894" lon="9.8037783"><ele>190.0</ele><time>2026-03-24T07:56:19.837Z</time></trkpt><trkpt lat="44.0893467" lon="9.8036767"><ele>190.0</ele><time>2026-03-24T07:56:22.837Z</time></trkpt><trkpt lat="44.0893083" lon="9.8035683"><ele>190.0</ele><time>2026-03-24T07:56:25.836Z</time></trkpt><trkpt lat="44.0892667" lon="9.80347"><ele>190.0</ele><time>2026-03-24T07:56:28.837Z</time></trkpt><trkpt lat="44.0892283" lon="9.803355"><ele>190.0</ele><time>2026-03-24T07:56:31.837Z</time></trkpt><trkpt lat="44.0891833" lon="9.803235"><ele>188.66666666666669</ele><time>2026-03-24T07:56:34.837Z</time></trkpt><trkpt lat="44.0891717" lon="9.80314"><ele>187.33333333333334</ele><time>2026-03-24T07:56:36.836Z</time></trkpt><trkpt lat="44.089145" lon="9.8030317"><ele>186.0</ele><time>2026-03-24T07:56:38.837Z</time></trkpt><trkpt lat="44.089125" lon="9.8028967"><ele>184.66666666666666</ele><time>2026-03-24T07:56:41.836Z</time></trkpt><trkpt lat="44.0891367" lon="9.8028083"><ele>183.33333333333331</ele><time>2026-03-24T07:56:43.837Z</time></trkpt><trkpt lat="44.089145" lon="9.8027117"><ele>182.0</ele><time>2026-03-24T07:56:45.837Z</time></trkpt><trkpt lat="44.08916" lon="9.8026017"><ele>181.16666666666666</ele><time>2026-03-24T07:56:47.837Z</time></trkpt><trkpt lat="44.08917" lon="9.802475"><ele>180.33333333333331</ele><time>2026-03-24T07:56:49.837Z</time></trkpt><trkpt lat="44.089185" lon="9.8023717"><ele>179.5</ele><time>2026-03-24T07:56:52.837Z</time></trkpt><trkpt lat="44.0892283" lon="9.8022833"><ele>178.66666666666666</ele><time>2026-03-24T07:56:55.837Z</time></trkpt><trkpt lat="44.0892817" lon="9.8021967"><ele>177.83333333333334</ele><time>2026-03-24T07:56:58.837Z</time></trkpt><trkpt lat="44.0893383" lon="9.8021"><ele>177.0</ele><time>2026-03-24T07:57:01.837Z</time></trkpt><trkpt lat="44.0893917" lon="9.8020467"><ele>177.0</ele><time>2026-03-24T07:57:03.837Z</time></trkpt><trkpt lat="44.0894583" lon="9.802005"><ele>177.0</ele><time>2026-03-24T07:57:05.837Z</time></trkpt><trkpt lat="44.089515" lon="9.801955"><ele>177.0</ele><time>2026-03-24T07:57:07.837Z</time></trkpt><trkpt lat="44.0895633" lon="9.8018933"><ele>177.0</ele><time>2026-03-24T07:57:09.835Z</time></trkpt><trkpt lat="44.0896433" lon="9.801855"><ele>177.0</ele><time>2026-03-24T07:57:12.837Z</time></trkpt><trkpt lat="44.089735" lon="9.8018433"><ele>177.0</ele><time>2026-03-24T07:57:15.837Z</time></trkpt><trkpt lat="44.0898167" lon="9.801855"><ele>177.0</ele><time>2026-03-24T07:57:18.837Z</time></trkpt><trkpt lat="44.0899067" lon="9.80189"><ele>177.0</ele><time>2026-03-24T07:57:21.837Z</time></trkpt><trkpt lat="44.0899767" lon="9.8019183"><ele>177.0</ele><time>2026-03-24T07:57:23.837Z</time></trkpt><trkpt lat="44.0900367" lon="9.8019617"><ele>177.0</ele><time>2026-03-24T07:57:25.837Z</time></trkpt><trkpt lat="44.0901117" lon="9.8020333"><ele>177.0</ele><time>2026-03-24T07:57:28.837Z</time></trkpt><trkpt lat="44.0901883" lon="9.8020933"><ele>177.0</ele><time>2026-03-24T07:57:31.837Z</time></trkpt><trkpt lat="44.090245" lon="9.802145"><ele>176.16666666666666</ele><time>2026-03-24T07:57:33.837Z</time></trkpt><trkpt lat="44.0902983" lon="9.8021983"><ele>175.33333333333334</ele><time>2026-03-24T07:57:35.837Z</time></trkpt><trkpt lat="44.0903517" lon="9.8022467"><ele>174.5</ele><time>2026-03-24T07:57:37.837Z</time></trkpt><trkpt lat="44.0904133" lon="9.8022933"><ele>173.66666666666669</ele><time>2026-03-24T07:57:39.837Z</time></trkpt><trkpt lat="44.0904883" lon="9.802355"><ele>172.83333333333334</ele><time>2026-03-24T07:57:42.837Z</time></trkpt><trkpt lat="44.090565" lon="9.8024267"><ele>172.0</ele><time>2026-03-24T07:57:45.837Z</time></trkpt><trkpt lat="44.0906267" lon="9.802505"><ele>172.0</ele><time>2026-03-24T07:57:48.837Z</time></trkpt><trkpt lat="44.09069" lon="9.80253"><ele>172.0</ele><time>2026-03-24T07:57:50.837Z</time></trkpt><trkpt lat="44.090755" lon="9.8026083"><ele>172.0</ele><time>2026-03-24T07:57:53.837Z</time></trkpt><trkpt lat="44.0908183" lon="9.8026983"><ele>172.0</ele><time>2026-03-24T07:57:56.837Z</time></trkpt><trkpt lat="44.0908883" lon="9.802745"><ele>172.0</ele><time>2026-03-24T07:57:59.837Z</time></trkpt><trkpt lat="44.0909483" lon="9.802815"><ele>172.0</ele><time>2026-03-24T07:58:02.837Z</time></trkpt><trkpt lat="44.091005" lon="9.8028883"><ele>171.5</ele><time>2026-03-24T07:58:05.837Z</time></trkpt><trkpt lat="44.091065" lon="9.802965"><ele>171.0</ele><time>2026-03-24T07:58:08.836Z</time></trkpt><trkpt lat="44.091115" lon="9.8030433"><ele>170.5</ele><time>2026-03-24T07:58:11.837Z</time></trkpt><trkpt lat="44.0911683" lon="9.8031"><ele>170.0</ele><time>2026-03-24T07:58:13.836Z</time></trkpt><trkpt lat="44.0912267" lon="9.8031683"><ele>169.5</ele><time>2026-03-24T07:58:15.837Z</time></trkpt><trkpt lat="44.091285" lon="9.8032367"><ele>169.0</ele><time>2026-03-24T07:58:18.837Z</time></trkpt><trkpt lat="44.091355" lon="9.8032867"><ele>169.0</ele><time>2026-03-24T07:58:21.836Z</time></trkpt><trkpt lat="44.09143" lon="9.8033133"><ele>169.0</ele><time>2026-03-24T07:58:24.837Z</time></trkpt><trkpt lat="44.09151" lon="9.8033217"><ele>169.0</ele><time>2026-03-24T07:58:27.836Z</time></trkpt><trkpt lat="44.0915933" lon="9.8033283"><ele>169.0</ele><time>2026-03-24T07:58:31.837Z</time></trkpt><trkpt lat="44.0916583" lon="9.80333"><ele>169.0</ele><time>2026-03-24T07:58:33.837Z</time></trkpt><trkpt lat="44.0917383" lon="9.8033183"><ele>169.0</ele><time>2026-03-24T07:58:37.837Z</time></trkpt><trkpt lat="44.0918283" lon="9.8033217"><ele>173.16666666666669</ele><time>2026-03-24T07:58:40.837Z</time></trkpt><trkpt lat="44.0919167" lon="9.803335"><ele>177.33333333333334</ele><time>2026-03-24T07:58:43.836Z</time></trkpt><trkpt lat="44.0920067" lon="9.8033317"><ele>181.5</ele><time>2026-03-24T07:58:46.837Z</time></trkpt><trkpt lat="44.0920917" lon="9.8033267"><ele>185.66666666666669</ele><time>2026-03-24T07:58:49.837Z</time></trkpt><trkpt lat="44.0921533" lon="9.803345"><ele>189.83333333333334</ele><time>2026-03-24T07:58:51.837Z</time></trkpt><trkpt lat="44.09224" lon="9.80338"><ele>194.0</ele><time>2026-03-24T07:58:54.837Z</time></trkpt><trkpt lat="44.092325" lon="9.8033867"><ele>194.00000000000003</ele><time>2026-03-24T07:58:57.837Z</time></trkpt><trkpt lat="44.0924117" lon="9.8034083"><ele>194.0</ele><time>2026-03-24T07:59:00.837Z</time></trkpt><trkpt lat="44.0924817" lon="9.8034433"><ele>194.0</ele><time>2026-03-24T07:59:02.836Z</time></trkpt><trkpt lat="44.0925467" lon="9.8034617"><ele>194.0</ele><time>2026-03-24T07:59:04.837Z</time></trkpt><trkpt lat="44.092635" lon="9.8034733"><ele>194.00000000000003</ele><time>2026-03-24T07:59:07.837Z</time></trkpt><trkpt lat="44.092725" lon="9.8034967"><ele>194.0</ele><time>2026-03-24T07:59:10.837Z</time></trkpt><trkpt lat="44.0928033" lon="9.803495"><ele>192.57142857142856</ele><time>2026-03-24T07:59:13.837Z</time></trkpt><trkpt lat="44.0928667" lon="9.80351"><ele>191.14285714285717</ele><time>2026-03-24T07:59:15.837Z</time></trkpt><trkpt lat="44.0929367" lon="9.8035333"><ele>189.71428571428572</ele><time>2026-03-24T07:59:17.837Z</time></trkpt><trkpt lat="44.0930017" lon="9.8035583"><ele>188.28571428571428</ele><time>2026-03-24T07:59:19.837Z</time></trkpt><trkpt lat="44.09307" lon="9.8035633"><ele>186.85714285714283</ele><time>2026-03-24T07:59:21.837Z</time></trkpt><trkpt lat="44.0931367" lon="9.8035767"><ele>185.42857142857144</ele><time>2026-03-24T07:59:23.837Z</time></trkpt><trkpt lat="44.0932167" lon="9.8035733"><ele>184.0</ele><time>2026-03-24T07:59:26.837Z</time></trkpt><trkpt lat="44.093295" lon="9.8035717"><ele>184.0</ele><time>2026-03-24T07:59:29.837Z</time></trkpt><trkpt lat="44.0933717" lon="9.8035883"><ele>184.0</ele><time>2026-03-24T07:59:32.837Z</time></trkpt><trkpt lat="44.09345" lon="9.8036"><ele>184.0</ele><time>2026-03-24T07:59:35.837Z</time></trkpt><trkpt lat="44.0935217" lon="9.8036033"><ele>184.0</ele><time>2026-03-24T07:59:38.837Z</time></trkpt><trkpt lat="44.0936067" lon="9.803605"><ele>184.0</ele><time>2026-03-24T07:59:41.837Z</time></trkpt><trkpt lat="44.0937" lon="9.8036133"><ele>184.0</ele><time>2026-03-24T07:59:44.837Z</time></trkpt><trkpt lat="44.0937667" lon="9.80362"><ele>184.0</ele><time>2026-03-24T07:59:46.837Z</time></trkpt><trkpt lat="44.093855" lon="9.8036283"><ele>184.0</ele><time>2026-03-24T07:59:49.837Z</time></trkpt><trkpt lat="44.0939183" lon="9.803635"><ele>184.0</ele><time>2026-03-24T07:59:51.837Z</time></trkpt><trkpt lat="44.0939817" lon="9.8036417"><ele>184.0</ele><time>2026-03-24T07:59:53.837Z</time></trkpt><trkpt lat="44.0940533" lon="9.8036383"><ele>184.0</ele><time>2026-03-24T07:59:55.837Z</time></trkpt><trkpt lat="44.0941333" lon="9.80363"><ele>184.0</ele><time>2026-03-24T07:59:57.837Z</time></trkpt><trkpt lat="44.0942" lon="9.8036283"><ele>184.0</ele><time>2026-03-24T07:59:59.837Z</time></trkpt><trkpt lat="44.094295" lon="9.8036417"><ele>185.16666666666669</ele><time>2026-03-24T08:00:02.837Z</time></trkpt><trkpt lat="44.0943867" lon="9.8036533"><ele>186.33333333333334</ele><time>2026-03-24T08:00:05.837Z</time></trkpt><trkpt lat="44.0944767" lon="9.8036733"><ele>187.5</ele><time>2026-03-24T08:00:08.837Z</time></trkpt><trkpt lat="44.094555" lon="9.8036817"><ele>188.66666666666666</ele><time>2026-03-24T08:00:11.837Z</time></trkpt><trkpt lat="44.09462" lon="9.803695"><ele>189.83333333333331</ele><time>2026-03-24T08:00:13.837Z</time></trkpt><trkpt lat="44.094685" lon="9.8036917"><ele>191.0</ele><time>2026-03-24T08:00:15.837Z</time></trkpt><trkpt lat="44.0947517" lon="9.8036917"><ele>191.0</ele><time>2026-03-24T08:00:17.837Z</time></trkpt><trkpt lat="44.0948217" lon="9.8036867"><ele>191.0</ele><time>2026-03-24T08:00:19.837Z</time></trkpt><trkpt lat="44.0948933" lon="9.80369"><ele>191.0</ele><time>2026-03-24T08:00:21.837Z</time></trkpt><trkpt lat="44.0949633" lon="9.8036783"><ele>191.0</ele><time>2026-03-24T08:00:23.837Z</time></trkpt><trkpt lat="44.0950267" lon="9.8036717"><ele>191.0</ele><time>2026-03-24T08:00:25.837Z</time></trkpt><trkpt lat="44.095095" lon="9.80366"><ele>191.0</ele><time>2026-03-24T08:00:27.837Z</time></trkpt><trkpt lat="44.09518" lon="9.8036267"><ele>191.0</ele><time>2026-03-24T08:00:30.837Z</time></trkpt><trkpt lat="44.0952733" lon="9.80357"><ele>191.0</ele><time>2026-03-24T08:00:33.837Z</time></trkpt><trkpt lat="44.0953283" lon="9.8035267"><ele>191.0</ele><time>2026-03-24T08:00:35.836Z</time></trkpt><trkpt lat="44.0953917" lon="9.8034833"><ele>191.0</ele><time>2026-03-24T08:00:37.837Z</time></trkpt><trkpt lat="44.09545" lon="9.8034333"><ele>191.0</ele><time>2026-03-24T08:00:39.837Z</time></trkpt><trkpt lat="44.09553" lon="9.8033733"><ele>191.0</ele><time>2026-03-24T08:00:42.836Z</time></trkpt><trkpt lat="44.0955917" lon="9.8033217"><ele>191.0</ele><time>2026-03-24T08:00:45.836Z</time></trkpt><trkpt lat="44.0956433" lon="9.8032333"><ele>191.0</ele><time>2026-03-24T08:00:48.836Z</time></trkpt><trkpt lat="44.0956883" lon="9.8031267"><ele>192.33333333333331</ele><time>2026-03-24T08:00:51.836Z</time></trkpt><trkpt lat="44.0957433" lon="9.80302"><ele>193.66666666666666</ele><time>2026-03-24T08:00:54.836Z</time></trkpt><trkpt lat="44.0957917" lon="9.8029217"><ele>195.0</ele><time>2026-03-24T08:00:57.836Z</time></trkpt><trkpt lat="44.0958117" lon="9.802825"><ele>196.33333333333331</ele><time>2026-03-24T08:01:00.836Z</time></trkpt><trkpt lat="44.0958317" lon="9.80274"><ele>197.66666666666666</ele><time>2026-03-24T08:01:02.836Z</time></trkpt><trkpt lat="44.0958567" lon="9.8026517"><ele>199.0</ele><time>2026-03-24T08:01:04.836Z</time></trkpt><trkpt lat="44.0958783" lon="9.802525"><ele>201.49999999999997</ele><time>2026-03-24T08:01:07.836Z</time></trkpt><trkpt lat="44.095885" lon="9.8024"><ele>204.0</ele><time>2026-03-24T08:01:10.836Z</time></trkpt><trkpt lat="44.095875" lon="9.8022883"><ele>206.5</ele><time>2026-03-24T08:01:12.836Z</time></trkpt><trkpt lat="44.09586" lon="9.802175"><ele>209.0</ele><time>2026-03-24T08:01:15.835Z</time></trkpt><trkpt lat="44.09585" lon="9.8020733"><ele>211.49999999999997</ele><time>2026-03-24T08:01:18.836Z</time></trkpt><trkpt lat="44.0958367" lon="9.8019817"><ele>214.0</ele><time>2026-03-24T08:01:20.836Z</time></trkpt><trkpt lat="44.0958367" lon="9.8018767"><ele>213.85714285714286</ele><time>2026-03-24T08:01:22.836Z</time></trkpt><trkpt lat="44.0958233" lon="9.8017617"><ele>213.71428571428572</ele><time>2026-03-24T08:01:25.836Z</time></trkpt><trkpt lat="44.095805" lon="9.8016617"><ele>213.57142857142856</ele><time>2026-03-24T08:01:27.835Z</time></trkpt><trkpt lat="44.0957967" lon="9.8015717"><ele>213.42857142857144</ele><time>2026-03-24T08:01:29.836Z</time></trkpt><trkpt lat="44.0957883" lon="9.80148"><ele>213.28571428571428</ele><time>2026-03-24T08:01:31.836Z</time></trkpt><trkpt lat="44.095775" lon="9.8013867"><ele>213.14285714285714</ele><time>2026-03-24T08:01:33.836Z</time></trkpt><trkpt lat="44.095755" lon="9.8012683"><ele>213.0</ele><time>2026-03-24T08:01:36.836Z</time></trkpt><trkpt lat="44.095715" lon="9.80117"><ele>219.83333333333334</ele><time>2026-03-24T08:01:39.836Z</time></trkpt><trkpt lat="44.0956783" lon="9.80106"><ele>226.66666666666669</ele><time>2026-03-24T08:01:42.836Z</time></trkpt><trkpt lat="44.09564" lon="9.8009217"><ele>233.5</ele><time>2026-03-24T08:01:45.835Z</time></trkpt><trkpt lat="44.0956317" lon="9.80083"><ele>240.33333333333334</ele><time>2026-03-24T08:01:47.836Z</time></trkpt><trkpt lat="44.09562" lon="9.8007167"><ele>247.16666666666669</ele><time>2026-03-24T08:01:49.835Z</time></trkpt><trkpt lat="44.0956" lon="9.8006333"><ele>254.0</ele><time>2026-03-24T08:01:51.836Z</time></trkpt><trkpt lat="44.095575" lon="9.8005233"><ele>255.50000000000003</ele><time>2026-03-24T08:01:54.835Z</time></trkpt><trkpt lat="44.095555" lon="9.8004117"><ele>257.0</ele><time>2026-03-24T08:01:57.836Z</time></trkpt><trkpt lat="44.0955583" lon="9.8003017"><ele>258.5</ele><time>2026-03-24T08:02:00.836Z</time></trkpt><trkpt lat="44.0955517" lon="9.8001917"><ele>260.0</ele><time>2026-03-24T08:02:03.836Z</time></trkpt><trkpt lat="44.0955633" lon="9.8001"><ele>261.5</ele><time>2026-03-24T08:02:05.836Z</time></trkpt><trkpt lat="44.0955733" lon="9.8000133"><ele>263.0</ele><time>2026-03-24T08:02:07.836Z</time></trkpt><trkpt lat="44.0956117" lon="9.79988"><ele>263.33333333333337</ele><time>2026-03-24T08:02:10.836Z</time></trkpt><trkpt lat="44.09564" lon="9.799775"><ele>263.6666666666667</ele><time>2026-03-24T08:02:14.836Z</time></trkpt><trkpt lat="44.0956717" lon="9.79969"><ele>264.0</ele><time>2026-03-24T08:02:16.836Z</time></trkpt><trkpt lat="44.0957133" lon="9.799615"><ele>264.3333333333333</ele><time>2026-03-24T08:02:18.836Z</time></trkpt><trkpt lat="44.095785" lon="9.7995317"><ele>264.66666666666663</ele><time>2026-03-24T08:02:21.836Z</time></trkpt><trkpt lat="44.095845" lon="9.7994633"><ele>265.0</ele><time>2026-03-24T08:02:23.836Z</time></trkpt><trkpt lat="44.0959067" lon="9.7994033"><ele>259.4285714285714</ele><time>2026-03-24T08:02:25.836Z</time></trkpt><trkpt lat="44.0959633" lon="9.7993417"><ele>253.85714285714283</ele><time>2026-03-24T08:02:27.836Z</time></trkpt><trkpt lat="44.09602" lon="9.799285"><ele>248.28571428571428</ele><time>2026-03-24T08:02:29.836Z</time></trkpt><trkpt lat="44.0960833" lon="9.7992333"><ele>242.7142857142857</ele><time>2026-03-24T08:02:31.836Z</time></trkpt><trkpt lat="44.0961483" lon="9.7991833"><ele>237.1428571428571</ele><time>2026-03-24T08:02:33.836Z</time></trkpt><trkpt lat="44.0962133" lon="9.7991467"><ele>231.57142857142858</ele><time>2026-03-24T08:02:35.836Z</time></trkpt><trkpt lat="44.0962717" lon="9.7991083"><ele>226.0</ele><time>2026-03-24T08:02:37.836Z</time></trkpt><trkpt lat="44.0963467" lon="9.7990717"><ele>225.99999999999997</ele><time>2026-03-24T08:02:39.836Z</time></trkpt><trkpt lat="44.0964083" lon="9.7990533"><ele>226.0</ele><time>2026-03-24T08:02:41.836Z</time></trkpt><trkpt lat="44.0964783" lon="9.79901"><ele>226.0</ele><time>2026-03-24T08:02:43.836Z</time></trkpt><trkpt lat="44.0965533" lon="9.7989633"><ele>226.0</ele><time>2026-03-24T08:02:45.836Z</time></trkpt><trkpt lat="44.0966267" lon="9.79893"><ele>225.99999999999997</ele><time>2026-03-24T08:02:47.836Z</time></trkpt><trkpt lat="44.0967" lon="9.7988967"><ele>226.0</ele><time>2026-03-24T08:02:49.836Z</time></trkpt><trkpt lat="44.09678" lon="9.7988667"><ele>224.71428571428572</ele><time>2026-03-24T08:02:51.835Z</time></trkpt><trkpt lat="44.0968467" lon="9.79884"><ele>223.42857142857142</ele><time>2026-03-24T08:02:53.835Z</time></trkpt><trkpt lat="44.096915" lon="9.79882"><ele>222.14285714285714</ele><time>2026-03-24T08:02:55.836Z</time></trkpt><trkpt lat="44.0969833" lon="9.7988083"><ele>220.85714285714286</ele><time>2026-03-24T08:02:57.836Z</time></trkpt><trkpt lat="44.0970533" lon="9.7987983"><ele>219.57142857142856</ele><time>2026-03-24T08:02:59.836Z</time></trkpt><trkpt lat="44.097125" lon="9.79879"><ele>218.28571428571428</ele><time>2026-03-24T08:03:01.836Z</time></trkpt><trkpt lat="44.097195" lon="9.7987833"><ele>217.0</ele><time>2026-03-24T08:03:03.836Z</time></trkpt><trkpt lat="44.0972617" lon="9.7987767"><ele>216.99999999999997</ele><time>2026-03-24T08:03:05.835Z</time></trkpt><trkpt lat="44.0973283" lon="9.798775"><ele>217.0</ele><time>2026-03-24T08:03:07.836Z</time></trkpt><trkpt lat="44.0974183" lon="9.7987583"><ele>217.0</ele><time>2026-03-24T08:03:10.836Z</time></trkpt><trkpt lat="44.0975083" lon="9.7987383"><ele>217.0</ele><time>2026-03-24T08:03:13.836Z</time></trkpt><trkpt lat="44.09757" lon="9.7987167"><ele>216.99999999999997</ele><time>2026-03-24T08:03:15.836Z</time></trkpt><trkpt lat="44.0976533" lon="9.7986583"><ele>217.0</ele><time>2026-03-24T08:03:18.836Z</time></trkpt><trkpt lat="44.097725" lon="9.7986"><ele>215.66666666666666</ele><time>2026-03-24T08:03:21.836Z</time></trkpt><trkpt lat="44.0977917" lon="9.798535"><ele>214.33333333333331</ele><time>2026-03-24T08:03:24.836Z</time></trkpt><trkpt lat="44.09785" lon="9.7984633"><ele>213.0</ele><time>2026-03-24T08:03:27.836Z</time></trkpt><trkpt lat="44.0978967" lon="9.7983833"><ele>211.66666666666669</ele><time>2026-03-24T08:03:30.836Z</time></trkpt><trkpt lat="44.097945" lon="9.7983083"><ele>210.33333333333334</ele><time>2026-03-24T08:03:33.836Z</time></trkpt><trkpt lat="44.09798" lon="9.798205"><ele>209.0</ele><time>2026-03-24T08:03:37.836Z</time></trkpt><trkpt lat="44.09801" lon="9.798115"><ele>213.57142857142856</ele><time>2026-03-24T08:03:40.836Z</time></trkpt><trkpt lat="44.0980267" lon="9.79803"><ele>218.14285714285714</ele><time>2026-03-24T08:03:43.835Z</time></trkpt><trkpt lat="44.0980467" lon="9.79793"><ele>222.71428571428572</ele><time>2026-03-24T08:03:46.836Z</time></trkpt><trkpt lat="44.0980583" lon="9.79784"><ele>227.28571428571428</ele><time>2026-03-24T08:03:49.836Z</time></trkpt><trkpt lat="44.0980567" lon="9.7977483"><ele>231.8571428571429</ele><time>2026-03-24T08:03:51.836Z</time></trkpt><trkpt lat="44.0980383" lon="9.79764"><ele>236.42857142857144</ele><time>2026-03-24T08:03:55.836Z</time></trkpt><trkpt lat="44.0980117" lon="9.7975467"><ele>241.0</ele><time>2026-03-24T08:03:58.836Z</time></trkpt><trkpt lat="44.097995" lon="9.7974583"><ele>244.16666666666666</ele><time>2026-03-24T08:04:01.836Z</time></trkpt><trkpt lat="44.0979783" lon="9.7973517"><ele>247.33333333333331</ele><time>2026-03-24T08:04:04.836Z</time></trkpt><trkpt lat="44.0979633" lon="9.7972383"><ele>250.5</ele><time>2026-03-24T08:04:07.836Z</time></trkpt><trkpt lat="44.0979567" lon="9.7971433"><ele>253.66666666666669</ele><time>2026-03-24T08:04:09.836Z</time></trkpt><trkpt lat="44.0979433" lon="9.79705"><ele>256.83333333333337</ele><time>2026-03-24T08:04:11.836Z</time></trkpt><trkpt lat="44.0979267" lon="9.79693"><ele>260.0</ele><time>2026-03-24T08:04:14.836Z</time></trkpt><trkpt lat="44.097915" lon="9.7968267"><ele>260.33333333333337</ele><time>2026-03-24T08:04:17.836Z</time></trkpt><trkpt lat="44.09789" lon="9.79671"><ele>260.6666666666667</ele><time>2026-03-24T08:04:20.836Z</time></trkpt><trkpt lat="44.0978717" lon="9.7966217"><ele>261.0</ele><time>2026-03-24T08:04:22.836Z</time></trkpt><trkpt lat="44.09783" lon="9.796505"><ele>261.3333333333333</ele><time>2026-03-24T08:04:25.836Z</time></trkpt><trkpt lat="44.0977817" lon="9.7964017"><ele>261.66666666666663</ele><time>2026-03-24T08:04:28.836Z</time></trkpt><trkpt lat="44.097745" lon="9.7962967"><ele>262.0</ele><time>2026-03-24T08:04:31.836Z</time></trkpt><trkpt lat="44.09772" lon="9.7962133"><ele>262.0</ele><time>2026-03-24T08:04:33.836Z</time></trkpt><trkpt lat="44.0976883" lon="9.79612"><ele>262.0</ele><time>2026-03-24T08:04:35.836Z</time></trkpt><trkpt lat="44.0976533" lon="9.7960333"><ele>262.0</ele><time>2026-03-24T08:04:37.836Z</time></trkpt><trkpt lat="44.0976267" lon="9.7959517"><ele>262.0</ele><time>2026-03-24T08:04:39.836Z</time></trkpt><trkpt lat="44.0975917" lon="9.79584"><ele>262.0</ele><time>2026-03-24T08:04:41.836Z</time></trkpt><trkpt lat="44.097565" lon="9.7957333"><ele>262.0</ele><time>2026-03-24T08:04:44.835Z</time></trkpt><trkpt lat="44.0975417" lon="9.7955933"><ele>260.66666666666663</ele><time>2026-03-24T08:04:47.836Z</time></trkpt><trkpt lat="44.097525" lon="9.7954667"><ele>259.3333333333333</ele><time>2026-03-24T08:04:50.835Z</time></trkpt><trkpt lat="44.0975167" lon="9.7953783"><ele>258.0</ele><time>2026-03-24T08:04:52.835Z</time></trkpt><trkpt lat="44.0975033" lon="9.7952917"><ele>256.6666666666667</ele><time>2026-03-24T08:04:54.836Z</time></trkpt><trkpt lat="44.0974767" lon="9.7951783"><ele>255.33333333333334</ele><time>2026-03-24T08:04:57.836Z</time></trkpt><trkpt lat="44.0974433" lon="9.7950733"><ele>254.0</ele><time>2026-03-24T08:04:59.836Z</time></trkpt><trkpt lat="44.0974283" lon="9.7949817"><ele>260.14285714285717</ele><time>2026-03-24T08:05:02.836Z</time></trkpt><trkpt lat="44.097405" lon="9.7948917"><ele>266.2857142857143</ele><time>2026-03-24T08:05:05.836Z</time></trkpt><trkpt lat="44.0973733" lon="9.7947883"><ele>272.42857142857144</ele><time>2026-03-24T08:05:08.836Z</time></trkpt><trkpt lat="44.09734" lon="9.794675"><ele>278.57142857142856</ele><time>2026-03-24T08:05:10.836Z</time></trkpt><trkpt lat="44.0973183" lon="9.7945833"><ele>284.7142857142857</ele><time>2026-03-24T08:05:12.836Z</time></trkpt><trkpt lat="44.0972967" lon="9.7944983"><ele>290.8571428571429</ele><time>2026-03-24T08:05:14.836Z</time></trkpt><trkpt lat="44.0972817" lon="9.7943967"><ele>297.0</ele><time>2026-03-24T08:05:17.836Z</time></trkpt><trkpt lat="44.09727" lon="9.794275"><ele>297.1666666666667</ele><time>2026-03-24T08:05:20.835Z</time></trkpt><trkpt lat="44.09726" lon="9.794175"><ele>297.3333333333333</ele><time>2026-03-24T08:05:23.836Z</time></trkpt><trkpt lat="44.0972367" lon="9.7940767"><ele>297.5</ele><time>2026-03-24T08:05:25.835Z</time></trkpt><trkpt lat="44.09722" lon="9.793955"><ele>297.66666666666663</ele><time>2026-03-24T08:05:28.836Z</time></trkpt><trkpt lat="44.0972217" lon="9.7938633"><ele>297.8333333333333</ele><time>2026-03-24T08:05:30.836Z</time></trkpt><trkpt lat="44.09722" lon="9.7937317"><ele>298.0</ele><time>2026-03-24T08:05:33.836Z</time></trkpt><trkpt lat="44.0972133" lon="9.7936417"><ele>298.0</ele><time>2026-03-24T08:05:35.836Z</time></trkpt><trkpt lat="44.0971917" lon="9.79352"><ele>298.0</ele><time>2026-03-24T08:05:38.836Z</time></trkpt><trkpt lat="44.0971617" lon="9.7934117"><ele>298.0</ele><time>2026-03-24T08:05:41.836Z</time></trkpt><trkpt lat="44.0971433" lon="9.7933267"><ele>298.0</ele><time>2026-03-24T08:05:44.835Z</time></trkpt><trkpt lat="44.0971333" lon="9.793215"><ele>298.0</ele><time>2026-03-24T08:05:49.836Z</time></trkpt><trkpt lat="44.0971533" lon="9.7930933"><ele>298.0</ele><time>2026-03-24T08:05:53.836Z</time></trkpt><trkpt lat="44.0971467" lon="9.79298"><ele>297.66666666666663</ele><time>2026-03-24T08:05:56.836Z</time></trkpt><trkpt lat="44.097155" lon="9.7928917"><ele>297.3333333333333</ele><time>2026-03-24T08:05:58.835Z</time></trkpt><trkpt lat="44.0971617" lon="9.79277"><ele>297.0</ele><time>2026-03-24T08:06:00.836Z</time></trkpt><trkpt lat="44.0971533" lon="9.792665"><ele>296.6666666666667</ele><time>2026-03-24T08:06:02.836Z</time></trkpt><trkpt lat="44.097175" lon="9.7925517"><ele>296.33333333333337</ele><time>2026-03-24T08:06:04.835Z</time></trkpt><trkpt lat="44.0971867" lon="9.7924533"><ele>296.0</ele><time>2026-03-24T08:06:06.836Z</time></trkpt><trkpt lat="44.0972067" lon="9.79233"><ele>295.6666666666667</ele><time>2026-03-24T08:06:09.836Z</time></trkpt><trkpt lat="44.0972133" lon="9.7922367"><ele>295.33333333333337</ele><time>2026-03-24T08:06:11.835Z</time></trkpt><trkpt lat="44.0972333" lon="9.7921167"><ele>295.0</ele><time>2026-03-24T08:06:14.836Z</time></trkpt><trkpt lat="44.0972367" lon="9.7920033"><ele>294.6666666666667</ele><time>2026-03-24T08:06:18.836Z</time></trkpt><trkpt lat="44.0972467" lon="9.7918983"><ele>294.3333333333333</ele><time>2026-03-24T08:06:21.836Z</time></trkpt><trkpt lat="44.097245" lon="9.79179"><ele>294.0</ele><time>2026-03-24T08:06:23.836Z</time></trkpt><trkpt lat="44.0972583" lon="9.7916683"><ele>294.8333333333333</ele><time>2026-03-24T08:06:26.836Z</time></trkpt><trkpt lat="44.09727" lon="9.7915433"><ele>295.6666666666667</ele><time>2026-03-24T08:06:29.836Z</time></trkpt><trkpt lat="44.0972667" lon="9.7914417"><ele>296.5</ele><time>2026-03-24T08:06:32.836Z</time></trkpt><trkpt lat="44.0972683" lon="9.79135"><ele>297.33333333333337</ele><time>2026-03-24T08:06:34.836Z</time></trkpt><trkpt lat="44.0972617" lon="9.791235"><ele>298.1666666666667</ele><time>2026-03-24T08:06:37.835Z</time></trkpt><trkpt lat="44.0972733" lon="9.79112"><ele>299.0</ele><time>2026-03-24T08:06:39.836Z</time></trkpt><trkpt lat="44.0972917" lon="9.791005"><ele>300.6666666666667</ele><time>2026-03-24T08:06:41.835Z</time></trkpt><trkpt lat="44.0972967" lon="9.79091"><ele>302.33333333333337</ele><time>2026-03-24T08:06:43.836Z</time></trkpt><trkpt lat="44.0973017" lon="9.790795"><ele>304.0</ele><time>2026-03-24T08:06:45.836Z</time></trkpt><trkpt lat="44.0973133" lon="9.7906867"><ele>305.6666666666667</ele><time>2026-03-24T08:06:47.836Z</time></trkpt><trkpt lat="44.0973233" lon="9.7905883"><ele>307.3333333333333</ele><time>2026-03-24T08:06:49.836Z</time></trkpt><trkpt lat="44.09732" lon="9.7904817"><ele>309.0</ele><time>2026-03-24T08:06:51.836Z</time></trkpt><trkpt lat="44.097315" lon="9.7903567"><ele>309.00000000000006</ele><time>2026-03-24T08:06:53.836Z</time></trkpt><trkpt lat="44.09732" lon="9.790235"><ele>309.0</ele><time>2026-03-24T08:06:55.836Z</time></trkpt><trkpt lat="44.097315" lon="9.7901417"><ele>309.0</ele><time>2026-03-24T08:06:57.836Z</time></trkpt><trkpt lat="44.097305" lon="9.7900533"><ele>309.0</ele><time>2026-03-24T08:06:59.836Z</time></trkpt><trkpt lat="44.097295" lon="9.789965"><ele>309.0</ele><time>2026-03-24T08:07:01.836Z</time></trkpt><trkpt lat="44.0972917" lon="9.789875"><ele>309.00000000000006</ele><time>2026-03-24T08:07:03.836Z</time></trkpt><trkpt lat="44.09728" lon="9.78976"><ele>309.0</ele><time>2026-03-24T08:07:05.836Z</time></trkpt><trkpt lat="44.09727" lon="9.7896583"><ele>309.5714285714286</ele><time>2026-03-24T08:07:07.835Z</time></trkpt><trkpt lat="44.0972733" lon="9.7895567"><ele>310.14285714285717</ele><time>2026-03-24T08:07:09.834Z</time></trkpt><trkpt lat="44.0972717" lon="9.789465"><ele>310.7142857142857</ele><time>2026-03-24T08:07:11.835Z</time></trkpt><trkpt lat="44.097255" lon="9.78938"><ele>311.28571428571433</ele><time>2026-03-24T08:07:13.835Z</time></trkpt><trkpt lat="44.0972517" lon="9.78929"><ele>311.8571428571429</ele><time>2026-03-24T08:07:15.835Z</time></trkpt><trkpt lat="44.0972483" lon="9.7891833"><ele>312.42857142857144</ele><time>2026-03-24T08:07:17.834Z</time></trkpt><trkpt lat="44.0972433" lon="9.789075"><ele>313.0</ele><time>2026-03-24T08:07:19.835Z</time></trkpt><trkpt lat="44.0972317" lon="9.7889717"><ele>311.5</ele><time>2026-03-24T08:07:21.835Z</time></trkpt><trkpt lat="44.0972133" lon="9.788885"><ele>310.0</ele><time>2026-03-24T08:07:23.835Z</time></trkpt><trkpt lat="44.09717" lon="9.7887783"><ele>308.5</ele><time>2026-03-24T08:07:26.835Z</time></trkpt><trkpt lat="44.0971267" lon="9.78868"><ele>307.0</ele><time>2026-03-24T08:07:29.835Z</time></trkpt><trkpt lat="44.09708" lon="9.78858"><ele>305.5</ele><time>2026-03-24T08:07:32.835Z</time></trkpt><trkpt lat="44.0970233" lon="9.78849"><ele>304.0</ele><time>2026-03-24T08:07:35.835Z</time></trkpt><trkpt lat="44.0969783" lon="9.7884033"><ele>300.16666666666663</ele><time>2026-03-24T08:07:38.835Z</time></trkpt><trkpt lat="44.0969317" lon="9.7883317"><ele>296.3333333333333</ele><time>2026-03-24T08:07:41.834Z</time></trkpt><trkpt lat="44.0968733" lon="9.7882667"><ele>292.5</ele><time>2026-03-24T08:07:44.835Z</time></trkpt><trkpt lat="44.0968" lon="9.7881883"><ele>288.6666666666667</ele><time>2026-03-24T08:07:47.835Z</time></trkpt><trkpt lat="44.0967183" lon="9.78813"><ele>284.83333333333337</ele><time>2026-03-24T08:07:50.835Z</time></trkpt><trkpt lat="44.0966617" lon="9.78808"><ele>281.0</ele><time>2026-03-24T08:07:52.835Z</time></trkpt><trkpt lat="44.0966017" lon="9.788035"><ele>288.33333333333337</ele><time>2026-03-24T08:07:54.835Z</time></trkpt><trkpt lat="44.0965233" lon="9.787975"><ele>295.6666666666667</ele><time>2026-03-24T08:07:57.835Z</time></trkpt><trkpt lat="44.0964483" lon="9.7879133"><ele>303.0</ele><time>2026-03-24T08:08:00.834Z</time></trkpt><trkpt lat="44.0963683" lon="9.7878567"><ele>310.3333333333333</ele><time>2026-03-24T08:08:03.835Z</time></trkpt><trkpt lat="44.096295" lon="9.7878083"><ele>317.66666666666663</ele><time>2026-03-24T08:08:06.834Z</time></trkpt><trkpt lat="44.0962317" lon="9.7877633"><ele>325.0</ele><time>2026-03-24T08:08:09.834Z</time></trkpt><trkpt lat="44.0961517" lon="9.7877133"><ele>323.0</ele><time>2026-03-24T08:08:12.835Z</time></trkpt><trkpt lat="44.09607" lon="9.7876633"><ele>321.0</ele><time>2026-03-24T08:08:15.835Z</time></trkpt><trkpt lat="44.09599" lon="9.7876283"><ele>319.0</ele><time>2026-03-24T08:08:18.834Z</time></trkpt><trkpt lat="44.09591" lon="9.7875817"><ele>317.0</ele><time>2026-03-24T08:08:21.835Z</time></trkpt><trkpt lat="44.09584" lon="9.7875517"><ele>315.0</ele><time>2026-03-24T08:08:23.835Z</time></trkpt><trkpt lat="44.09578" lon="9.787515"><ele>313.0</ele><time>2026-03-24T08:08:25.835Z</time></trkpt><trkpt lat="44.0957183" lon="9.787485"><ele>313.0</ele><time>2026-03-24T08:08:27.834Z</time></trkpt><trkpt lat="44.0956383" lon="9.7874583"><ele>313.0</ele><time>2026-03-24T08:08:30.835Z</time></trkpt><trkpt lat="44.0955617" lon="9.7874117"><ele>313.0</ele><time>2026-03-24T08:08:33.835Z</time></trkpt><trkpt lat="44.0954883" lon="9.78739"><ele>313.0</ele><time>2026-03-24T08:08:36.834Z</time></trkpt><trkpt lat="44.0954133" lon="9.7873567"><ele>313.0</ele><time>2026-03-24T08:08:39.835Z</time></trkpt><trkpt lat="44.0953267" lon="9.7873167"><ele>313.0</ele><time>2026-03-24T08:08:42.835Z</time></trkpt><trkpt lat="44.0952467" lon="9.78728"><ele>313.0</ele><time>2026-03-24T08:08:45.835Z</time></trkpt><trkpt lat="44.0951667" lon="9.7872667"><ele>313.0</ele><time>2026-03-24T08:08:48.835Z</time></trkpt><trkpt lat="44.095075" lon="9.787245"><ele>313.0</ele><time>2026-03-24T08:08:51.834Z</time></trkpt><trkpt lat="44.0949883" lon="9.7872183"><ele>313.0</ele><time>2026-03-24T08:08:54.835Z</time></trkpt><trkpt lat="44.094905" lon="9.787195"><ele>313.0</ele><time>2026-03-24T08:08:57.835Z</time></trkpt><trkpt lat="44.0948233" lon="9.7871667"><ele>313.0</ele><time>2026-03-24T08:09:00.835Z</time></trkpt><trkpt lat="44.0947533" lon="9.78712"><ele>315.2857142857143</ele><time>2026-03-24T08:09:03.835Z</time></trkpt><trkpt lat="44.0946883" lon="9.7870867"><ele>317.57142857142856</ele><time>2026-03-24T08:09:05.835Z</time></trkpt><trkpt lat="44.0946267" lon="9.7870533"><ele>319.8571428571429</ele><time>2026-03-24T08:09:07.834Z</time></trkpt><trkpt lat="44.0945667" lon="9.78702"><ele>322.1428571428571</ele><time>2026-03-24T08:09:09.835Z</time></trkpt><trkpt lat="44.0944717" lon="9.7869783"><ele>324.42857142857144</ele><time>2026-03-24T08:09:12.834Z</time></trkpt><trkpt lat="44.0944083" lon="9.7869433"><ele>326.7142857142857</ele><time>2026-03-24T08:09:14.835Z</time></trkpt><trkpt lat="44.0943467" lon="9.7869033"><ele>329.0</ele><time>2026-03-24T08:09:16.835Z</time></trkpt><trkpt lat="44.0942867" lon="9.7868483"><ele>328.85714285714283</ele><time>2026-03-24T08:09:18.835Z</time></trkpt><trkpt lat="44.09423" lon="9.7867833"><ele>328.7142857142857</ele><time>2026-03-24T08:09:20.835Z</time></trkpt><trkpt lat="44.09418" lon="9.7867167"><ele>328.57142857142856</ele><time>2026-03-24T08:09:22.835Z</time></trkpt><trkpt lat="44.0941267" lon="9.7866367"><ele>328.42857142857144</ele><time>2026-03-24T08:09:25.835Z</time></trkpt><trkpt lat="44.0940767" lon="9.7865817"><ele>328.2857142857143</ele><time>2026-03-24T08:09:27.834Z</time></trkpt><trkpt lat="44.0940167" lon="9.786505"><ele>328.1428571428571</ele><time>2026-03-24T08:09:29.835Z</time></trkpt><trkpt lat="44.0939633" lon="9.7864417"><ele>328.0</ele><time>2026-03-24T08:09:31.834Z</time></trkpt><trkpt lat="44.0938933" lon="9.7863383"><ele>327.99999999999994</ele><time>2026-03-24T08:09:34.835Z</time></trkpt><trkpt lat="44.0938433" lon="9.78628"><ele>328.0</ele><time>2026-03-24T08:09:36.835Z</time></trkpt><trkpt lat="44.09379" lon="9.78622"><ele>328.0</ele><time>2026-03-24T08:09:38.834Z</time></trkpt><trkpt lat="44.09373" lon="9.7861283"><ele>328.0</ele><time>2026-03-24T08:09:41.835Z</time></trkpt><trkpt lat="44.0936717" lon="9.786065"><ele>328.0</ele><time>2026-03-24T08:09:44.835Z</time></trkpt><trkpt lat="44.0936167" lon="9.7860117"><ele>327.99999999999994</ele><time>2026-03-24T08:09:46.835Z</time></trkpt><trkpt lat="44.09356" lon="9.78597"><ele>328.0</ele><time>2026-03-24T08:09:48.835Z</time></trkpt><trkpt lat="44.0935017" lon="9.78593"><ele>328.0</ele><time>2026-03-24T08:09:50.835Z</time></trkpt><trkpt lat="44.093405" lon="9.78588"><ele>328.0</ele><time>2026-03-24T08:09:53.835Z</time></trkpt><trkpt lat="44.09334" lon="9.785835"><ele>328.0</ele><time>2026-03-24T08:09:55.835Z</time></trkpt><trkpt lat="44.0932683" lon="9.785785"><ele>328.0</ele><time>2026-03-24T08:09:57.835Z</time></trkpt><trkpt lat="44.0932067" lon="9.78575"><ele>328.0</ele><time>2026-03-24T08:09:59.835Z</time></trkpt><trkpt lat="44.0931183" lon="9.7857133"><ele>328.0</ele><time>2026-03-24T08:10:02.835Z</time></trkpt><trkpt lat="44.0930267" lon="9.78568"><ele>328.0</ele><time>2026-03-24T08:10:05.835Z</time></trkpt><trkpt lat="44.0929367" lon="9.7856667"><ele>328.0</ele><time>2026-03-24T08:10:08.835Z</time></trkpt><trkpt lat="44.09287" lon="9.7856533"><ele>328.0</ele><time>2026-03-24T08:10:10.835Z</time></trkpt><trkpt lat="44.0928" lon="9.785645"><ele>328.0</ele><time>2026-03-24T08:10:12.835Z</time></trkpt><trkpt lat="44.0927117" lon="9.785625"><ele>328.0</ele><time>2026-03-24T08:10:15.835Z</time></trkpt><trkpt lat="44.0926367" lon="9.785625"><ele>328.0</ele><time>2026-03-24T08:10:19.834Z</time></trkpt><trkpt lat="44.0925667" lon="9.7856033"><ele>328.0</ele><time>2026-03-24T08:10:22.835Z</time></trkpt><trkpt lat="44.0924917" lon="9.7855833"><ele>328.0</ele><time>2026-03-24T08:10:25.835Z</time></trkpt><trkpt lat="44.092395" lon="9.785575"><ele>328.0</ele><time>2026-03-24T08:10:28.835Z</time></trkpt><trkpt lat="44.0923283" lon="9.7855683"><ele>328.0</ele><time>2026-03-24T08:10:30.834Z</time></trkpt><trkpt lat="44.092235" lon="9.7855667"><ele>328.0</ele><time>2026-03-24T08:10:32.835Z</time></trkpt><trkpt lat="44.092165" lon="9.785565"><ele>328.0</ele><time>2026-03-24T08:10:34.835Z</time></trkpt><trkpt lat="44.09209" lon="9.78556"><ele>326.8333333333333</ele><time>2026-03-24T08:10:36.835Z</time></trkpt><trkpt lat="44.0920017" lon="9.78557"><ele>325.66666666666663</ele><time>2026-03-24T08:10:39.834Z</time></trkpt><trkpt lat="44.0919217" lon="9.7855717"><ele>324.5</ele><time>2026-03-24T08:10:42.835Z</time></trkpt><trkpt lat="44.0918517" lon="9.78558"><ele>323.3333333333333</ele><time>2026-03-24T08:10:44.835Z</time></trkpt><trkpt lat="44.0917733" lon="9.7855883"><ele>322.1666666666667</ele><time>2026-03-24T08:10:46.834Z</time></trkpt><trkpt lat="44.091675" lon="9.78558"><ele>321.0</ele><time>2026-03-24T08:10:48.835Z</time></trkpt><trkpt lat="44.091585" lon="9.7855717"><ele>319.85714285714283</ele><time>2026-03-24T08:10:50.835Z</time></trkpt><trkpt lat="44.09151" lon="9.7855767"><ele>318.7142857142857</ele><time>2026-03-24T08:10:52.835Z</time></trkpt><trkpt lat="44.091425" lon="9.7855767"><ele>317.57142857142856</ele><time>2026-03-24T08:10:55.835Z</time></trkpt><trkpt lat="44.0913667" lon="9.78554"><ele>316.42857142857144</ele><time>2026-03-24T08:10:58.835Z</time></trkpt><trkpt lat="44.0913017" lon="9.785495"><ele>315.2857142857143</ele><time>2026-03-24T08:11:01.835Z</time></trkpt><trkpt lat="44.0912417" lon="9.785425"><ele>314.1428571428571</ele><time>2026-03-24T08:11:04.835Z</time></trkpt><trkpt lat="44.0911917" lon="9.7853683"><ele>313.0</ele><time>2026-03-24T08:11:06.835Z</time></trkpt><trkpt lat="44.091135" lon="9.7852883"><ele>310.0</ele><time>2026-03-24T08:11:08.835Z</time></trkpt><trkpt lat="44.0910717" lon="9.7851717"><ele>307.0</ele><time>2026-03-24T08:11:10.835Z</time></trkpt><trkpt lat="44.091005" lon="9.7850383"><ele>304.0</ele><time>2026-03-24T08:11:12.835Z</time></trkpt><trkpt lat="44.0909517" lon="9.7849017"><ele>301.0</ele><time>2026-03-24T08:11:14.835Z</time></trkpt><trkpt lat="44.09091" lon="9.78477"><ele>298.0</ele><time>2026-03-24T08:11:16.835Z</time></trkpt><trkpt lat="44.09085" lon="9.7846567"><ele>298.0</ele><time>2026-03-24T08:11:17.834Z</time></trkpt><trkpt lat="44.0907833" lon="9.784505"><ele>298.0</ele><time>2026-03-24T08:11:19.835Z</time></trkpt><trkpt lat="44.090755" lon="9.7844183"><ele>298.0</ele><time>2026-03-24T08:11:21.835Z</time></trkpt><trkpt lat="44.0907367" lon="9.7843333"><ele>298.0</ele><time>2026-03-24T08:11:23.835Z</time></trkpt><trkpt lat="44.0907267" lon="9.784235"><ele>298.0</ele><time>2026-03-24T08:11:26.835Z</time></trkpt><trkpt lat="44.09072" lon="9.7841383"><ele>298.0</ele><time>2026-03-24T08:11:29.835Z</time></trkpt><trkpt lat="44.090745" lon="9.7840467"><ele>299.0</ele><time>2026-03-24T08:11:32.834Z</time></trkpt><trkpt lat="44.0907667" lon="9.7839483"><ele>300.0</ele><time>2026-03-24T08:11:34.835Z</time></trkpt><trkpt lat="44.090805" lon="9.7837883"><ele>301.0</ele><time>2026-03-24T08:11:37.835Z</time></trkpt><trkpt lat="44.0908417" lon="9.78368"><ele>302.0</ele><time>2026-03-24T08:11:39.835Z</time></trkpt><trkpt lat="44.0908817" lon="9.78354"><ele>303.0</ele><time>2026-03-24T08:11:41.834Z</time></trkpt><trkpt lat="44.090925" lon="9.7834267"><ele>303.5</ele><time>2026-03-24T08:11:43.835Z</time></trkpt><trkpt lat="44.0909833" lon="9.7832983"><ele>304.0</ele><time>2026-03-24T08:11:45.834Z</time></trkpt><trkpt lat="44.09105" lon="9.78322"><ele>304.5</ele><time>2026-03-24T08:11:47.835Z</time></trkpt><trkpt lat="44.0911317" lon="9.7831533"><ele>305.0</ele><time>2026-03-24T08:11:50.835Z</time></trkpt><trkpt lat="44.091195" lon="9.7831133"><ele>305.5</ele><time>2026-03-24T08:11:52.835Z</time></trkpt><trkpt lat="44.0912667" lon="9.7830917"><ele>306.0</ele><time>2026-03-24T08:11:54.835Z</time></trkpt><trkpt lat="44.09134" lon="9.78306"><ele>306.0</ele><time>2026-03-24T08:11:56.835Z</time></trkpt><trkpt lat="44.091425" lon="9.7830033"><ele>306.0</ele><time>2026-03-24T08:11:58.835Z</time></trkpt><trkpt lat="44.0914933" lon="9.78297"><ele>306.0</ele><time>2026-03-24T08:12:00.835Z</time></trkpt><trkpt lat="44.0915633" lon="9.78293"><ele>306.0</ele><time>2026-03-24T08:12:02.834Z</time></trkpt><trkpt lat="44.0916283" lon="9.7829"><ele>306.0</ele><time>2026-03-24T08:12:04.835Z</time></trkpt><trkpt lat="44.0916933" lon="9.7828817"><ele>306.0</ele><time>2026-03-24T08:12:06.834Z</time></trkpt><trkpt lat="44.091785" lon="9.7828267"><ele>307.1428571428571</ele><time>2026-03-24T08:12:08.835Z</time></trkpt><trkpt lat="44.09185" lon="9.7827767"><ele>308.2857142857143</ele><time>2026-03-24T08:12:09.834Z</time></trkpt><trkpt lat="44.0919333" lon="9.7827333"><ele>309.42857142857144</ele><time>2026-03-24T08:12:11.835Z</time></trkpt><trkpt lat="44.092" lon="9.7827067"><ele>310.57142857142856</ele><time>2026-03-24T08:12:13.835Z</time></trkpt><trkpt lat="44.0920617" lon="9.7826783"><ele>311.7142857142857</ele><time>2026-03-24T08:12:15.835Z</time></trkpt><trkpt lat="44.09213" lon="9.7826383"><ele>312.85714285714283</ele><time>2026-03-24T08:12:17.835Z</time></trkpt><trkpt lat="44.0921917" lon="9.7826067"><ele>314.0</ele><time>2026-03-24T08:12:19.835Z</time></trkpt><trkpt lat="44.0922433" lon="9.78255"><ele>314.0</ele><time>2026-03-24T08:12:21.835Z</time></trkpt><trkpt lat="44.0923067" lon="9.782475"><ele>314.0</ele><time>2026-03-24T08:12:24.835Z</time></trkpt><trkpt lat="44.0923567" lon="9.78238"><ele>314.0</ele><time>2026-03-24T08:12:27.834Z</time></trkpt><trkpt lat="44.092395" lon="9.782265"><ele>314.0</ele><time>2026-03-24T08:12:30.835Z</time></trkpt><trkpt lat="44.0924383" lon="9.7821783"><ele>314.0</ele><time>2026-03-24T08:12:33.835Z</time></trkpt><trkpt lat="44.0924817" lon="9.7821"><ele>314.0</ele><time>2026-03-24T08:12:36.834Z</time></trkpt><trkpt lat="44.092525" lon="9.7820067"><ele>314.33333333333337</ele><time>2026-03-24T08:12:39.835Z</time></trkpt><trkpt lat="44.0925517" lon="9.7819067"><ele>314.6666666666667</ele><time>2026-03-24T08:12:42.835Z</time></trkpt><trkpt lat="44.0925633" lon="9.781795"><ele>315.0</ele><time>2026-03-24T08:12:45.834Z</time></trkpt><trkpt lat="44.0925583" lon="9.7816983"><ele>315.3333333333333</ele><time>2026-03-24T08:12:48.835Z</time></trkpt><trkpt lat="44.0925233" lon="9.7816067"><ele>315.66666666666663</ele><time>2026-03-24T08:12:52.834Z</time></trkpt><trkpt lat="44.09249" lon="9.78152"><ele>316.0</ele><time>2026-03-24T08:12:54.835Z</time></trkpt><trkpt lat="44.0924483" lon="9.7814033"><ele>316.0</ele><time>2026-03-24T08:12:57.835Z</time></trkpt><trkpt lat="44.0924117" lon="9.7813217"><ele>316.0</ele><time>2026-03-24T08:13:00.835Z</time></trkpt><trkpt lat="44.09238" lon="9.78121"><ele>316.0</ele><time>2026-03-24T08:13:03.835Z</time></trkpt><trkpt lat="44.092365" lon="9.7811117"><ele>316.0</ele><time>2026-03-24T08:13:06.835Z</time></trkpt><trkpt lat="44.09237" lon="9.7809833"><ele>316.0</ele><time>2026-03-24T08:13:09.835Z</time></trkpt><trkpt lat="44.0923917" lon="9.7808833"><ele>316.0</ele><time>2026-03-24T08:13:11.835Z</time></trkpt><trkpt lat="44.0924367" lon="9.780815"><ele>316.0</ele><time>2026-03-24T08:13:13.835Z</time></trkpt><trkpt lat="44.092495" lon="9.7807483"><ele>316.0</ele><time>2026-03-24T08:13:15.834Z</time></trkpt><trkpt lat="44.09257" lon="9.7807083"><ele>316.0</ele><time>2026-03-24T08:13:18.835Z</time></trkpt><trkpt lat="44.0926467" lon="9.780685"><ele>316.0</ele><time>2026-03-24T08:13:21.835Z</time></trkpt><trkpt lat="44.0927167" lon="9.7806733"><ele>316.0</ele><time>2026-03-24T08:13:24.835Z</time></trkpt><trkpt lat="44.0927933" lon="9.7806517"><ele>316.0</ele><time>2026-03-24T08:13:27.835Z</time></trkpt><trkpt lat="44.0928733" lon="9.7806567"><ele>316.0</ele><time>2026-03-24T08:13:30.835Z</time></trkpt><trkpt lat="44.092965" lon="9.780655"><ele>316.0</ele><time>2026-03-24T08:13:33.834Z</time></trkpt><trkpt lat="44.09303" lon="9.7806383"><ele>316.0</ele><time>2026-03-24T08:13:35.835Z</time></trkpt><trkpt lat="44.0931083" lon="9.7806233"><ele>316.0</ele><time>2026-03-24T08:13:37.835Z</time></trkpt><trkpt lat="44.0931717" lon="9.7806217"><ele>316.0</ele><time>2026-03-24T08:13:39.835Z</time></trkpt><trkpt lat="44.093255" lon="9.7806067"><ele>316.0</ele><time>2026-03-24T08:13:42.835Z</time></trkpt><trkpt lat="44.09332" lon="9.7805633"><ele>315.42857142857144</ele><time>2026-03-24T08:13:45.835Z</time></trkpt><trkpt lat="44.0933783" lon="9.7804967"><ele>314.8571428571429</ele><time>2026-03-24T08:13:49.834Z</time></trkpt><trkpt lat="44.0934167" lon="9.7804217"><ele>314.28571428571433</ele><time>2026-03-24T08:13:52.835Z</time></trkpt><trkpt lat="44.0934533" lon="9.7803467"><ele>313.7142857142857</ele><time>2026-03-24T08:13:55.835Z</time></trkpt><trkpt lat="44.09349" lon="9.7802517"><ele>313.1428571428571</ele><time>2026-03-24T08:13:58.835Z</time></trkpt><trkpt lat="44.0935217" lon="9.7801483"><ele>312.5714285714286</ele><time>2026-03-24T08:14:01.834Z</time></trkpt><trkpt lat="44.0935467" lon="9.7800433"><ele>312.0</ele><time>2026-03-24T08:14:05.834Z</time></trkpt><trkpt lat="44.093555" lon="9.7799417"><ele>314.42857142857144</ele><time>2026-03-24T08:14:08.834Z</time></trkpt><trkpt lat="44.0935517" lon="9.77985"><ele>316.85714285714283</ele><time>2026-03-24T08:14:11.833Z</time></trkpt><trkpt lat="44.0935117" lon="9.779775"><ele>319.2857142857143</ele><time>2026-03-24T08:14:15.834Z</time></trkpt><trkpt lat="44.0934533" lon="9.779715"><ele>321.7142857142857</ele><time>2026-03-24T08:14:18.834Z</time></trkpt><trkpt lat="44.0933933" lon="9.7796417"><ele>324.1428571428571</ele><time>2026-03-24T08:14:22.833Z</time></trkpt><trkpt lat="44.0933367" lon="9.779595"><ele>326.57142857142856</ele><time>2026-03-24T08:14:25.833Z</time></trkpt><trkpt lat="44.0932767" lon="9.7795483"><ele>329.0</ele><time>2026-03-24T08:14:28.834Z</time></trkpt><trkpt lat="44.0932133" lon="9.77951"><ele>329.0</ele><time>2026-03-24T08:14:31.834Z</time></trkpt><trkpt lat="44.09316" lon="9.7794567"><ele>329.0</ele><time>2026-03-24T08:14:34.833Z</time></trkpt><trkpt lat="44.093095" lon="9.77939"><ele>329.0</ele><time>2026-03-24T08:14:37.834Z</time></trkpt><trkpt lat="44.09304" lon="9.779285"><ele>329.0</ele><time>2026-03-24T08:14:40.834Z</time></trkpt><trkpt lat="44.0930183" lon="9.77917"><ele>329.0</ele><time>2026-03-24T08:14:43.834Z</time></trkpt><trkpt lat="44.093025" lon="9.7790467"><ele>329.0</ele><time>2026-03-24T08:14:46.834Z</time></trkpt><trkpt lat="44.093035" lon="9.7789267"><ele>328.33333333333337</ele><time>2026-03-24T08:14:49.834Z</time></trkpt><trkpt lat="44.093045" lon="9.7788117"><ele>327.6666666666667</ele><time>2026-03-24T08:14:52.834Z</time></trkpt><trkpt lat="44.09307" lon="9.77869"><ele>327.0</ele><time>2026-03-24T08:14:55.834Z</time></trkpt><trkpt lat="44.0931083" lon="9.7785717"><ele>326.3333333333333</ele><time>2026-03-24T08:14:58.834Z</time></trkpt><trkpt lat="44.09316" lon="9.7784817"><ele>325.66666666666663</ele><time>2026-03-24T08:15:01.834Z</time></trkpt><trkpt lat="44.0932183" lon="9.7784033"><ele>325.0</ele><time>2026-03-24T08:15:03.834Z</time></trkpt><trkpt lat="44.093275" lon="9.7782833"><ele>325.0</ele><time>2026-03-24T08:15:05.834Z</time></trkpt><trkpt lat="44.09334" lon="9.7781583"><ele>325.0</ele><time>2026-03-24T08:15:07.834Z</time></trkpt><trkpt lat="44.0934067" lon="9.77803"><ele>325.0</ele><time>2026-03-24T08:15:09.834Z</time></trkpt><trkpt lat="44.0934867" lon="9.7779133"><ele>325.0</ele><time>2026-03-24T08:15:11.834Z</time></trkpt><trkpt lat="44.0935933" lon="9.7778033"><ele>325.0</ele><time>2026-03-24T08:15:13.834Z</time></trkpt><trkpt lat="44.0936467" lon="9.777755"><ele>325.0</ele><time>2026-03-24T08:15:14.834Z</time></trkpt><trkpt lat="44.0937" lon="9.7777083"><ele>325.0</ele><time>2026-03-24T08:15:15.834Z</time></trkpt><trkpt lat="44.0938167" lon="9.7775983"><ele>325.0</ele><time>2026-03-24T08:15:17.834Z</time></trkpt><trkpt lat="44.0939067" lon="9.7775017"><ele>325.0</ele><time>2026-03-24T08:15:19.833Z</time></trkpt><trkpt lat="44.0939917" lon="9.7774217"><ele>322.8</ele><time>2026-03-24T08:15:21.834Z</time></trkpt><trkpt lat="44.0940933" lon="9.7773767"><ele>320.6</ele><time>2026-03-24T08:15:23.834Z</time></trkpt><trkpt lat="44.0942117" lon="9.7773567"><ele>318.4</ele><time>2026-03-24T08:15:25.833Z</time></trkpt><trkpt lat="44.094275" lon="9.7773683"><ele>316.2</ele><time>2026-03-24T08:15:26.834Z</time></trkpt><trkpt lat="44.09439" lon="9.7774233"><ele>314.0</ele><time>2026-03-24T08:15:28.834Z</time></trkpt><trkpt lat="44.0944467" lon="9.7774833"><ele>314.0</ele><time>2026-03-24T08:15:29.834Z</time></trkpt><trkpt lat="44.0945" lon="9.77756"><ele>314.0</ele><time>2026-03-24T08:15:30.834Z</time></trkpt><trkpt lat="44.094545" lon="9.77764"><ele>314.0</ele><time>2026-03-24T08:15:31.833Z</time></trkpt><trkpt lat="44.09459" lon="9.777715"><ele>314.0</ele><time>2026-03-24T08:15:32.834Z</time></trkpt><trkpt lat="44.0946383" lon="9.77779"><ele>314.0</ele><time>2026-03-24T08:15:33.834Z</time></trkpt><trkpt lat="44.0946833" lon="9.7778583"><ele>314.0</ele><time>2026-03-24T08:15:34.834Z</time></trkpt><trkpt lat="44.0947817" lon="9.7779683"><ele>311.8</ele><time>2026-03-24T08:15:36.834Z</time></trkpt><trkpt lat="44.0948933" lon="9.778045"><ele>309.59999999999997</ele><time>2026-03-24T08:15:38.834Z</time></trkpt><trkpt lat="44.0950083" lon="9.7780617"><ele>307.4</ele><time>2026-03-24T08:15:40.834Z</time></trkpt><trkpt lat="44.0951117" lon="9.7780433"><ele>305.2</ele><time>2026-03-24T08:15:42.834Z</time></trkpt><trkpt lat="44.0951967" lon="9.7779883"><ele>303.0</ele><time>2026-03-24T08:15:44.834Z</time></trkpt><trkpt lat="44.0952817" lon="9.7779783"><ele>301.0</ele><time>2026-03-24T08:15:46.834Z</time></trkpt><trkpt lat="44.0953283" lon="9.7780917"><ele>299.0</ele><time>2026-03-24T08:15:48.834Z</time></trkpt><trkpt lat="44.09532" lon="9.7781917"><ele>297.0</ele><time>2026-03-24T08:15:49.834Z</time></trkpt><trkpt lat="44.0953017" lon="9.7782917"><ele>295.0</ele><time>2026-03-24T08:15:50.834Z</time></trkpt><trkpt lat="44.0952683" lon="9.778395"><ele>293.0</ele><time>2026-03-24T08:15:51.834Z</time></trkpt><trkpt lat="44.09522" lon="9.778495"><ele>291.0</ele><time>2026-03-24T08:15:52.834Z</time></trkpt><trkpt lat="44.0951683" lon="9.778585"><ele>289.6666666666667</ele><time>2026-03-24T08:15:53.834Z</time></trkpt><trkpt lat="44.0951183" lon="9.77867"><ele>288.3333333333333</ele><time>2026-03-24T08:15:54.834Z</time></trkpt><trkpt lat="44.0950733" lon="9.7787383"><ele>287.0</ele><time>2026-03-24T08:15:55.834Z</time></trkpt><trkpt lat="44.0950033" lon="9.7788533"><ele>285.66666666666663</ele><time>2026-03-24T08:15:57.834Z</time></trkpt><trkpt lat="44.09499" lon="9.778945"><ele>284.3333333333333</ele><time>2026-03-24T08:15:59.834Z</time></trkpt><trkpt lat="44.0950467" lon="9.7790067"><ele>283.0</ele><time>2026-03-24T08:16:01.834Z</time></trkpt><trkpt lat="44.095145" lon="9.7789867"><ele>283.0</ele><time>2026-03-24T08:16:03.834Z</time></trkpt><trkpt lat="44.0952133" lon="9.7789783"><ele>283.0</ele><time>2026-03-24T08:16:04.834Z</time></trkpt><trkpt lat="44.09528" lon="9.7789717"><ele>283.0</ele><time>2026-03-24T08:16:05.834Z</time></trkpt><trkpt lat="44.0953783" lon="9.7789517"><ele>283.0</ele><time>2026-03-24T08:16:07.834Z</time></trkpt><trkpt lat="44.0954533" lon="9.778965"><ele>283.0</ele><time>2026-03-24T08:16:09.833Z</time></trkpt><trkpt lat="44.09549" lon="9.779075"><ele>283.0</ele><time>2026-03-24T08:16:11.834Z</time></trkpt><trkpt lat="44.0954767" lon="9.7791683"><ele>283.0</ele><time>2026-03-24T08:16:12.834Z</time></trkpt><trkpt lat="44.095445" lon="9.7792533"><ele>283.0</ele><time>2026-03-24T08:16:13.834Z</time></trkpt><trkpt lat="44.0953983" lon="9.779325"><ele>283.0</ele><time>2026-03-24T08:16:14.834Z</time></trkpt><trkpt lat="44.0953433" lon="9.7793783"><ele>283.0</ele><time>2026-03-24T08:16:15.834Z</time></trkpt><trkpt lat="44.09529" lon="9.7794267"><ele>283.0</ele><time>2026-03-24T08:16:16.834Z</time></trkpt><trkpt lat="44.0952183" lon="9.77951"><ele>283.0</ele><time>2026-03-24T08:16:18.834Z</time></trkpt><trkpt lat="44.0951817" lon="9.7796"><ele>283.0</ele><time>2026-03-24T08:16:20.834Z</time></trkpt><trkpt lat="44.0953183" lon="9.7796267"><ele>282.3333333333333</ele><time>2026-03-24T08:16:24.834Z</time></trkpt><trkpt lat="44.0954033" lon="9.7796067"><ele>281.66666666666663</ele><time>2026-03-24T08:16:25.834Z</time></trkpt><trkpt lat="44.0954867" lon="9.7795767"><ele>281.0</ele><time>2026-03-24T08:16:26.834Z</time></trkpt><trkpt lat="44.0955583" lon="9.7795367"><ele>280.3333333333333</ele><time>2026-03-24T08:16:27.834Z</time></trkpt><trkpt lat="44.09563" lon="9.7794967"><ele>279.6666666666667</ele><time>2026-03-24T08:16:28.834Z</time></trkpt><trkpt lat="44.09569" lon="9.7794617"><ele>279.0</ele><time>2026-03-24T08:16:29.834Z</time></trkpt><trkpt lat="44.095755" lon="9.7793967"><ele>274.59999999999997</ele><time>2026-03-24T08:16:31.834Z</time></trkpt><trkpt lat="44.0958267" lon="9.7793683"><ele>270.2</ele><time>2026-03-24T08:16:33.834Z</time></trkpt><trkpt lat="44.0958833" lon="9.7794617"><ele>265.79999999999995</ele><time>2026-03-24T08:16:35.834Z</time></trkpt><trkpt lat="44.0958883" lon="9.7796483"><ele>261.4</ele><time>2026-03-24T08:16:37.834Z</time></trkpt><trkpt lat="44.0958733" lon="9.7797667"><ele>257.0</ele><time>2026-03-24T08:16:38.834Z</time></trkpt><trkpt lat="44.095865" lon="9.779895"><ele>257.0</ele><time>2026-03-24T08:16:39.833Z</time></trkpt><trkpt lat="44.09586" lon="9.78001"><ele>257.0</ele><time>2026-03-24T08:16:40.834Z</time></trkpt><trkpt lat="44.0958467" lon="9.7800983"><ele>257.0</ele><time>2026-03-24T08:16:41.834Z</time></trkpt><trkpt lat="44.0957967" lon="9.78025"><ele>257.0</ele><time>2026-03-24T08:16:43.833Z</time></trkpt><trkpt lat="44.0957283" lon="9.7803517"><ele>257.0</ele><time>2026-03-24T08:16:45.834Z</time></trkpt><trkpt lat="44.0957167" lon="9.7804517"><ele>257.0</ele><time>2026-03-24T08:16:47.834Z</time></trkpt><trkpt lat="44.095775" lon="9.7804917"><ele>255.66666666666669</ele><time>2026-03-24T08:16:49.834Z</time></trkpt><trkpt lat="44.095865" lon="9.780465"><ele>254.33333333333334</ele><time>2026-03-24T08:16:51.834Z</time></trkpt><trkpt lat="44.09592" lon="9.7804217"><ele>253.0</ele><time>2026-03-24T08:16:52.834Z</time></trkpt><trkpt lat="44.09602" lon="9.78036"><ele>251.66666666666669</ele><time>2026-03-24T08:16:54.834Z</time></trkpt><trkpt lat="44.0960917" lon="9.780425"><ele>250.33333333333334</ele><time>2026-03-24T08:16:56.833Z</time></trkpt><trkpt lat="44.0961117" lon="9.780515"><ele>249.0</ele><time>2026-03-24T08:16:57.834Z</time></trkpt><trkpt lat="44.0961017" lon="9.780615"><ele>249.0</ele><time>2026-03-24T08:16:58.834Z</time></trkpt><trkpt lat="44.0960833" lon="9.7807133"><ele>249.0</ele><time>2026-03-24T08:16:59.834Z</time></trkpt><trkpt lat="44.09606" lon="9.7808117"><ele>249.0</ele><time>2026-03-24T08:17:00.834Z</time></trkpt><trkpt lat="44.096025" lon="9.7808867"><ele>249.0</ele><time>2026-03-24T08:17:01.834Z</time></trkpt><trkpt lat="44.0959533" lon="9.7810083"><ele>249.0</ele><time>2026-03-24T08:17:03.834Z</time></trkpt><trkpt lat="44.095915" lon="9.7811167"><ele>249.0</ele><time>2026-03-24T08:17:05.834Z</time></trkpt><trkpt lat="44.096" lon="9.781165"><ele>249.0</ele><time>2026-03-24T08:17:08.834Z</time></trkpt><trkpt lat="44.0960717" lon="9.781115"><ele>249.0</ele><time>2026-03-24T08:17:09.834Z</time></trkpt><trkpt lat="44.096125" lon="9.781055"><ele>249.0</ele><time>2026-03-24T08:17:10.834Z</time></trkpt><trkpt lat="44.0961767" lon="9.780975"><ele>249.0</ele><time>2026-03-24T08:17:11.834Z</time></trkpt><trkpt lat="44.0962217" lon="9.780905"><ele>249.0</ele><time>2026-03-24T08:17:12.833Z</time></trkpt><trkpt lat="44.096275" lon="9.78077"><ele>249.0</ele><time>2026-03-24T08:17:14.834Z</time></trkpt><trkpt lat="44.09632" lon="9.7806433"><ele>249.0</ele><time>2026-03-24T08:17:16.834Z</time></trkpt><trkpt lat="44.0963817" lon="9.780585"><ele>249.0</ele><time>2026-03-24T08:17:18.834Z</time></trkpt><trkpt lat="44.0964533" lon="9.7806517"><ele>249.0</ele><time>2026-03-24T08:17:20.834Z</time></trkpt><trkpt lat="44.0964667" lon="9.7807533"><ele>249.0</ele><time>2026-03-24T08:17:21.834Z</time></trkpt><trkpt lat="44.0964317" lon="9.7808867"><ele>249.0</ele><time>2026-03-24T08:17:22.834Z</time></trkpt><trkpt lat="44.0964" lon="9.7809933"><ele>249.0</ele><time>2026-03-24T08:17:23.834Z</time></trkpt><trkpt lat="44.0963617" lon="9.7810783"><ele>250.0</ele><time>2026-03-24T08:17:24.834Z</time></trkpt><trkpt lat="44.0963217" lon="9.7812083"><ele>251.0</ele><time>2026-03-24T08:17:26.834Z</time></trkpt><trkpt lat="44.0963633" lon="9.7813017"><ele>252.0</ele><time>2026-03-24T08:17:28.834Z</time></trkpt><trkpt lat="44.0964617" lon="9.7812717"><ele>253.0</ele><time>2026-03-24T08:17:30.834Z</time></trkpt><trkpt lat="44.09652" lon="9.7811883"><ele>254.0</ele><time>2026-03-24T08:17:31.834Z</time></trkpt><trkpt lat="44.0965717" lon="9.7811083"><ele>255.0</ele><time>2026-03-24T08:17:32.834Z</time></trkpt><trkpt lat="44.0966133" lon="9.7809617"><ele>250.66666666666666</ele><time>2026-03-24T08:17:34.834Z</time></trkpt><trkpt lat="44.09666" lon="9.7808367"><ele>246.33333333333331</ele><time>2026-03-24T08:17:36.834Z</time></trkpt><trkpt lat="44.096725" lon="9.7808933"><ele>242.0</ele><time>2026-03-24T08:17:38.834Z</time></trkpt><trkpt lat="44.0967367" lon="9.7810017"><ele>237.66666666666666</ele><time>2026-03-24T08:17:39.833Z</time></trkpt><trkpt lat="44.096735" lon="9.781135"><ele>233.33333333333331</ele><time>2026-03-24T08:17:40.834Z</time></trkpt><trkpt lat="44.0967417" lon="9.78127"><ele>229.0</ele><time>2026-03-24T08:17:41.833Z</time></trkpt><trkpt lat="44.0967417" lon="9.7814067"><ele>227.16666666666666</ele><time>2026-03-24T08:17:42.834Z</time></trkpt><trkpt lat="44.096725" lon="9.7815133"><ele>225.33333333333331</ele><time>2026-03-24T08:17:43.834Z</time></trkpt><trkpt lat="44.0966917" lon="9.781595"><ele>223.5</ele><time>2026-03-24T08:17:44.834Z</time></trkpt><trkpt lat="44.09661" lon="9.7816917"><ele>221.66666666666669</ele><time>2026-03-24T08:17:46.834Z</time></trkpt><trkpt lat="44.0966583" lon="9.7817867"><ele>219.83333333333334</ele><time>2026-03-24T08:17:49.834Z</time></trkpt><trkpt lat="44.0967517" lon="9.7817483"><ele>218.0</ele><time>2026-03-24T08:17:51.834Z</time></trkpt><trkpt lat="44.096845" lon="9.78169"><ele>218.0</ele><time>2026-03-24T08:17:53.834Z</time></trkpt><trkpt lat="44.0969133" lon="9.7817583"><ele>218.0</ele><time>2026-03-24T08:17:55.834Z</time></trkpt><trkpt lat="44.0968733" lon="9.7819067"><ele>218.0</ele><time>2026-03-24T08:17:57.834Z</time></trkpt><trkpt lat="44.0967733" lon="9.7819767"><ele>218.0</ele><time>2026-03-24T08:17:59.834Z</time></trkpt><trkpt lat="44.096675" lon="9.7820483"><ele>218.0</ele><time>2026-03-24T08:18:01.834Z</time></trkpt><trkpt lat="44.0966283" lon="9.78218"><ele>217.4</ele><time>2026-03-24T08:18:03.833Z</time></trkpt><trkpt lat="44.0966383" lon="9.7823283"><ele>216.8</ele><time>2026-03-24T08:18:05.834Z</time></trkpt><trkpt lat="44.0966883" lon="9.7824967"><ele>216.2</ele><time>2026-03-24T08:18:07.834Z</time></trkpt><trkpt lat="44.0967283" lon="9.7825883"><ele>215.6</ele><time>2026-03-24T08:18:08.834Z</time></trkpt><trkpt lat="44.0967633" lon="9.7826917"><ele>215.0</ele><time>2026-03-24T08:18:09.833Z</time></trkpt><trkpt lat="44.0967983" lon="9.7828217"><ele>213.2</ele><time>2026-03-24T08:18:10.834Z</time></trkpt><trkpt lat="44.0968333" lon="9.7829567"><ele>211.4</ele><time>2026-03-24T08:18:11.834Z</time></trkpt><trkpt lat="44.0968567" lon="9.7831"><ele>209.60000000000002</ele><time>2026-03-24T08:18:12.834Z</time></trkpt><trkpt lat="44.0968683" lon="9.7832367"><ele>207.8</ele><time>2026-03-24T08:18:13.834Z</time></trkpt><trkpt lat="44.096875" lon="9.783365"><ele>206.0</ele><time>2026-03-24T08:18:14.833Z</time></trkpt><trkpt lat="44.0969033" lon="9.7834983"><ele>202.8</ele><time>2026-03-24T08:18:15.834Z</time></trkpt><trkpt lat="44.0969283" lon="9.7836167"><ele>199.60000000000002</ele><time>2026-03-24T08:18:16.834Z</time></trkpt><trkpt lat="44.0969483" lon="9.7837383"><ele>196.4</ele><time>2026-03-24T08:18:17.834Z</time></trkpt><trkpt lat="44.0969583" lon="9.7838733"><ele>193.2</ele><time>2026-03-24T08:18:18.834Z</time></trkpt><trkpt lat="44.0969617" lon="9.784015"><ele>190.0</ele><time>2026-03-24T08:18:19.834Z</time></trkpt><trkpt lat="44.0969667" lon="9.7841517"><ele>190.0</ele><time>2026-03-24T08:18:20.834Z</time></trkpt><trkpt lat="44.0969667" lon="9.7842783"><ele>190.0</ele><time>2026-03-24T08:18:21.834Z</time></trkpt><trkpt lat="44.0969683" lon="9.7843983"><ele>190.0</ele><time>2026-03-24T08:18:22.834Z</time></trkpt><trkpt lat="44.09696" lon="9.7845"><ele>190.0</ele><time>2026-03-24T08:18:23.834Z</time></trkpt><trkpt lat="44.0969533" lon="9.7845967"><ele>190.0</ele><time>2026-03-24T08:18:24.833Z</time></trkpt><trkpt lat="44.0969467" lon="9.7846867"><ele>190.0</ele><time>2026-03-24T08:18:25.834Z</time></trkpt><trkpt lat="44.0969233" lon="9.7847683"><ele>190.0</ele><time>2026-03-24T08:18:26.834Z</time></trkpt><trkpt lat="44.0968417" lon="9.7848567"><ele>188.4</ele><time>2026-03-24T08:18:28.834Z</time></trkpt><trkpt lat="44.0967367" lon="9.7847783"><ele>186.8</ele><time>2026-03-24T08:18:30.834Z</time></trkpt><trkpt lat="44.0966967" lon="9.784695"><ele>185.2</ele><time>2026-03-24T08:18:31.834Z</time></trkpt><trkpt lat="44.0966217" lon="9.784565"><ele>183.6</ele><time>2026-03-24T08:18:33.834Z</time></trkpt><trkpt lat="44.0965383" lon="9.7845217"><ele>182.0</ele><time>2026-03-24T08:18:35.834Z</time></trkpt><trkpt lat="44.09646" lon="9.7846167"><ele>182.0</ele><time>2026-03-24T08:18:37.834Z</time></trkpt><trkpt lat="44.0964667" lon="9.7847533"><ele>182.0</ele><time>2026-03-24T08:18:39.834Z</time></trkpt><trkpt lat="44.09652" lon="9.7848283"><ele>182.0</ele><time>2026-03-24T08:18:40.834Z</time></trkpt><trkpt lat="44.0965933" lon="9.7849233"><ele>182.0</ele><time>2026-03-24T08:18:41.834Z</time></trkpt><trkpt lat="44.0966817" lon="9.7850283"><ele>182.0</ele><time>2026-03-24T08:18:42.834Z</time></trkpt><trkpt lat="44.0967517" lon="9.78514"><ele>182.16666666666666</ele><time>2026-03-24T08:18:43.834Z</time></trkpt><trkpt lat="44.0968017" lon="9.78525"><ele>182.33333333333331</ele><time>2026-03-24T08:18:44.834Z</time></trkpt><trkpt lat="44.0968467" lon="9.785355"><ele>182.5</ele><time>2026-03-24T08:18:45.834Z</time></trkpt><trkpt lat="44.0968883" lon="9.7854517"><ele>182.66666666666666</ele><time>2026-03-24T08:18:46.834Z</time></trkpt><trkpt lat="44.0969267" lon="9.7855283"><ele>182.83333333333334</ele><time>2026-03-24T08:18:47.834Z</time></trkpt><trkpt lat="44.0970167" lon="9.7856217"><ele>183.0</ele><time>2026-03-24T08:18:49.834Z</time></trkpt><trkpt lat="44.097105" lon="9.7855133"><ele>183.0</ele><time>2026-03-24T08:18:51.834Z</time></trkpt><trkpt lat="44.0971483" lon="9.7854"><ele>183.0</ele><time>2026-03-24T08:18:52.834Z</time></trkpt><trkpt lat="44.0972033" lon="9.785285"><ele>183.0</ele><time>2026-03-24T08:18:53.834Z</time></trkpt><trkpt lat="44.09725" lon="9.785155"><ele>183.0</ele><time>2026-03-24T08:18:54.834Z</time></trkpt><trkpt lat="44.0972833" lon="9.7850317"><ele>183.0</ele><time>2026-03-24T08:18:55.834Z</time></trkpt><trkpt lat="44.0973083" lon="9.7849333"><ele>182.16666666666666</ele><time>2026-03-24T08:18:56.834Z</time></trkpt><trkpt lat="44.0973383" lon="9.784775"><ele>181.33333333333334</ele><time>2026-03-24T08:18:58.834Z</time></trkpt><trkpt lat="44.097355" lon="9.784655"><ele>180.5</ele><time>2026-03-24T08:19:00.834Z</time></trkpt><trkpt lat="44.0974017" lon="9.7845733"><ele>179.66666666666669</ele><time>2026-03-24T08:19:02.834Z</time></trkpt><trkpt lat="44.0974267" lon="9.78469"><ele>178.83333333333334</ele><time>2026-03-24T08:19:05.834Z</time></trkpt><trkpt lat="44.0974117" lon="9.7847817"><ele>178.0</ele><time>2026-03-24T08:19:06.834Z</time></trkpt><trkpt lat="44.0974083" lon="9.784875"><ele>178.0</ele><time>2026-03-24T08:19:07.834Z</time></trkpt><trkpt lat="44.0974083" lon="9.7849783"><ele>178.0</ele><time>2026-03-24T08:19:08.834Z</time></trkpt><trkpt lat="44.0974183" lon="9.7850917"><ele>178.0</ele><time>2026-03-24T08:19:09.834Z</time></trkpt><trkpt lat="44.09743" lon="9.7852067"><ele>178.0</ele><time>2026-03-24T08:19:10.833Z</time></trkpt><trkpt lat="44.0974367" lon="9.7853133"><ele>178.0</ele><time>2026-03-24T08:19:11.834Z</time></trkpt><trkpt lat="44.0974583" lon="9.7854183"><ele>178.0</ele><time>2026-03-24T08:19:12.834Z</time></trkpt><trkpt lat="44.0974933" lon="9.7855267"><ele>175.83333333333334</ele><time>2026-03-24T08:19:13.834Z</time></trkpt><trkpt lat="44.0975433" lon="9.7856333"><ele>173.66666666666669</ele><time>2026-03-24T08:19:14.834Z</time></trkpt><trkpt lat="44.0976" lon="9.7857433"><ele>171.5</ele><time>2026-03-24T08:19:15.833Z</time></trkpt><trkpt lat="44.0976417" lon="9.785845"><ele>169.33333333333334</ele><time>2026-03-24T08:19:16.834Z</time></trkpt><trkpt lat="44.0976933" lon="9.7859433"><ele>167.16666666666666</ele><time>2026-03-24T08:19:17.834Z</time></trkpt><trkpt lat="44.0977433" lon="9.7860283"><ele>165.0</ele><time>2026-03-24T08:19:18.834Z</time></trkpt><trkpt lat="44.097805" lon="9.7861067"><ele>165.0</ele><time>2026-03-24T08:19:19.834Z</time></trkpt><trkpt lat="44.09787" lon="9.786185"><ele>165.0</ele><time>2026-03-24T08:19:20.834Z</time></trkpt><trkpt lat="44.0979467" lon="9.786255"><ele>165.0</ele><time>2026-03-24T08:19:21.833Z</time></trkpt><trkpt lat="44.0980233" lon="9.7863217"><ele>165.0</ele><time>2026-03-24T08:19:22.834Z</time></trkpt><trkpt lat="44.0980967" lon="9.78639"><ele>165.0</ele><time>2026-03-24T08:19:23.834Z</time></trkpt><trkpt lat="44.0981733" lon="9.786475"><ele>165.0</ele><time>2026-03-24T08:19:24.834Z</time></trkpt><trkpt lat="44.098245" lon="9.7865733"><ele>165.0</ele><time>2026-03-24T08:19:25.834Z</time></trkpt><trkpt lat="44.0983067" lon="9.7866867"><ele>165.0</ele><time>2026-03-24T08:19:26.834Z</time></trkpt><trkpt lat="44.0983683" lon="9.786805"><ele>165.0</ele><time>2026-03-24T08:19:27.834Z</time></trkpt><trkpt lat="44.0984167" lon="9.7869267"><ele>165.0</ele><time>2026-03-24T08:19:28.834Z</time></trkpt><trkpt lat="44.09846" lon="9.787065"><ele>160.4</ele><time>2026-03-24T08:19:29.833Z</time></trkpt><trkpt lat="44.0984933" lon="9.7872067"><ele>155.8</ele><time>2026-03-24T08:19:30.834Z</time></trkpt><trkpt lat="44.0985333" lon="9.78734"><ele>151.2</ele><time>2026-03-24T08:19:31.834Z</time></trkpt><trkpt lat="44.0985717" lon="9.7874667"><ele>146.6</ele><time>2026-03-24T08:19:32.834Z</time></trkpt><trkpt lat="44.0986233" lon="9.7875917"><ele>142.0</ele><time>2026-03-24T08:19:33.834Z</time></trkpt><trkpt lat="44.0986767" lon="9.7877067"><ele>141.6</ele><time>2026-03-24T08:19:34.834Z</time></trkpt><trkpt lat="44.0987333" lon="9.7878183"><ele>141.2</ele><time>2026-03-24T08:19:35.833Z</time></trkpt><trkpt lat="44.098795" lon="9.787925"><ele>140.8</ele><time>2026-03-24T08:19:36.834Z</time></trkpt><trkpt lat="44.0988517" lon="9.7880367"><ele>140.4</ele><time>2026-03-24T08:19:37.833Z</time></trkpt><trkpt lat="44.0989083" lon="9.7881467"><ele>140.0</ele><time>2026-03-24T08:19:38.834Z</time></trkpt><trkpt lat="44.0989633" lon="9.7882683"><ele>140.0</ele><time>2026-03-24T08:19:39.834Z</time></trkpt><trkpt lat="44.099015" lon="9.7883883"><ele>140.0</ele><time>2026-03-24T08:19:40.834Z</time></trkpt><trkpt lat="44.0990683" lon="9.7885033"><ele>140.0</ele><time>2026-03-24T08:19:41.834Z</time></trkpt><trkpt lat="44.09912" lon="9.7886317"><ele>140.0</ele><time>2026-03-24T08:19:42.834Z</time></trkpt><trkpt lat="44.099175" lon="9.7887583"><ele>140.0</ele><time>2026-03-24T08:19:43.833Z</time></trkpt><trkpt lat="44.0992383" lon="9.7888683"><ele>137.83333333333331</ele><time>2026-03-24T08:19:44.834Z</time></trkpt><trkpt lat="44.0993033" lon="9.7889633"><ele>135.66666666666666</ele><time>2026-03-24T08:19:45.834Z</time></trkpt><trkpt lat="44.0993633" lon="9.7890417"><ele>133.5</ele><time>2026-03-24T08:19:46.834Z</time></trkpt><trkpt lat="44.099415" lon="9.7891"><ele>131.33333333333334</ele><time>2026-03-24T08:19:47.834Z</time></trkpt><trkpt lat="44.0994717" lon="9.7892183"><ele>129.16666666666669</ele><time>2026-03-24T08:19:49.833Z</time></trkpt><trkpt lat="44.0994417" lon="9.7893017"><ele>127.0</ele><time>2026-03-24T08:19:51.834Z</time></trkpt><trkpt lat="44.09936" lon="9.789275"><ele>127.0</ele><time>2026-03-24T08:19:53.834Z</time></trkpt><trkpt lat="44.099255" lon="9.78921"><ele>127.0</ele><time>2026-03-24T08:19:55.834Z</time></trkpt><trkpt lat="44.09915" lon="9.789255"><ele>127.0</ele><time>2026-03-24T08:19:57.834Z</time></trkpt><trkpt lat="44.0990817" lon="9.7894"><ele>127.0</ele><time>2026-03-24T08:19:59.833Z</time></trkpt><trkpt lat="44.099075" lon="9.789565"><ele>126.8</ele><time>2026-03-24T08:20:01.834Z</time></trkpt><trkpt lat="44.099095" lon="9.7897367"><ele>126.6</ele><time>2026-03-24T08:20:03.834Z</time></trkpt><trkpt lat="44.0991183" lon="9.7899183"><ele>126.39999999999999</ele><time>2026-03-24T08:20:05.833Z</time></trkpt><trkpt lat="44.0991433" lon="9.7900133"><ele>126.19999999999999</ele><time>2026-03-24T08:20:06.834Z</time></trkpt><trkpt lat="44.099165" lon="9.7901133"><ele>126.0</ele><time>2026-03-24T08:20:07.834Z</time></trkpt><trkpt lat="44.0991867" lon="9.7902183"><ele>125.8</ele><time>2026-03-24T08:20:08.833Z</time></trkpt><trkpt lat="44.0992017" lon="9.7903317"><ele>125.6</ele><time>2026-03-24T08:20:09.834Z</time></trkpt><trkpt lat="44.0992067" lon="9.7904583"><ele>125.4</ele><time>2026-03-24T08:20:10.833Z</time></trkpt><trkpt lat="44.099205" lon="9.79058"><ele>125.2</ele><time>2026-03-24T08:20:11.834Z</time></trkpt><trkpt lat="44.0992083" lon="9.79072"><ele>125.0</ele><time>2026-03-24T08:20:12.833Z</time></trkpt><trkpt lat="44.0992083" lon="9.79086"><ele>125.0</ele><time>2026-03-24T08:20:13.834Z</time></trkpt><trkpt lat="44.0992133" lon="9.7910033"><ele>125.0</ele><time>2026-03-24T08:20:14.834Z</time></trkpt><trkpt lat="44.09921" lon="9.7911567"><ele>125.0</ele><time>2026-03-24T08:20:15.833Z</time></trkpt><trkpt lat="44.09922" lon="9.7913033"><ele>125.0</ele><time>2026-03-24T08:20:16.834Z</time></trkpt><trkpt lat="44.099235" lon="9.7914533"><ele>125.0</ele><time>2026-03-24T08:20:17.834Z</time></trkpt><trkpt lat="44.0992617" lon="9.7915967"><ele>125.0</ele><time>2026-03-24T08:20:18.834Z</time></trkpt><trkpt lat="44.0992967" lon="9.7917417"><ele>125.0</ele><time>2026-03-24T08:20:19.834Z</time></trkpt><trkpt lat="44.0993283" lon="9.7918783"><ele>125.0</ele><time>2026-03-24T08:20:20.834Z</time></trkpt><trkpt lat="44.0993717" lon="9.7920267"><ele>125.0</ele><time>2026-03-24T08:20:21.834Z</time></trkpt><trkpt lat="44.0994183" lon="9.79218"><ele>125.0</ele><time>2026-03-24T08:20:22.834Z</time></trkpt><trkpt lat="44.0994733" lon="9.7923383"><ele>127.0</ele><time>2026-03-24T08:20:23.834Z</time></trkpt><trkpt lat="44.099515" lon="9.7925"><ele>129.0</ele><time>2026-03-24T08:20:24.833Z</time></trkpt><trkpt lat="44.099555" lon="9.7926583"><ele>131.0</ele><time>2026-03-24T08:20:25.834Z</time></trkpt><trkpt lat="44.0995933" lon="9.7928083"><ele>133.0</ele><time>2026-03-24T08:20:26.834Z</time></trkpt><trkpt lat="44.09963" lon="9.7929583"><ele>135.5</ele><time>2026-03-24T08:20:27.834Z</time></trkpt><trkpt lat="44.0996717" lon="9.7931167"><ele>138.0</ele><time>2026-03-24T08:20:28.834Z</time></trkpt><trkpt lat="44.09973" lon="9.7932717"><ele>140.5</ele><time>2026-03-24T08:20:29.834Z</time></trkpt><trkpt lat="44.0997983" lon="9.7934167"><ele>143.0</ele><time>2026-03-24T08:20:30.834Z</time></trkpt><trkpt lat="44.099875" lon="9.7935533"><ele>132.75</ele><time>2026-03-24T08:20:31.833Z</time></trkpt><trkpt lat="44.09996" lon="9.7936933"><ele>122.5</ele><time>2026-03-24T08:20:32.834Z</time></trkpt><trkpt lat="44.1000333" lon="9.79382"><ele>112.25</ele><time>2026-03-24T08:20:33.834Z</time></trkpt><trkpt lat="44.10011" lon="9.7939517"><ele>102.0</ele><time>2026-03-24T08:20:34.834Z</time></trkpt><trkpt lat="44.1001783" lon="9.7941"><ele>102.0</ele><time>2026-03-24T08:20:35.834Z</time></trkpt><trkpt lat="44.100235" lon="9.794255"><ele>102.0</ele><time>2026-03-24T08:20:36.833Z</time></trkpt><trkpt lat="44.1002917" lon="9.79441"><ele>102.0</ele><time>2026-03-24T08:20:37.834Z</time></trkpt><trkpt lat="44.1003483" lon="9.7945633"><ele>102.0</ele><time>2026-03-24T08:20:38.834Z</time></trkpt><trkpt lat="44.100395" lon="9.7947117"><ele>106.0</ele><time>2026-03-24T08:20:39.834Z</time></trkpt><trkpt lat="44.100445" lon="9.7948617"><ele>110.0</ele><time>2026-03-24T08:20:40.834Z</time></trkpt><trkpt lat="44.1005067" lon="9.795015"><ele>114.0</ele><time>2026-03-24T08:20:41.834Z</time></trkpt><trkpt lat="44.1005667" lon="9.7951633"><ele>118.0</ele><time>2026-03-24T08:20:42.834Z</time></trkpt><trkpt lat="44.100625" lon="9.7953067"><ele>123.0</ele><time>2026-03-24T08:20:43.834Z</time></trkpt><trkpt lat="44.1006733" lon="9.7954567"><ele>128.0</ele><time>2026-03-24T08:20:44.834Z</time></trkpt><trkpt lat="44.1007233" lon="9.7956083"><ele>133.0</ele><time>2026-03-24T08:20:45.834Z</time></trkpt><trkpt lat="44.1007817" lon="9.7957667"><ele>138.0</ele><time>2026-03-24T08:20:46.834Z</time></trkpt><trkpt lat="44.1008267" lon="9.7959217"><ele>126.5</ele><time>2026-03-24T08:20:47.833Z</time></trkpt><trkpt lat="44.1008617" lon="9.7960717"><ele>115.0</ele><time>2026-03-24T08:20:48.834Z</time></trkpt><trkpt lat="44.1009067" lon="9.7962133"><ele>103.5</ele><time>2026-03-24T08:20:49.834Z</time></trkpt><trkpt lat="44.1009517" lon="9.7963667"><ele>92.0</ele><time>2026-03-24T08:20:50.834Z</time></trkpt><trkpt lat="44.1010033" lon="9.7965"><ele>92.0</ele><time>2026-03-24T08:20:51.834Z</time></trkpt><trkpt lat="44.1010817" lon="9.7966283"><ele>92.0</ele><time>2026-03-24T08:20:52.834Z</time></trkpt><trkpt lat="44.1011467" lon="9.796745"><ele>92.0</ele><time>2026-03-24T08:20:53.833Z</time></trkpt><trkpt lat="44.1012133" lon="9.79686"><ele>92.0</ele><time>2026-03-24T08:20:54.834Z</time></trkpt><trkpt lat="44.1012783" lon="9.7969717"><ele>92.0</ele><time>2026-03-24T08:20:55.833Z</time></trkpt><trkpt lat="44.10133" lon="9.7971017"><ele>95.0</ele><time>2026-03-24T08:20:56.833Z</time></trkpt><trkpt lat="44.101365" lon="9.7972383"><ele>98.0</ele><time>2026-03-24T08:20:57.833Z</time></trkpt><trkpt lat="44.1013933" lon="9.79737"><ele>100.99999999999999</ele><time>2026-03-24T08:20:58.834Z</time></trkpt><trkpt lat="44.1014183" lon="9.7975033"><ele>104.0</ele><time>2026-03-24T08:20:59.833Z</time></trkpt><trkpt lat="44.1014517" lon="9.797625"><ele>107.0</ele><time>2026-03-24T08:21:00.834Z</time></trkpt><trkpt lat="44.101495" lon="9.7977367"><ele>107.49999999999999</ele><time>2026-03-24T08:21:01.834Z</time></trkpt><trkpt lat="44.1015517" lon="9.7978317"><ele>108.0</ele><time>2026-03-24T08:21:02.833Z</time></trkpt><trkpt lat="44.1016267" lon="9.7979017"><ele>108.5</ele><time>2026-03-24T08:21:03.833Z</time></trkpt><trkpt lat="44.1016967" lon="9.79796"><ele>109.0</ele><time>2026-03-24T08:21:04.833Z</time></trkpt><trkpt lat="44.101785" lon="9.7980017"><ele>109.49999999999999</ele><time>2026-03-24T08:21:05.833Z</time></trkpt><trkpt lat="44.1018767" lon="9.7980317"><ele>110.0</ele><time>2026-03-24T08:21:06.833Z</time></trkpt><trkpt lat="44.10196" lon="9.7980517"><ele>101.0</ele><time>2026-03-24T08:21:07.833Z</time></trkpt><trkpt lat="44.1020333" lon="9.79807"><ele>92.0</ele><time>2026-03-24T08:21:08.833Z</time></trkpt><trkpt lat="44.1020967" lon="9.79809"><ele>83.0</ele><time>2026-03-24T08:21:09.833Z</time></trkpt><trkpt lat="44.1022083" lon="9.79814"><ele>74.0</ele><time>2026-03-24T08:21:11.833Z</time></trkpt><trkpt lat="44.10228" lon="9.7982567"><ele>65.0</ele><time>2026-03-24T08:21:13.833Z</time></trkpt><trkpt lat="44.1022933" lon="9.798425"><ele>65.14285714285715</ele><time>2026-03-24T08:21:15.832Z</time></trkpt><trkpt lat="44.1022817" lon="9.7985167"><ele>65.28571428571429</ele><time>2026-03-24T08:21:16.833Z</time></trkpt><trkpt lat="44.10227" lon="9.7986117"><ele>65.42857142857143</ele><time>2026-03-24T08:21:17.833Z</time></trkpt><trkpt lat="44.1022617" lon="9.79871"><ele>65.57142857142858</ele><time>2026-03-24T08:21:18.833Z</time></trkpt><trkpt lat="44.1022483" lon="9.7988217"><ele>65.71428571428572</ele><time>2026-03-24T08:21:19.833Z</time></trkpt><trkpt lat="44.1022317" lon="9.7989283"><ele>65.85714285714286</ele><time>2026-03-24T08:21:20.833Z</time></trkpt><trkpt lat="44.1021983" lon="9.7990267"><ele>66.0</ele><time>2026-03-24T08:21:21.833Z</time></trkpt><trkpt lat="44.1021617" lon="9.7991367"><ele>66.0</ele><time>2026-03-24T08:21:22.833Z</time></trkpt><trkpt lat="44.1021217" lon="9.799235"><ele>66.0</ele><time>2026-03-24T08:21:23.833Z</time></trkpt><trkpt lat="44.1020817" lon="9.799335"><ele>66.0</ele><time>2026-03-24T08:21:24.833Z</time></trkpt><trkpt lat="44.1020483" lon="9.7994233"><ele>66.0</ele><time>2026-03-24T08:21:25.833Z</time></trkpt><trkpt lat="44.1020217" lon="9.799515"><ele>66.0</ele><time>2026-03-24T08:21:26.833Z</time></trkpt><trkpt lat="44.102015" lon="9.7996083"><ele>66.0</ele><time>2026-03-24T08:21:27.833Z</time></trkpt><trkpt lat="44.1020283" lon="9.7996967"><ele>66.0</ele><time>2026-03-24T08:21:28.833Z</time></trkpt><trkpt lat="44.1020567" lon="9.7997967"><ele>65.66666666666667</ele><time>2026-03-24T08:21:29.833Z</time></trkpt><trkpt lat="44.1020833" lon="9.79989"><ele>65.33333333333333</ele><time>2026-03-24T08:21:30.833Z</time></trkpt><trkpt lat="44.1021183" lon="9.8000633"><ele>65.0</ele><time>2026-03-24T08:21:32.833Z</time></trkpt><trkpt lat="44.1021317" lon="9.80016"><ele>64.66666666666666</ele><time>2026-03-24T08:21:33.833Z</time></trkpt><trkpt lat="44.1021533" lon="9.8002633"><ele>64.33333333333333</ele><time>2026-03-24T08:21:34.832Z</time></trkpt><trkpt lat="44.1021817" lon="9.8003633"><ele>64.0</ele><time>2026-03-24T08:21:35.833Z</time></trkpt><trkpt lat="44.1021883" lon="9.800455"><ele>64.0</ele><time>2026-03-24T08:21:36.833Z</time></trkpt><trkpt lat="44.1021917" lon="9.8005467"><ele>64.0</ele><time>2026-03-24T08:21:37.833Z</time></trkpt><trkpt lat="44.1022317" lon="9.8006983"><ele>64.0</ele><time>2026-03-24T08:21:39.833Z</time></trkpt><trkpt lat="44.10231" lon="9.8008317"><ele>64.0</ele><time>2026-03-24T08:21:41.833Z</time></trkpt><trkpt lat="44.1023683" lon="9.8009233"><ele>64.0</ele><time>2026-03-24T08:21:42.833Z</time></trkpt><trkpt lat="44.10242" lon="9.801025"><ele>59.33333333333333</ele><time>2026-03-24T08:21:43.833Z</time></trkpt><trkpt lat="44.102465" lon="9.80114"><ele>54.666666666666664</ele><time>2026-03-24T08:21:44.833Z</time></trkpt><trkpt lat="44.1025033" lon="9.8012567"><ele>50.0</ele><time>2026-03-24T08:21:45.833Z</time></trkpt><trkpt lat="44.1025417" lon="9.8013617"><ele>45.33333333333333</ele><time>2026-03-24T08:21:46.833Z</time></trkpt><trkpt lat="44.1025717" lon="9.8014567"><ele>40.666666666666664</ele><time>2026-03-24T08:21:47.833Z</time></trkpt><trkpt lat="44.1026067" lon="9.8015367"><ele>36.0</ele><time>2026-03-24T08:21:48.833Z</time></trkpt><trkpt lat="44.1026633" lon="9.8016733"><ele>36.0</ele><time>2026-03-24T08:21:50.832Z</time></trkpt><trkpt lat="44.1026933" lon="9.8018"><ele>36.0</ele><time>2026-03-24T08:21:52.833Z</time></trkpt><trkpt lat="44.1027233" lon="9.8018817"><ele>36.0</ele><time>2026-03-24T08:21:54.833Z</time></trkpt><trkpt lat="44.1027567" lon="9.8019683"><ele>36.0</ele><time>2026-03-24T08:21:56.833Z</time></trkpt><trkpt lat="44.1028033" lon="9.8020783"><ele>36.0</ele><time>2026-03-24T08:21:58.832Z</time></trkpt><trkpt lat="44.1028717" lon="9.802205"><ele>36.0</ele><time>2026-03-24T08:22:00.833Z</time></trkpt><trkpt lat="44.1029767" lon="9.802305"><ele>36.42857142857143</ele><time>2026-03-24T08:22:02.832Z</time></trkpt><trkpt lat="44.103035" lon="9.80235"><ele>36.85714285714286</ele><time>2026-03-24T08:22:03.832Z</time></trkpt><trkpt lat="44.1030983" lon="9.8023933"><ele>37.28571428571429</ele><time>2026-03-24T08:22:04.833Z</time></trkpt><trkpt lat="44.1031683" lon="9.8024333"><ele>37.714285714285715</ele><time>2026-03-24T08:22:05.833Z</time></trkpt><trkpt lat="44.1032367" lon="9.8024767"><ele>38.14285714285714</ele><time>2026-03-24T08:22:06.833Z</time></trkpt><trkpt lat="44.1033083" lon="9.8025183"><ele>38.57142857142858</ele><time>2026-03-24T08:22:07.833Z</time></trkpt><trkpt lat="44.1033817" lon="9.8025567"><ele>39.0</ele><time>2026-03-24T08:22:08.833Z</time></trkpt><trkpt lat="44.1034567" lon="9.802595"><ele>37.166666666666664</ele><time>2026-03-24T08:22:09.833Z</time></trkpt><trkpt lat="44.1035367" lon="9.8026333"><ele>35.333333333333336</ele><time>2026-03-24T08:22:10.833Z</time></trkpt><trkpt lat="44.1036183" lon="9.80267"><ele>33.5</ele><time>2026-03-24T08:22:11.833Z</time></trkpt><trkpt lat="44.103705" lon="9.8027033"><ele>31.666666666666668</ele><time>2026-03-24T08:22:12.833Z</time></trkpt><trkpt lat="44.1037917" lon="9.802735"><ele>29.833333333333336</ele><time>2026-03-24T08:22:13.833Z</time></trkpt><trkpt lat="44.1038783" lon="9.8027667"><ele>28.0</ele><time>2026-03-24T08:22:14.833Z</time></trkpt><trkpt lat="44.1039617" lon="9.802795"><ele>28.000000000000004</ele><time>2026-03-24T08:22:15.833Z</time></trkpt><trkpt lat="44.1040433" lon="9.8028333"><ele>28.0</ele><time>2026-03-24T08:22:16.833Z</time></trkpt><trkpt lat="44.1041233" lon="9.802865"><ele>28.0</ele><time>2026-03-24T08:22:17.832Z</time></trkpt><trkpt lat="44.1042083" lon="9.8029083"><ele>28.0</ele><time>2026-03-24T08:22:18.832Z</time></trkpt><trkpt lat="44.1042917" lon="9.8029783"><ele>28.000000000000004</ele><time>2026-03-24T08:22:19.833Z</time></trkpt><trkpt lat="44.1043633" lon="9.8030133"><ele>28.0</ele><time>2026-03-24T08:22:20.833Z</time></trkpt><trkpt lat="44.1044367" lon="9.8030483"><ele>26.799999999999997</ele><time>2026-03-24T08:22:21.833Z</time></trkpt><trkpt lat="44.104505" lon="9.8030917"><ele>25.599999999999998</ele><time>2026-03-24T08:22:22.833Z</time></trkpt><trkpt lat="44.1045767" lon="9.8031467"><ele>24.4</ele><time>2026-03-24T08:22:23.832Z</time></trkpt><trkpt lat="44.1046433" lon="9.8031933"><ele>23.200000000000003</ele><time>2026-03-24T08:22:24.833Z</time></trkpt><trkpt lat="44.1047483" lon="9.8032667"><ele>22.0</ele><time>2026-03-24T08:22:26.833Z</time></trkpt><trkpt lat="44.1048383" lon="9.8033333"><ele>22.0</ele><time>2026-03-24T08:22:28.833Z</time></trkpt><trkpt lat="44.1048933" lon="9.8033917"><ele>22.0</ele><time>2026-03-24T08:22:30.833Z</time></trkpt><trkpt lat="44.10496" lon="9.8034317"><ele>22.0</ele><time>2026-03-24T08:22:35.833Z</time></trkpt><trkpt lat="44.10504" lon="9.80342"><ele>22.0</ele><time>2026-03-24T08:22:38.833Z</time></trkpt><trkpt lat="44.1051017" lon="9.8033433"><ele>22.0</ele><time>2026-03-24T08:22:40.833Z</time></trkpt><trkpt lat="44.1051667" lon="9.8033183"><ele>22.0</ele><time>2026-03-24T08:22:42.833Z</time></trkpt><trkpt lat="44.1052417" lon="9.8033533"><ele>21.666666666666664</ele><time>2026-03-24T08:22:44.833Z</time></trkpt><trkpt lat="44.105315" lon="9.80343"><ele>21.333333333333332</ele><time>2026-03-24T08:22:46.833Z</time></trkpt><trkpt lat="44.1053833" lon="9.8035133"><ele>21.0</ele><time>2026-03-24T08:22:48.833Z</time></trkpt><trkpt lat="44.1054517" lon="9.803585"><ele>20.666666666666668</ele><time>2026-03-24T08:22:50.833Z</time></trkpt><trkpt lat="44.1055133" lon="9.80364"><ele>20.333333333333336</ele><time>2026-03-24T08:22:52.833Z</time></trkpt><trkpt lat="44.1055967" lon="9.8036433"><ele>20.0</ele><time>2026-03-24T08:22:55.833Z</time></trkpt><trkpt lat="44.105675" lon="9.803595"><ele>19.666666666666668</ele><time>2026-03-24T08:22:58.833Z</time></trkpt><trkpt lat="44.10574" lon="9.8035767"><ele>19.333333333333336</ele><time>2026-03-24T08:23:00.833Z</time></trkpt><trkpt lat="44.1058233" lon="9.80356"><ele>19.0</ele><time>2026-03-24T08:23:02.833Z</time></trkpt><trkpt lat="44.1059083" lon="9.8035483"><ele>18.666666666666668</ele><time>2026-03-24T08:23:04.833Z</time></trkpt><trkpt lat="44.1059967" lon="9.8035433"><ele>18.333333333333332</ele><time>2026-03-24T08:23:06.833Z</time></trkpt><trkpt lat="44.1060833" lon="9.803515"><ele>18.0</ele><time>2026-03-24T08:23:08.833Z</time></trkpt><trkpt lat="44.106175" lon="9.8034917"><ele>18.4</ele><time>2026-03-24T08:23:10.833Z</time></trkpt><trkpt lat="44.10628" lon="9.803485"><ele>18.8</ele><time>2026-03-24T08:23:12.833Z</time></trkpt><trkpt lat="44.1063967" lon="9.803485"><ele>19.2</ele><time>2026-03-24T08:23:14.833Z</time></trkpt><trkpt lat="44.106505" lon="9.8034817"><ele>19.6</ele><time>2026-03-24T08:23:16.833Z</time></trkpt><trkpt lat="44.1066133" lon="9.803495"><ele>20.0</ele><time>2026-03-24T08:23:18.832Z</time></trkpt><trkpt lat="44.106715" lon="9.8035233"><ele>20.0</ele><time>2026-03-24T08:23:20.833Z</time></trkpt><trkpt lat="44.10682" lon="9.8035633"><ele>20.0</ele><time>2026-03-24T08:23:22.833Z</time></trkpt><trkpt lat="44.10692" lon="9.8036083"><ele>20.0</ele><time>2026-03-24T08:23:24.833Z</time></trkpt><trkpt lat="44.1070217" lon="9.8036567"><ele>20.0</ele><time>2026-03-24T08:23:26.833Z</time></trkpt><trkpt lat="44.1071217" lon="9.8037117"><ele>20.0</ele><time>2026-03-24T08:23:28.833Z</time></trkpt><trkpt lat="44.1072233" lon="9.803775"><ele>20.0</ele><time>2026-03-24T08:23:30.832Z</time></trkpt><trkpt lat="44.10731" lon="9.8038483"><ele>20.0</ele><time>2026-03-24T08:23:32.833Z</time></trkpt><trkpt lat="44.1073983" lon="9.8039233"><ele>20.0</ele><time>2026-03-24T08:23:34.833Z</time></trkpt><trkpt lat="44.107485" lon="9.8040067"><ele>20.0</ele><time>2026-03-24T08:23:36.833Z</time></trkpt><trkpt lat="44.10757" lon="9.80409"><ele>20.0</ele><time>2026-03-24T08:23:38.833Z</time></trkpt><trkpt lat="44.10765" lon="9.804195"><ele>19.6</ele><time>2026-03-24T08:23:40.833Z</time></trkpt><trkpt lat="44.10773" lon="9.80429"><ele>19.2</ele><time>2026-03-24T08:23:42.833Z</time></trkpt><trkpt lat="44.1078183" lon="9.804375"><ele>18.8</ele><time>2026-03-24T08:23:44.833Z</time></trkpt><trkpt lat="44.1079" lon="9.8044667"><ele>18.4</ele><time>2026-03-24T08:23:46.833Z</time></trkpt><trkpt lat="44.1079717" lon="9.804565"><ele>18.0</ele><time>2026-03-24T08:23:48.833Z</time></trkpt><trkpt lat="44.1080383" lon="9.8046483"><ele>18.0</ele><time>2026-03-24T08:23:50.833Z</time></trkpt><trkpt lat="44.1081133" lon="9.804735"><ele>18.0</ele><time>2026-03-24T08:23:52.833Z</time></trkpt><trkpt lat="44.10818" lon="9.804815"><ele>18.0</ele><time>2026-03-24T08:23:54.833Z</time></trkpt><trkpt lat="44.1082467" lon="9.8048933"><ele>18.0</ele><time>2026-03-24T08:23:56.833Z</time></trkpt><trkpt lat="44.10832" lon="9.804975"><ele>18.0</ele><time>2026-03-24T08:23:58.833Z</time></trkpt><trkpt lat="44.1083967" lon="9.80506"><ele>17.833333333333332</ele><time>2026-03-24T08:24:00.832Z</time></trkpt><trkpt lat="44.1084783" lon="9.8051383"><ele>17.666666666666668</ele><time>2026-03-24T08:24:02.832Z</time></trkpt><trkpt lat="44.1085483" lon="9.8052133"><ele>17.5</ele><time>2026-03-24T08:24:04.833Z</time></trkpt><trkpt lat="44.1086183" lon="9.8052883"><ele>17.333333333333336</ele><time>2026-03-24T08:24:06.833Z</time></trkpt><trkpt lat="44.108695" lon="9.805355"><ele>17.166666666666668</ele><time>2026-03-24T08:24:08.833Z</time></trkpt><trkpt lat="44.1087567" lon="9.8054283"><ele>17.0</ele><time>2026-03-24T08:24:11.833Z</time></trkpt><trkpt lat="44.1088217" lon="9.8054617"><ele>16.833333333333336</ele><time>2026-03-24T08:24:23.833Z</time></trkpt><trkpt lat="44.1088983" lon="9.8054483"><ele>16.666666666666668</ele><time>2026-03-24T08:24:28.833Z</time></trkpt><trkpt lat="44.1089767" lon="9.80543"><ele>16.5</ele><time>2026-03-24T08:24:32.833Z</time></trkpt><trkpt lat="44.1090567" lon="9.80539"><ele>16.333333333333332</ele><time>2026-03-24T08:24:35.832Z</time></trkpt><trkpt lat="44.1091033" lon="9.8053"><ele>16.166666666666664</ele><time>2026-03-24T08:24:38.833Z</time></trkpt><trkpt lat="44.109155" lon="9.8052083"><ele>16.0</ele><time>2026-03-24T08:24:41.833Z</time></trkpt><trkpt lat="44.109205" lon="9.8051017"><ele>15.8</ele><time>2026-03-24T08:24:44.833Z</time></trkpt><trkpt lat="44.1092583" lon="9.80501"><ele>15.600000000000001</ele><time>2026-03-24T08:24:47.833Z</time></trkpt><trkpt lat="44.1093017" lon="9.804935"><ele>15.4</ele><time>2026-03-24T08:24:49.833Z</time></trkpt><trkpt lat="44.10935" lon="9.804825"><ele>15.2</ele><time>2026-03-24T08:24:51.832Z</time></trkpt><trkpt lat="44.1094117" lon="9.8047117"><ele>15.0</ele><time>2026-03-24T08:24:53.832Z</time></trkpt><trkpt lat="44.10948" lon="9.8045967"><ele>15.0</ele><time>2026-03-24T08:24:55.833Z</time></trkpt><trkpt lat="44.1095517" lon="9.8044917"><ele>15.0</ele><time>2026-03-24T08:24:57.833Z</time></trkpt><trkpt lat="44.10962" lon="9.8043833"><ele>15.0</ele><time>2026-03-24T08:24:59.833Z</time></trkpt><trkpt lat="44.1096917" lon="9.804265"><ele>15.0</ele><time>2026-03-24T08:25:01.833Z</time></trkpt><trkpt lat="44.1097583" lon="9.8041617"><ele>15.0</ele><time>2026-03-24T08:25:03.833Z</time></trkpt><trkpt lat="44.1098333" lon="9.8040583"><ele>15.0</ele><time>2026-03-24T08:25:05.833Z</time></trkpt><trkpt lat="44.1099017" lon="9.8039667"><ele>15.0</ele><time>2026-03-24T08:25:07.833Z</time></trkpt><trkpt lat="44.109965" lon="9.8038467"><ele>15.0</ele><time>2026-03-24T08:25:09.833Z</time></trkpt><trkpt lat="44.1100333" lon="9.80373"><ele>15.0</ele><time>2026-03-24T08:25:11.832Z</time></trkpt><trkpt lat="44.110095" lon="9.803625"><ele>15.0</ele><time>2026-03-24T08:25:13.832Z</time></trkpt><trkpt lat="44.1101483" lon="9.80354"><ele>14.833333333333334</ele><time>2026-03-24T08:25:15.833Z</time></trkpt><trkpt lat="44.1102017" lon="9.8034667"><ele>14.666666666666668</ele><time>2026-03-24T08:25:17.833Z</time></trkpt><trkpt lat="44.1102483" lon="9.80339"><ele>14.5</ele><time>2026-03-24T08:25:19.832Z</time></trkpt><trkpt lat="44.1102883" lon="9.803295"><ele>14.333333333333334</ele><time>2026-03-24T08:25:21.833Z</time></trkpt><trkpt lat="44.1103467" lon="9.8032033"><ele>14.166666666666668</ele><time>2026-03-24T08:25:23.833Z</time></trkpt><trkpt lat="44.1104067" lon="9.80311"><ele>14.0</ele><time>2026-03-24T08:25:25.832Z</time></trkpt><trkpt lat="44.1104617" lon="9.8030183"><ele>14.000000000000002</ele><time>2026-03-24T08:25:27.832Z</time></trkpt><trkpt lat="44.1105133" lon="9.8029433"><ele>14.0</ele><time>2026-03-24T08:25:29.833Z</time></trkpt><trkpt lat="44.1105667" lon="9.80287"><ele>14.0</ele><time>2026-03-24T08:25:31.833Z</time></trkpt><trkpt lat="44.1106183" lon="9.8027933"><ele>14.0</ele><time>2026-03-24T08:25:33.833Z</time></trkpt><trkpt lat="44.1106767" lon="9.8026833"><ele>14.000000000000002</ele><time>2026-03-24T08:25:35.833Z</time></trkpt><trkpt lat="44.1107317" lon="9.80258"><ele>14.0</ele><time>2026-03-24T08:25:37.833Z</time></trkpt><trkpt lat="44.1107883" lon="9.8024767"><ele>14.799999999999999</ele><time>2026-03-24T08:25:39.833Z</time></trkpt><trkpt lat="44.1108483" lon="9.8023683"><ele>15.599999999999998</ele><time>2026-03-24T08:25:41.833Z</time></trkpt><trkpt lat="44.110915" lon="9.8022633"><ele>16.4</ele><time>2026-03-24T08:25:43.833Z</time></trkpt><trkpt lat="44.1109917" lon="9.8021783"><ele>17.2</ele><time>2026-03-24T08:25:45.833Z</time></trkpt><trkpt lat="44.11107" lon="9.8021167"><ele>18.0</ele><time>2026-03-24T08:25:47.833Z</time></trkpt><trkpt lat="44.1111533" lon="9.8020667"><ele>18.0</ele><time>2026-03-24T08:25:49.833Z</time></trkpt><trkpt lat="44.1112383" lon="9.8020267"><ele>18.0</ele><time>2026-03-24T08:25:51.833Z</time></trkpt><trkpt lat="44.1113233" lon="9.8019983"><ele>18.0</ele><time>2026-03-24T08:25:53.833Z</time></trkpt><trkpt lat="44.11141" lon="9.8019867"><ele>18.0</ele><time>2026-03-24T08:25:55.833Z</time></trkpt><trkpt lat="44.1114983" lon="9.802"><ele>18.0</ele><time>2026-03-24T08:25:57.833Z</time></trkpt><trkpt lat="44.1115767" lon="9.80202"><ele>18.0</ele><time>2026-03-24T08:25:59.833Z</time></trkpt><trkpt lat="44.111665" lon="9.8020433"><ele>18.333333333333332</ele><time>2026-03-24T08:26:01.833Z</time></trkpt><trkpt lat="44.1117367" lon="9.8020667"><ele>18.666666666666668</ele><time>2026-03-24T08:26:03.833Z</time></trkpt><trkpt lat="44.1118117" lon="9.8020967"><ele>19.0</ele><time>2026-03-24T08:26:05.833Z</time></trkpt><trkpt lat="44.1118867" lon="9.802135"><ele>19.333333333333336</ele><time>2026-03-24T08:26:07.833Z</time></trkpt><trkpt lat="44.1119517" lon="9.8021983"><ele>19.666666666666668</ele><time>2026-03-24T08:26:09.833Z</time></trkpt><trkpt lat="44.1120283" lon="9.8022383"><ele>20.0</ele><time>2026-03-24T08:26:11.832Z</time></trkpt><trkpt lat="44.1121133" lon="9.8022767"><ele>20.0</ele><time>2026-03-24T08:26:13.833Z</time></trkpt><trkpt lat="44.1121917" lon="9.80233"><ele>20.0</ele><time>2026-03-24T08:26:15.833Z</time></trkpt><trkpt lat="44.1122733" lon="9.80237"><ele>20.0</ele><time>2026-03-24T08:26:17.832Z</time></trkpt><trkpt lat="44.1123533" lon="9.802405"><ele>20.0</ele><time>2026-03-24T08:26:19.833Z</time></trkpt><trkpt lat="44.1124167" lon="9.802445"><ele>20.0</ele><time>2026-03-24T08:26:21.833Z</time></trkpt><trkpt lat="44.1125033" lon="9.8024983"><ele>20.0</ele><time>2026-03-24T08:26:23.833Z</time></trkpt><trkpt lat="44.112585" lon="9.802545"><ele>20.714285714285715</ele><time>2026-03-24T08:26:25.833Z</time></trkpt><trkpt lat="44.1126617" lon="9.8025767"><ele>21.42857142857143</ele><time>2026-03-24T08:26:27.833Z</time></trkpt><trkpt lat="44.1127383" lon="9.8025983"><ele>22.142857142857146</ele><time>2026-03-24T08:26:29.833Z</time></trkpt><trkpt lat="44.11281" lon="9.8026083"><ele>22.857142857142858</ele><time>2026-03-24T08:26:31.833Z</time></trkpt><trkpt lat="44.1128733" lon="9.8026183"><ele>23.571428571428573</ele><time>2026-03-24T08:26:33.833Z</time></trkpt><trkpt lat="44.11294" lon="9.80264"><ele>24.28571428571429</ele><time>2026-03-24T08:26:35.833Z</time></trkpt><trkpt lat="44.1130167" lon="9.8026567"><ele>25.0</ele><time>2026-03-24T08:26:37.832Z</time></trkpt><trkpt lat="44.1131" lon="9.80266"><ele>25.000000000000004</ele><time>2026-03-24T08:26:39.832Z</time></trkpt><trkpt lat="44.1131917" lon="9.8026717"><ele>25.0</ele><time>2026-03-24T08:26:41.833Z</time></trkpt><trkpt lat="44.1132767" lon="9.8026933"><ele>25.0</ele><time>2026-03-24T08:26:43.833Z</time></trkpt><trkpt lat="44.113365" lon="9.802725"><ele>25.0</ele><time>2026-03-24T08:26:45.833Z</time></trkpt><trkpt lat="44.113455" lon="9.8027367"><ele>25.000000000000004</ele><time>2026-03-24T08:26:47.833Z</time></trkpt><trkpt lat="44.1135333" lon="9.8027467"><ele>25.0</ele><time>2026-03-24T08:26:49.833Z</time></trkpt><trkpt lat="44.1136267" lon="9.80278"><ele>25.000000000000004</ele><time>2026-03-24T08:26:51.833Z</time></trkpt><trkpt lat="44.1137183" lon="9.8028"><ele>25.0</ele><time>2026-03-24T08:26:53.833Z</time></trkpt><trkpt lat="44.1138033" lon="9.8028117"><ele>25.0</ele><time>2026-03-24T08:26:55.832Z</time></trkpt><trkpt lat="44.11389" lon="9.80282"><ele>25.0</ele><time>2026-03-24T08:26:57.833Z</time></trkpt><trkpt lat="44.113985" lon="9.802825"><ele>25.000000000000004</ele><time>2026-03-24T08:26:59.833Z</time></trkpt><trkpt lat="44.11407" lon="9.8028367"><ele>25.0</ele><time>2026-03-24T08:27:01.833Z</time></trkpt><trkpt lat="44.1141667" lon="9.802845"><ele>25.0</ele><time>2026-03-24T08:27:03.833Z</time></trkpt><trkpt lat="44.1142583" lon="9.802855"><ele>25.0</ele><time>2026-03-24T08:27:05.833Z</time></trkpt><trkpt lat="44.1143433" lon="9.8028783"><ele>25.0</ele><time>2026-03-24T08:27:07.833Z</time></trkpt><trkpt lat="44.114425" lon="9.8029133"><ele>25.0</ele><time>2026-03-24T08:27:09.832Z</time></trkpt><trkpt lat="44.1145233" lon="9.80296"><ele>25.0</ele><time>2026-03-24T08:27:11.833Z</time></trkpt><trkpt lat="44.1146117" lon="9.8030033"><ele>25.0</ele><time>2026-03-24T08:27:13.833Z</time></trkpt><trkpt lat="44.1146917" lon="9.8030733"><ele>25.0</ele><time>2026-03-24T08:27:15.832Z</time></trkpt><trkpt lat="44.1147717" lon="9.803145"><ele>25.0</ele><time>2026-03-24T08:27:17.833Z</time></trkpt><trkpt lat="44.11485" lon="9.8032017"><ele>25.0</ele><time>2026-03-24T08:27:19.833Z</time></trkpt><trkpt lat="44.114945" lon="9.803255"><ele>25.0</ele><time>2026-03-24T08:27:21.833Z</time></trkpt><trkpt lat="44.1150267" lon="9.8033067"><ele>25.4</ele><time>2026-03-24T08:27:23.833Z</time></trkpt><trkpt lat="44.1151017" lon="9.8033683"><ele>25.8</ele><time>2026-03-24T08:27:25.833Z</time></trkpt><trkpt lat="44.1151733" lon="9.8034267"><ele>26.200000000000003</ele><time>2026-03-24T08:27:27.833Z</time></trkpt><trkpt lat="44.11526" lon="9.8034833"><ele>26.6</ele><time>2026-03-24T08:27:29.832Z</time></trkpt><trkpt lat="44.11535" lon="9.8035417"><ele>27.0</ele><time>2026-03-24T08:27:31.833Z</time></trkpt><trkpt lat="44.1154367" lon="9.8035883"><ele>27.0</ele><time>2026-03-24T08:27:33.833Z</time></trkpt><trkpt lat="44.1155217" lon="9.803655"><ele>27.0</ele><time>2026-03-24T08:27:35.833Z</time></trkpt><trkpt lat="44.1156083" lon="9.8036967"><ele>27.0</ele><time>2026-03-24T08:27:37.833Z</time></trkpt><trkpt lat="44.1156783" lon="9.8037167"><ele>27.0</ele><time>2026-03-24T08:27:39.833Z</time></trkpt><trkpt lat="44.115755" lon="9.8037183"><ele>27.0</ele><time>2026-03-24T08:27:41.833Z</time></trkpt><trkpt lat="44.1158333" lon="9.8037033"><ele>27.0</ele><time>2026-03-24T08:27:43.833Z</time></trkpt><trkpt lat="44.11592" lon="9.8037067"><ele>27.333333333333332</ele><time>2026-03-24T08:27:45.833Z</time></trkpt><trkpt lat="44.1159967" lon="9.8036983"><ele>27.666666666666664</ele><time>2026-03-24T08:27:47.833Z</time></trkpt><trkpt lat="44.1160683" lon="9.8036767"><ele>28.0</ele><time>2026-03-24T08:27:49.833Z</time></trkpt><trkpt lat="44.1161317" lon="9.8036433"><ele>28.333333333333332</ele><time>2026-03-24T08:27:51.833Z</time></trkpt><trkpt lat="44.11621" lon="9.8035983"><ele>28.666666666666664</ele><time>2026-03-24T08:27:53.833Z</time></trkpt><trkpt lat="44.116285" lon="9.8035583"><ele>29.0</ele><time>2026-03-24T08:27:55.833Z</time></trkpt><trkpt lat="44.1163533" lon="9.8035233"><ele>29.000000000000004</ele><time>2026-03-24T08:27:57.833Z</time></trkpt><trkpt lat="44.1164333" lon="9.8035017"><ele>29.0</ele><time>2026-03-24T08:27:59.833Z</time></trkpt><trkpt lat="44.116505" lon="9.8034767"><ele>29.000000000000004</ele><time>2026-03-24T08:28:01.833Z</time></trkpt><trkpt lat="44.11656" lon="9.8034117"><ele>29.000000000000004</ele><time>2026-03-24T08:28:04.832Z</time></trkpt><trkpt lat="44.1166167" lon="9.8033483"><ele>29.0</ele><time>2026-03-24T08:28:07.833Z</time></trkpt><trkpt lat="44.116655" lon="9.8032683"><ele>29.000000000000004</ele><time>2026-03-24T08:28:10.833Z</time></trkpt><trkpt lat="44.11671" lon="9.8032217"><ele>29.000000000000004</ele><time>2026-03-24T08:28:12.833Z</time></trkpt><trkpt lat="44.1168" lon="9.8032067"><ele>29.799999999999997</ele><time>2026-03-24T08:28:14.833Z</time></trkpt><trkpt lat="44.1168817" lon="9.803195"><ele>30.599999999999998</ele><time>2026-03-24T08:28:16.832Z</time></trkpt><trkpt lat="44.1169733" lon="9.8031967"><ele>31.4</ele><time>2026-03-24T08:28:19.833Z</time></trkpt><trkpt lat="44.1170383" lon="9.8032883"><ele>32.199999999999996</ele><time>2026-03-24T08:28:21.833Z</time></trkpt><trkpt lat="44.1170867" lon="9.8033733"><ele>33.0</ele><time>2026-03-24T08:28:23.833Z</time></trkpt><trkpt lat="44.1172" lon="9.8033517"><ele>33.0</ele><time>2026-03-24T08:28:26.832Z</time></trkpt><trkpt lat="44.1172817" lon="9.8033033"><ele>33.0</ele><time>2026-03-24T08:28:28.833Z</time></trkpt><trkpt lat="44.1173433" lon="9.8032817"><ele>33.0</ele><time>2026-03-24T08:28:30.833Z</time></trkpt><trkpt lat="44.1174233" lon="9.803225"><ele>33.0</ele><time>2026-03-24T08:28:32.833Z</time></trkpt><trkpt lat="44.11749" lon="9.8031683"><ele>33.0</ele><time>2026-03-24T08:28:34.833Z</time></trkpt><trkpt lat="44.1175667" lon="9.8031333"><ele>33.0</ele><time>2026-03-24T08:28:35.833Z</time></trkpt><trkpt lat="44.11764" lon="9.8031"><ele>33.666666666666664</ele><time>2026-03-24T08:28:37.833Z</time></trkpt><trkpt lat="44.1176883" lon="9.8030117"><ele>34.333333333333336</ele><time>2026-03-24T08:28:40.833Z</time></trkpt><trkpt lat="44.1177583" lon="9.802965"><ele>35.0</ele><time>2026-03-24T08:28:43.833Z</time></trkpt><trkpt lat="44.1178333" lon="9.8029367"><ele>35.66666666666667</ele><time>2026-03-24T08:28:46.833Z</time></trkpt><trkpt lat="44.1179117" lon="9.8028683"><ele>36.333333333333336</ele><time>2026-03-24T08:28:49.832Z</time></trkpt><trkpt lat="44.117975" lon="9.8028083"><ele>37.0</ele><time>2026-03-24T08:28:51.833Z</time></trkpt><trkpt lat="44.1180983" lon="9.80284"><ele>37.0</ele><time>2026-03-24T08:28:58.833Z</time></trkpt><trkpt lat="44.11816" lon="9.8028833"><ele>37.0</ele><time>2026-03-24T08:29:00.832Z</time></trkpt><trkpt lat="44.1182317" lon="9.8029233"><ele>37.0</ele><time>2026-03-24T08:29:04.833Z</time></trkpt><trkpt lat="44.1183333" lon="9.802995"><ele>36.0</ele><time>2026-03-24T08:29:12.833Z</time></trkpt></trkseg></trk></gpx>